<?xml version="1.0" encoding="UTF-8" standalone="no" ?>
<gpx xmlns="http://www.topografix.com/GPX/1/1" xmlns:xsi="http://www.w3.org/2001/XMLSchema-instance" xsi:schemaLocation="http://www.topografix.com/GPX/1/1 http://www.topografix.com/GPX/1/1/gpx.xsd" version="1.1" creator="VisuGPX - https://www.visugpx.com">
  <metadata>
    <name>causse noir</name>
    <desc><![CDATA[boucle sur le causse noir]]></desc>
  </metadata>
  <trk>
    <name><![CDATA[12-JUIL-15 11:00:16]]></name>
    <trkseg>
      <trkpt lat="44.15278" lon="3.25773">
        <ele>869.65</ele>
        <time>2015-07-12T05:18:56Z</time>
      </trkpt>
      <trkpt lat="44.15278" lon="3.25773">
        <ele>866.29</ele>
        <time>2015-07-12T05:18:59Z</time>
      </trkpt>
      <trkpt lat="44.15278" lon="3.25773">
        <ele>872.53</ele>
        <time>2015-07-12T05:19:00Z</time>
      </trkpt>
      <trkpt lat="44.15278" lon="3.25773">
        <ele>867.73</ele>
        <time>2015-07-12T05:19:12Z</time>
      </trkpt>
      <trkpt lat="44.15278" lon="3.25773">
        <ele>872.05</ele>
        <time>2015-07-12T05:19:13Z</time>
      </trkpt>
      <trkpt lat="44.15278" lon="3.25773">
        <ele>873.01</ele>
        <time>2015-07-12T05:19:22Z</time>
      </trkpt>
      <trkpt lat="44.15278" lon="3.25773">
        <ele>871.57</ele>
        <time>2015-07-12T05:19:24Z</time>
      </trkpt>
      <trkpt lat="44.15279" lon="3.25773">
        <ele>874.46</ele>
        <time>2015-07-12T05:19:43Z</time>
      </trkpt>
      <trkpt lat="44.15279" lon="3.25773">
        <ele>871.57</ele>
        <time>2015-07-12T05:19:47Z</time>
      </trkpt>
      <trkpt lat="44.15279" lon="3.25773">
        <ele>868.21</ele>
        <time>2015-07-12T05:19:56Z</time>
      </trkpt>
      <trkpt lat="44.15279" lon="3.25773">
        <ele>872.05</ele>
        <time>2015-07-12T05:19:57Z</time>
      </trkpt>
      <trkpt lat="44.15279" lon="3.25773">
        <ele>867.73</ele>
        <time>2015-07-12T05:20:02Z</time>
      </trkpt>
      <trkpt lat="44.15279" lon="3.25773">
        <ele>872.05</ele>
        <time>2015-07-12T05:20:03Z</time>
      </trkpt>
      <trkpt lat="44.1528" lon="3.25772">
        <ele>870.61</ele>
        <time>2015-07-12T05:20:28Z</time>
      </trkpt>
      <trkpt lat="44.15279" lon="3.25772">
        <ele>870.61</ele>
        <time>2015-07-12T05:20:53Z</time>
      </trkpt>
      <trkpt lat="44.1528" lon="3.25771">
        <ele>871.57</ele>
        <time>2015-07-12T05:21:28Z</time>
      </trkpt>
      <trkpt lat="44.15282" lon="3.2577">
        <ele>871.57</ele>
        <time>2015-07-12T05:21:38Z</time>
      </trkpt>
      <trkpt lat="44.15282" lon="3.2577">
        <ele>871.57</ele>
        <time>2015-07-12T05:21:43Z</time>
      </trkpt>
      <trkpt lat="44.15281" lon="3.25744">
        <ele>871.57</ele>
        <time>2015-07-12T05:21:55Z</time>
      </trkpt>
      <trkpt lat="44.15265" lon="3.25735">
        <ele>870.13</ele>
        <time>2015-07-12T05:22:04Z</time>
      </trkpt>
      <trkpt lat="44.15241" lon="3.25726">
        <ele>868.21</ele>
        <time>2015-07-12T05:22:17Z</time>
      </trkpt>
      <trkpt lat="44.15238" lon="3.25726">
        <ele>868.21</ele>
        <time>2015-07-12T05:22:33Z</time>
      </trkpt>
      <trkpt lat="44.15238" lon="3.25725">
        <ele>867.73</ele>
        <time>2015-07-12T05:22:55Z</time>
      </trkpt>
      <trkpt lat="44.15224" lon="3.25725">
        <ele>867.73</ele>
        <time>2015-07-12T05:23:09Z</time>
      </trkpt>
      <trkpt lat="44.15221" lon="3.25723">
        <ele>867.25</ele>
        <time>2015-07-12T05:23:23Z</time>
      </trkpt>
      <trkpt lat="44.1522" lon="3.25723">
        <ele>867.25</ele>
        <time>2015-07-12T05:23:41Z</time>
      </trkpt>
      <trkpt lat="44.15219" lon="3.25723">
        <ele>866.29</ele>
        <time>2015-07-12T05:24:01Z</time>
      </trkpt>
      <trkpt lat="44.15217" lon="3.25724">
        <ele>866.29</ele>
        <time>2015-07-12T05:24:11Z</time>
      </trkpt>
      <trkpt lat="44.15204" lon="3.25719">
        <ele>865.8</ele>
        <time>2015-07-12T05:24:23Z</time>
      </trkpt>
      <trkpt lat="44.15197" lon="3.25717">
        <ele>865.32</ele>
        <time>2015-07-12T05:24:29Z</time>
      </trkpt>
      <trkpt lat="44.15187" lon="3.25711">
        <ele>865.32</ele>
        <time>2015-07-12T05:24:35Z</time>
      </trkpt>
      <trkpt lat="44.15173" lon="3.25689">
        <ele>864.36</ele>
        <time>2015-07-12T05:24:49Z</time>
      </trkpt>
      <trkpt lat="44.15172" lon="3.25687">
        <ele>864.36</ele>
        <time>2015-07-12T05:25:23Z</time>
      </trkpt>
      <trkpt lat="44.15172" lon="3.25687">
        <ele>864.36</ele>
        <time>2015-07-12T05:25:44Z</time>
      </trkpt>
      <trkpt lat="44.15142" lon="3.25678">
        <ele>861.96</ele>
        <time>2015-07-12T05:25:59Z</time>
      </trkpt>
      <trkpt lat="44.15113" lon="3.25663">
        <ele>859.56</ele>
        <time>2015-07-12T05:26:12Z</time>
      </trkpt>
      <trkpt lat="44.15059" lon="3.25651">
        <ele>857.63</ele>
        <time>2015-07-12T05:26:28Z</time>
      </trkpt>
      <trkpt lat="44.15011" lon="3.25628">
        <ele>854.27</ele>
        <time>2015-07-12T05:26:41Z</time>
      </trkpt>
      <trkpt lat="44.14956" lon="3.2559">
        <ele>852.83</ele>
        <time>2015-07-12T05:26:56Z</time>
      </trkpt>
      <trkpt lat="44.14944" lon="3.25575">
        <ele>852.35</ele>
        <time>2015-07-12T05:27:00Z</time>
      </trkpt>
      <trkpt lat="44.14928" lon="3.25559">
        <ele>853.31</ele>
        <time>2015-07-12T05:27:05Z</time>
      </trkpt>
      <trkpt lat="44.14901" lon="3.25517">
        <ele>851.38</ele>
        <time>2015-07-12T05:27:18Z</time>
      </trkpt>
      <trkpt lat="44.14883" lon="3.2548">
        <ele>850.9</ele>
        <time>2015-07-12T05:27:25Z</time>
      </trkpt>
      <trkpt lat="44.14846" lon="3.25442">
        <ele>851.87</ele>
        <time>2015-07-12T05:27:38Z</time>
      </trkpt>
      <trkpt lat="44.14816" lon="3.25401">
        <ele>850.9</ele>
        <time>2015-07-12T05:27:50Z</time>
      </trkpt>
      <trkpt lat="44.14784" lon="3.25348">
        <ele>849.94</ele>
        <time>2015-07-12T05:28:04Z</time>
      </trkpt>
      <trkpt lat="44.14746" lon="3.25281">
        <ele>848.98</ele>
        <time>2015-07-12T05:28:20Z</time>
      </trkpt>
      <trkpt lat="44.14712" lon="3.25206">
        <ele>848.5</ele>
        <time>2015-07-12T05:28:36Z</time>
      </trkpt>
      <trkpt lat="44.1467" lon="3.25127">
        <ele>847.54</ele>
        <time>2015-07-12T05:28:52Z</time>
      </trkpt>
      <trkpt lat="44.14655" lon="3.25103">
        <ele>847.54</ele>
        <time>2015-07-12T05:28:57Z</time>
      </trkpt>
      <trkpt lat="44.14647" lon="3.25059">
        <ele>846.58</ele>
        <time>2015-07-12T05:29:05Z</time>
      </trkpt>
      <trkpt lat="44.14649" lon="3.25047">
        <ele>846.58</ele>
        <time>2015-07-12T05:29:07Z</time>
      </trkpt>
      <trkpt lat="44.14668" lon="3.24996">
        <ele>844.66</ele>
        <time>2015-07-12T05:29:16Z</time>
      </trkpt>
      <trkpt lat="44.1468" lon="3.24974">
        <ele>843.69</ele>
        <time>2015-07-12T05:29:20Z</time>
      </trkpt>
      <trkpt lat="44.14714" lon="3.24917">
        <ele>840.33</ele>
        <time>2015-07-12T05:29:29Z</time>
      </trkpt>
      <trkpt lat="44.14735" lon="3.24889">
        <ele>840.33</ele>
        <time>2015-07-12T05:29:37Z</time>
      </trkpt>
      <trkpt lat="44.14735" lon="3.24889">
        <ele>840.33</ele>
        <time>2015-07-12T05:29:42Z</time>
      </trkpt>
      <trkpt lat="44.14737" lon="3.24889">
        <ele>840.33</ele>
        <time>2015-07-12T05:29:57Z</time>
      </trkpt>
      <trkpt lat="44.14738" lon="3.2489">
        <ele>840.81</ele>
        <time>2015-07-12T05:30:42Z</time>
      </trkpt>
      <trkpt lat="44.14738" lon="3.2489">
        <ele>840.33</ele>
        <time>2015-07-12T05:31:32Z</time>
      </trkpt>
      <trkpt lat="44.14738" lon="3.24889">
        <ele>840.33</ele>
        <time>2015-07-12T05:31:49Z</time>
      </trkpt>
      <trkpt lat="44.1474" lon="3.24883">
        <ele>840.33</ele>
        <time>2015-07-12T05:31:53Z</time>
      </trkpt>
      <trkpt lat="44.14742" lon="3.24879">
        <ele>843.21</ele>
        <time>2015-07-12T05:32:00Z</time>
      </trkpt>
      <trkpt lat="44.14742" lon="3.24879">
        <ele>834.08</ele>
        <time>2015-07-12T05:32:10Z</time>
      </trkpt>
      <trkpt lat="44.14741" lon="3.24879">
        <ele>840.81</ele>
        <time>2015-07-12T05:32:11Z</time>
      </trkpt>
      <trkpt lat="44.14741" lon="3.24879">
        <ele>840.33</ele>
        <time>2015-07-12T05:32:16Z</time>
      </trkpt>
      <trkpt lat="44.14746" lon="3.24874">
        <ele>839.85</ele>
        <time>2015-07-12T05:32:20Z</time>
      </trkpt>
      <trkpt lat="44.14788" lon="3.24823">
        <ele>836.48</ele>
        <time>2015-07-12T05:32:36Z</time>
      </trkpt>
      <trkpt lat="44.14823" lon="3.24777">
        <ele>834.08</ele>
        <time>2015-07-12T05:32:50Z</time>
      </trkpt>
      <trkpt lat="44.1485" lon="3.24744">
        <ele>831.68</ele>
        <time>2015-07-12T05:33:00Z</time>
      </trkpt>
      <trkpt lat="44.14884" lon="3.24687">
        <ele>828.31</ele>
        <time>2015-07-12T05:33:10Z</time>
      </trkpt>
      <trkpt lat="44.1489" lon="3.24675">
        <ele>827.83</ele>
        <time>2015-07-12T05:33:12Z</time>
      </trkpt>
      <trkpt lat="44.149" lon="3.24642">
        <ele>826.87</ele>
        <time>2015-07-12T05:33:17Z</time>
      </trkpt>
      <trkpt lat="44.14899" lon="3.24603">
        <ele>826.39</ele>
        <time>2015-07-12T05:33:23Z</time>
      </trkpt>
      <trkpt lat="44.14894" lon="3.24586">
        <ele>825.91</ele>
        <time>2015-07-12T05:33:26Z</time>
      </trkpt>
      <trkpt lat="44.14855" lon="3.24489">
        <ele>824.95</ele>
        <time>2015-07-12T05:33:44Z</time>
      </trkpt>
      <trkpt lat="44.14846" lon="3.24466">
        <ele>823.99</ele>
        <time>2015-07-12T05:33:48Z</time>
      </trkpt>
      <trkpt lat="44.14787" lon="3.24376">
        <ele>824.47</ele>
        <time>2015-07-12T05:34:07Z</time>
      </trkpt>
      <trkpt lat="44.14746" lon="3.24357">
        <ele>825.43</ele>
        <time>2015-07-12T05:34:20Z</time>
      </trkpt>
      <trkpt lat="44.14681" lon="3.24341">
        <ele>822.06</ele>
        <time>2015-07-12T05:34:34Z</time>
      </trkpt>
      <trkpt lat="44.14614" lon="3.24321">
        <ele>824.95</ele>
        <time>2015-07-12T05:34:49Z</time>
      </trkpt>
      <trkpt lat="44.14587" lon="3.24308">
        <ele>828.31</ele>
        <time>2015-07-12T05:35:02Z</time>
      </trkpt>
      <trkpt lat="44.14568" lon="3.24293">
        <ele>830.24</ele>
        <time>2015-07-12T05:35:15Z</time>
      </trkpt>
      <trkpt lat="44.14546" lon="3.24273">
        <ele>832.64</ele>
        <time>2015-07-12T05:35:31Z</time>
      </trkpt>
      <trkpt lat="44.1452" lon="3.24251">
        <ele>835.52</ele>
        <time>2015-07-12T05:35:49Z</time>
      </trkpt>
      <trkpt lat="44.14501" lon="3.24235">
        <ele>836.48</ele>
        <time>2015-07-12T05:36:03Z</time>
      </trkpt>
      <trkpt lat="44.14494" lon="3.24229">
        <ele>836</ele>
        <time>2015-07-12T05:36:08Z</time>
      </trkpt>
      <trkpt lat="44.1445" lon="3.24225">
        <ele>834.08</ele>
        <time>2015-07-12T05:36:26Z</time>
      </trkpt>
      <trkpt lat="44.14407" lon="3.24255">
        <ele>830.72</ele>
        <time>2015-07-12T05:36:40Z</time>
      </trkpt>
      <trkpt lat="44.14378" lon="3.24287">
        <ele>827.83</ele>
        <time>2015-07-12T05:36:49Z</time>
      </trkpt>
      <trkpt lat="44.14361" lon="3.24305">
        <ele>825.91</ele>
        <time>2015-07-12T05:36:53Z</time>
      </trkpt>
      <trkpt lat="44.14342" lon="3.24325">
        <ele>823.51</ele>
        <time>2015-07-12T05:36:57Z</time>
      </trkpt>
      <trkpt lat="44.14304" lon="3.24365">
        <ele>820.62</ele>
        <time>2015-07-12T05:37:07Z</time>
      </trkpt>
      <trkpt lat="44.14265" lon="3.24407">
        <ele>817.74</ele>
        <time>2015-07-12T05:37:17Z</time>
      </trkpt>
      <trkpt lat="44.14222" lon="3.24452">
        <ele>814.37</ele>
        <time>2015-07-12T05:37:28Z</time>
      </trkpt>
      <trkpt lat="44.14182" lon="3.24494">
        <ele>813.41</ele>
        <time>2015-07-12T05:37:42Z</time>
      </trkpt>
      <trkpt lat="44.14163" lon="3.24516">
        <ele>812.93</ele>
        <time>2015-07-12T05:37:50Z</time>
      </trkpt>
      <trkpt lat="44.14159" lon="3.24507">
        <ele>811.97</ele>
        <time>2015-07-12T05:37:55Z</time>
      </trkpt>
      <trkpt lat="44.14161" lon="3.245">
        <ele>812.45</ele>
        <time>2015-07-12T05:38:07Z</time>
      </trkpt>
      <trkpt lat="44.14162" lon="3.24497">
        <ele>812.45</ele>
        <time>2015-07-12T05:38:18Z</time>
      </trkpt>
      <trkpt lat="44.14162" lon="3.24495">
        <ele>811.97</ele>
        <time>2015-07-12T05:38:31Z</time>
      </trkpt>
      <trkpt lat="44.14162" lon="3.24496">
        <ele>812.45</ele>
        <time>2015-07-12T05:39:12Z</time>
      </trkpt>
      <trkpt lat="44.14162" lon="3.24496">
        <ele>812.45</ele>
        <time>2015-07-12T05:39:33Z</time>
      </trkpt>
      <trkpt lat="44.14162" lon="3.24495">
        <ele>812.93</ele>
        <time>2015-07-12T05:39:51Z</time>
      </trkpt>
      <trkpt lat="44.14163" lon="3.24495">
        <ele>812.45</ele>
        <time>2015-07-12T05:40:13Z</time>
      </trkpt>
      <trkpt lat="44.14164" lon="3.24492">
        <ele>812.45</ele>
        <time>2015-07-12T05:40:16Z</time>
      </trkpt>
      <trkpt lat="44.14182" lon="3.24476">
        <ele>812.45</ele>
        <time>2015-07-12T05:40:31Z</time>
      </trkpt>
      <trkpt lat="44.14204" lon="3.24453">
        <ele>813.41</ele>
        <time>2015-07-12T05:40:45Z</time>
      </trkpt>
      <trkpt lat="44.14217" lon="3.24414">
        <ele>814.85</ele>
        <time>2015-07-12T05:41:01Z</time>
      </trkpt>
      <trkpt lat="44.14228" lon="3.24361">
        <ele>813.41</ele>
        <time>2015-07-12T05:41:18Z</time>
      </trkpt>
      <trkpt lat="44.14229" lon="3.24302">
        <ele>813.89</ele>
        <time>2015-07-12T05:41:34Z</time>
      </trkpt>
      <trkpt lat="44.14233" lon="3.24228">
        <ele>813.41</ele>
        <time>2015-07-12T05:41:52Z</time>
      </trkpt>
      <trkpt lat="44.14216" lon="3.24197">
        <ele>816.3</ele>
        <time>2015-07-12T05:42:06Z</time>
      </trkpt>
      <trkpt lat="44.14207" lon="3.24197">
        <ele>817.26</ele>
        <time>2015-07-12T05:42:12Z</time>
      </trkpt>
      <trkpt lat="44.14202" lon="3.24197">
        <ele>817.74</ele>
        <time>2015-07-12T05:42:25Z</time>
      </trkpt>
      <trkpt lat="44.14197" lon="3.24196">
        <ele>818.22</ele>
        <time>2015-07-12T05:42:42Z</time>
      </trkpt>
      <trkpt lat="44.14182" lon="3.2419">
        <ele>819.18</ele>
        <time>2015-07-12T05:42:56Z</time>
      </trkpt>
      <trkpt lat="44.1418" lon="3.2419">
        <ele>819.66</ele>
        <time>2015-07-12T05:42:59Z</time>
      </trkpt>
      <trkpt lat="44.14175" lon="3.24188">
        <ele>819.66</ele>
        <time>2015-07-12T05:43:03Z</time>
      </trkpt>
      <trkpt lat="44.14151" lon="3.24185">
        <ele>821.1</ele>
        <time>2015-07-12T05:43:19Z</time>
      </trkpt>
      <trkpt lat="44.14127" lon="3.24181">
        <ele>822.06</ele>
        <time>2015-07-12T05:43:34Z</time>
      </trkpt>
      <trkpt lat="44.1412" lon="3.24176">
        <ele>823.51</ele>
        <time>2015-07-12T05:43:39Z</time>
      </trkpt>
      <trkpt lat="44.14115" lon="3.24141">
        <ele>825.43</ele>
        <time>2015-07-12T05:43:56Z</time>
      </trkpt>
      <trkpt lat="44.14115" lon="3.2411">
        <ele>825.91</ele>
        <time>2015-07-12T05:44:11Z</time>
      </trkpt>
      <trkpt lat="44.14103" lon="3.24071">
        <ele>824.47</ele>
        <time>2015-07-12T05:44:25Z</time>
      </trkpt>
      <trkpt lat="44.14093" lon="3.24043">
        <ele>824.47</ele>
        <time>2015-07-12T05:44:37Z</time>
      </trkpt>
      <trkpt lat="44.14093" lon="3.24043">
        <ele>823.99</ele>
        <time>2015-07-12T05:44:41Z</time>
      </trkpt>
      <trkpt lat="44.1409" lon="3.24044">
        <ele>824.95</ele>
        <time>2015-07-12T05:44:53Z</time>
      </trkpt>
      <trkpt lat="44.14094" lon="3.24041">
        <ele>823.99</ele>
        <time>2015-07-12T05:45:03Z</time>
      </trkpt>
      <trkpt lat="44.14095" lon="3.24039">
        <ele>823.99</ele>
        <time>2015-07-12T05:45:14Z</time>
      </trkpt>
      <trkpt lat="44.14096" lon="3.24037">
        <ele>823.51</ele>
        <time>2015-07-12T05:45:20Z</time>
      </trkpt>
      <trkpt lat="44.14097" lon="3.24034">
        <ele>823.03</ele>
        <time>2015-07-12T05:45:34Z</time>
      </trkpt>
      <trkpt lat="44.14096" lon="3.24031">
        <ele>823.51</ele>
        <time>2015-07-12T05:45:52Z</time>
      </trkpt>
      <trkpt lat="44.141" lon="3.2402">
        <ele>823.03</ele>
        <time>2015-07-12T05:45:57Z</time>
      </trkpt>
      <trkpt lat="44.14102" lon="3.23974">
        <ele>823.99</ele>
        <time>2015-07-12T05:46:13Z</time>
      </trkpt>
      <trkpt lat="44.14074" lon="3.23946">
        <ele>822.55</ele>
        <time>2015-07-12T05:46:27Z</time>
      </trkpt>
      <trkpt lat="44.14048" lon="3.23924">
        <ele>822.06</ele>
        <time>2015-07-12T05:46:40Z</time>
      </trkpt>
      <trkpt lat="44.14016" lon="3.23914">
        <ele>820.14</ele>
        <time>2015-07-12T05:46:51Z</time>
      </trkpt>
      <trkpt lat="44.14007" lon="3.23913">
        <ele>819.18</ele>
        <time>2015-07-12T05:46:53Z</time>
      </trkpt>
      <trkpt lat="44.1397" lon="3.23916">
        <ele>819.18</ele>
        <time>2015-07-12T05:47:05Z</time>
      </trkpt>
      <trkpt lat="44.13963" lon="3.23916">
        <ele>819.66</ele>
        <time>2015-07-12T05:47:09Z</time>
      </trkpt>
      <trkpt lat="44.13954" lon="3.23914">
        <ele>819.66</ele>
        <time>2015-07-12T05:47:13Z</time>
      </trkpt>
      <trkpt lat="44.13918" lon="3.23899">
        <ele>818.22</ele>
        <time>2015-07-12T05:47:28Z</time>
      </trkpt>
      <trkpt lat="44.13909" lon="3.23886">
        <ele>816.3</ele>
        <time>2015-07-12T05:47:33Z</time>
      </trkpt>
      <trkpt lat="44.13903" lon="3.23875">
        <ele>814.85</ele>
        <time>2015-07-12T05:47:39Z</time>
      </trkpt>
      <trkpt lat="44.13902" lon="3.23862">
        <ele>813.89</ele>
        <time>2015-07-12T05:47:49Z</time>
      </trkpt>
      <trkpt lat="44.13902" lon="3.23858">
        <ele>813.89</ele>
        <time>2015-07-12T05:48:05Z</time>
      </trkpt>
      <trkpt lat="44.13903" lon="3.23848">
        <ele>812.93</ele>
        <time>2015-07-12T05:48:09Z</time>
      </trkpt>
      <trkpt lat="44.13904" lon="3.23836">
        <ele>811.49</ele>
        <time>2015-07-12T05:48:14Z</time>
      </trkpt>
      <trkpt lat="44.13904" lon="3.23826">
        <ele>810.05</ele>
        <time>2015-07-12T05:48:19Z</time>
      </trkpt>
      <trkpt lat="44.13882" lon="3.23822">
        <ele>807.64</ele>
        <time>2015-07-12T05:48:34Z</time>
      </trkpt>
      <trkpt lat="44.13877" lon="3.23822">
        <ele>807.16</ele>
        <time>2015-07-12T05:48:37Z</time>
      </trkpt>
      <trkpt lat="44.13867" lon="3.23814">
        <ele>804.76</ele>
        <time>2015-07-12T05:48:44Z</time>
      </trkpt>
      <trkpt lat="44.13854" lon="3.23805">
        <ele>802.84</ele>
        <time>2015-07-12T05:48:53Z</time>
      </trkpt>
      <trkpt lat="44.13838" lon="3.23804">
        <ele>800.92</ele>
        <time>2015-07-12T05:49:03Z</time>
      </trkpt>
      <trkpt lat="44.13835" lon="3.23803">
        <ele>799.95</ele>
        <time>2015-07-12T05:49:05Z</time>
      </trkpt>
      <trkpt lat="44.13833" lon="3.23803">
        <ele>799.47</ele>
        <time>2015-07-12T05:49:06Z</time>
      </trkpt>
      <trkpt lat="44.13824" lon="3.23804">
        <ele>798.99</ele>
        <time>2015-07-12T05:49:10Z</time>
      </trkpt>
      <trkpt lat="44.13816" lon="3.23805">
        <ele>797.07</ele>
        <time>2015-07-12T05:49:14Z</time>
      </trkpt>
      <trkpt lat="44.1381" lon="3.2381">
        <ele>796.11</ele>
        <time>2015-07-12T05:49:18Z</time>
      </trkpt>
      <trkpt lat="44.13805" lon="3.23811">
        <ele>796.11</ele>
        <time>2015-07-12T05:49:31Z</time>
      </trkpt>
      <trkpt lat="44.13802" lon="3.23811">
        <ele>795.15</ele>
        <time>2015-07-12T05:50:06Z</time>
      </trkpt>
      <trkpt lat="44.13784" lon="3.23796">
        <ele>793.22</ele>
        <time>2015-07-12T05:50:19Z</time>
      </trkpt>
      <trkpt lat="44.13775" lon="3.23794">
        <ele>792.26</ele>
        <time>2015-07-12T05:50:26Z</time>
      </trkpt>
      <trkpt lat="44.1376" lon="3.23771">
        <ele>789.38</ele>
        <time>2015-07-12T05:50:38Z</time>
      </trkpt>
      <trkpt lat="44.13759" lon="3.23769">
        <ele>788.9</ele>
        <time>2015-07-12T05:50:39Z</time>
      </trkpt>
      <trkpt lat="44.13758" lon="3.23763">
        <ele>788.42</ele>
        <time>2015-07-12T05:50:41Z</time>
      </trkpt>
      <trkpt lat="44.13763" lon="3.23742">
        <ele>785.53</ele>
        <time>2015-07-12T05:50:49Z</time>
      </trkpt>
      <trkpt lat="44.13762" lon="3.2373">
        <ele>785.05</ele>
        <time>2015-07-12T05:50:56Z</time>
      </trkpt>
      <trkpt lat="44.13756" lon="3.23718">
        <ele>784.09</ele>
        <time>2015-07-12T05:51:02Z</time>
      </trkpt>
      <trkpt lat="44.13733" lon="3.23698">
        <ele>783.61</ele>
        <time>2015-07-12T05:51:16Z</time>
      </trkpt>
      <trkpt lat="44.13708" lon="3.23688">
        <ele>784.09</ele>
        <time>2015-07-12T05:51:30Z</time>
      </trkpt>
      <trkpt lat="44.13691" lon="3.23686">
        <ele>785.53</ele>
        <time>2015-07-12T05:51:43Z</time>
      </trkpt>
      <trkpt lat="44.13667" lon="3.23689">
        <ele>786.5</ele>
        <time>2015-07-12T05:51:56Z</time>
      </trkpt>
      <trkpt lat="44.13664" lon="3.2369">
        <ele>786.98</ele>
        <time>2015-07-12T05:51:58Z</time>
      </trkpt>
      <trkpt lat="44.13642" lon="3.23695">
        <ele>787.94</ele>
        <time>2015-07-12T05:52:12Z</time>
      </trkpt>
      <trkpt lat="44.13623" lon="3.23699">
        <ele>789.86</ele>
        <time>2015-07-12T05:52:25Z</time>
      </trkpt>
      <trkpt lat="44.1362" lon="3.23699">
        <ele>789.86</ele>
        <time>2015-07-12T05:52:27Z</time>
      </trkpt>
      <trkpt lat="44.13612" lon="3.23701">
        <ele>790.82</ele>
        <time>2015-07-12T05:52:41Z</time>
      </trkpt>
      <trkpt lat="44.13602" lon="3.23706">
        <ele>790.34</ele>
        <time>2015-07-12T05:52:59Z</time>
      </trkpt>
      <trkpt lat="44.13582" lon="3.2371">
        <ele>791.3</ele>
        <time>2015-07-12T05:53:12Z</time>
      </trkpt>
      <trkpt lat="44.13555" lon="3.23712">
        <ele>791.78</ele>
        <time>2015-07-12T05:53:26Z</time>
      </trkpt>
      <trkpt lat="44.13545" lon="3.23715">
        <ele>791.78</ele>
        <time>2015-07-12T05:53:33Z</time>
      </trkpt>
      <trkpt lat="44.13535" lon="3.23717">
        <ele>791.78</ele>
        <time>2015-07-12T05:53:39Z</time>
      </trkpt>
      <trkpt lat="44.135" lon="3.23725">
        <ele>791.3</ele>
        <time>2015-07-12T05:53:55Z</time>
      </trkpt>
      <trkpt lat="44.13467" lon="3.23726">
        <ele>790.34</ele>
        <time>2015-07-12T05:54:08Z</time>
      </trkpt>
      <trkpt lat="44.13444" lon="3.23722">
        <ele>790.82</ele>
        <time>2015-07-12T05:54:21Z</time>
      </trkpt>
      <trkpt lat="44.13425" lon="3.23713">
        <ele>791.78</ele>
        <time>2015-07-12T05:54:33Z</time>
      </trkpt>
      <trkpt lat="44.13412" lon="3.23701">
        <ele>792.74</ele>
        <time>2015-07-12T05:54:45Z</time>
      </trkpt>
      <trkpt lat="44.13402" lon="3.23692">
        <ele>793.71</ele>
        <time>2015-07-12T05:54:59Z</time>
      </trkpt>
      <trkpt lat="44.13397" lon="3.23679">
        <ele>794.67</ele>
        <time>2015-07-12T05:55:07Z</time>
      </trkpt>
      <trkpt lat="44.13392" lon="3.2367">
        <ele>795.15</ele>
        <time>2015-07-12T05:55:13Z</time>
      </trkpt>
      <trkpt lat="44.13374" lon="3.23636">
        <ele>794.19</ele>
        <time>2015-07-12T05:55:29Z</time>
      </trkpt>
      <trkpt lat="44.13349" lon="3.23639">
        <ele>796.11</ele>
        <time>2015-07-12T05:55:42Z</time>
      </trkpt>
      <trkpt lat="44.13334" lon="3.23631">
        <ele>796.59</ele>
        <time>2015-07-12T05:55:51Z</time>
      </trkpt>
      <trkpt lat="44.13341" lon="3.23601">
        <ele>798.51</ele>
        <time>2015-07-12T05:56:06Z</time>
      </trkpt>
      <trkpt lat="44.13344" lon="3.23597">
        <ele>798.99</ele>
        <time>2015-07-12T05:56:09Z</time>
      </trkpt>
      <trkpt lat="44.13352" lon="3.23575">
        <ele>801.4</ele>
        <time>2015-07-12T05:56:22Z</time>
      </trkpt>
      <trkpt lat="44.13357" lon="3.23545">
        <ele>803.8</ele>
        <time>2015-07-12T05:56:37Z</time>
      </trkpt>
      <trkpt lat="44.1336" lon="3.23521">
        <ele>804.28</ele>
        <time>2015-07-12T05:56:51Z</time>
      </trkpt>
      <trkpt lat="44.13363" lon="3.23483">
        <ele>801.88</ele>
        <time>2015-07-12T05:57:02Z</time>
      </trkpt>
      <trkpt lat="44.13365" lon="3.2345">
        <ele>798.51</ele>
        <time>2015-07-12T05:57:10Z</time>
      </trkpt>
      <trkpt lat="44.13358" lon="3.23424">
        <ele>797.55</ele>
        <time>2015-07-12T05:57:19Z</time>
      </trkpt>
      <trkpt lat="44.13342" lon="3.2342">
        <ele>795.63</ele>
        <time>2015-07-12T05:57:30Z</time>
      </trkpt>
      <trkpt lat="44.13341" lon="3.23423">
        <ele>795.15</ele>
        <time>2015-07-12T05:57:32Z</time>
      </trkpt>
      <trkpt lat="44.13342" lon="3.2343">
        <ele>794.67</ele>
        <time>2015-07-12T05:57:37Z</time>
      </trkpt>
      <trkpt lat="44.13342" lon="3.23448">
        <ele>793.22</ele>
        <time>2015-07-12T05:57:42Z</time>
      </trkpt>
      <trkpt lat="44.13328" lon="3.23486">
        <ele>792.26</ele>
        <time>2015-07-12T05:57:49Z</time>
      </trkpt>
      <trkpt lat="44.13314" lon="3.2354">
        <ele>790.82</ele>
        <time>2015-07-12T05:57:57Z</time>
      </trkpt>
      <trkpt lat="44.13296" lon="3.23573">
        <ele>791.78</ele>
        <time>2015-07-12T05:58:06Z</time>
      </trkpt>
      <trkpt lat="44.13285" lon="3.23579">
        <ele>793.71</ele>
        <time>2015-07-12T05:58:13Z</time>
      </trkpt>
      <trkpt lat="44.1326" lon="3.23585">
        <ele>795.63</ele>
        <time>2015-07-12T05:58:27Z</time>
      </trkpt>
      <trkpt lat="44.13239" lon="3.2359">
        <ele>795.63</ele>
        <time>2015-07-12T05:58:38Z</time>
      </trkpt>
      <trkpt lat="44.13215" lon="3.23598">
        <ele>793.22</ele>
        <time>2015-07-12T05:58:48Z</time>
      </trkpt>
      <trkpt lat="44.13212" lon="3.236">
        <ele>792.74</ele>
        <time>2015-07-12T05:58:49Z</time>
      </trkpt>
      <trkpt lat="44.13209" lon="3.23606">
        <ele>792.26</ele>
        <time>2015-07-12T05:58:51Z</time>
      </trkpt>
      <trkpt lat="44.13188" lon="3.23639">
        <ele>788.9</ele>
        <time>2015-07-12T05:58:59Z</time>
      </trkpt>
      <trkpt lat="44.13159" lon="3.23669">
        <ele>785.53</ele>
        <time>2015-07-12T05:59:08Z</time>
      </trkpt>
      <trkpt lat="44.13132" lon="3.23669">
        <ele>783.13</ele>
        <time>2015-07-12T05:59:18Z</time>
      </trkpt>
      <trkpt lat="44.13124" lon="3.23661">
        <ele>780.73</ele>
        <time>2015-07-12T05:59:20Z</time>
      </trkpt>
      <trkpt lat="44.13099" lon="3.23648">
        <ele>779.77</ele>
        <time>2015-07-12T05:59:26Z</time>
      </trkpt>
      <trkpt lat="44.1308" lon="3.23651">
        <ele>784.09</ele>
        <time>2015-07-12T05:59:37Z</time>
      </trkpt>
      <trkpt lat="44.13059" lon="3.23652">
        <ele>784.09</ele>
        <time>2015-07-12T05:59:50Z</time>
      </trkpt>
      <trkpt lat="44.13036" lon="3.23658">
        <ele>785.53</ele>
        <time>2015-07-12T06:00:04Z</time>
      </trkpt>
      <trkpt lat="44.13011" lon="3.23664">
        <ele>788.42</ele>
        <time>2015-07-12T06:00:19Z</time>
      </trkpt>
      <trkpt lat="44.12993" lon="3.23663">
        <ele>791.3</ele>
        <time>2015-07-12T06:00:28Z</time>
      </trkpt>
      <trkpt lat="44.12992" lon="3.23661">
        <ele>791.78</ele>
        <time>2015-07-12T06:00:29Z</time>
      </trkpt>
      <trkpt lat="44.12985" lon="3.23663">
        <ele>792.74</ele>
        <time>2015-07-12T06:00:33Z</time>
      </trkpt>
      <trkpt lat="44.12974" lon="3.23661">
        <ele>794.19</ele>
        <time>2015-07-12T06:00:42Z</time>
      </trkpt>
      <trkpt lat="44.12958" lon="3.23654">
        <ele>795.63</ele>
        <time>2015-07-12T06:00:58Z</time>
      </trkpt>
      <trkpt lat="44.12949" lon="3.23648">
        <ele>796.59</ele>
        <time>2015-07-12T06:01:13Z</time>
      </trkpt>
      <trkpt lat="44.12944" lon="3.23647">
        <ele>795.63</ele>
        <time>2015-07-12T06:01:25Z</time>
      </trkpt>
      <trkpt lat="44.12944" lon="3.23646">
        <ele>796.11</ele>
        <time>2015-07-12T06:02:04Z</time>
      </trkpt>
      <trkpt lat="44.12944" lon="3.23646">
        <ele>796.11</ele>
        <time>2015-07-12T06:02:40Z</time>
      </trkpt>
      <trkpt lat="44.12943" lon="3.23645">
        <ele>795.63</ele>
        <time>2015-07-12T06:02:54Z</time>
      </trkpt>
      <trkpt lat="44.12943" lon="3.23646">
        <ele>795.63</ele>
        <time>2015-07-12T06:03:36Z</time>
      </trkpt>
      <trkpt lat="44.12943" lon="3.23647">
        <ele>796.59</ele>
        <time>2015-07-12T06:04:00Z</time>
      </trkpt>
      <trkpt lat="44.12939" lon="3.23646">
        <ele>796.59</ele>
        <time>2015-07-12T06:04:21Z</time>
      </trkpt>
      <trkpt lat="44.1293" lon="3.23649">
        <ele>796.59</ele>
        <time>2015-07-12T06:04:27Z</time>
      </trkpt>
      <trkpt lat="44.129" lon="3.2366">
        <ele>797.55</ele>
        <time>2015-07-12T06:04:46Z</time>
      </trkpt>
      <trkpt lat="44.12885" lon="3.2367">
        <ele>797.55</ele>
        <time>2015-07-12T06:04:54Z</time>
      </trkpt>
      <trkpt lat="44.12877" lon="3.23673">
        <ele>797.55</ele>
        <time>2015-07-12T06:05:05Z</time>
      </trkpt>
      <trkpt lat="44.12855" lon="3.23682">
        <ele>798.51</ele>
        <time>2015-07-12T06:05:17Z</time>
      </trkpt>
      <trkpt lat="44.12825" lon="3.23699">
        <ele>798.99</ele>
        <time>2015-07-12T06:05:32Z</time>
      </trkpt>
      <trkpt lat="44.12793" lon="3.23692">
        <ele>799.95</ele>
        <time>2015-07-12T06:05:48Z</time>
      </trkpt>
      <trkpt lat="44.12771" lon="3.23707">
        <ele>798.99</ele>
        <time>2015-07-12T06:05:58Z</time>
      </trkpt>
      <trkpt lat="44.12746" lon="3.23724">
        <ele>796.11</ele>
        <time>2015-07-12T06:06:05Z</time>
      </trkpt>
      <trkpt lat="44.12732" lon="3.23733">
        <ele>796.11</ele>
        <time>2015-07-12T06:06:08Z</time>
      </trkpt>
      <trkpt lat="44.12711" lon="3.2375">
        <ele>795.63</ele>
        <time>2015-07-12T06:06:14Z</time>
      </trkpt>
      <trkpt lat="44.1268" lon="3.23769">
        <ele>796.59</ele>
        <time>2015-07-12T06:06:26Z</time>
      </trkpt>
      <trkpt lat="44.12665" lon="3.23777">
        <ele>796.11</ele>
        <time>2015-07-12T06:06:38Z</time>
      </trkpt>
      <trkpt lat="44.12666" lon="3.23777">
        <ele>796.11</ele>
        <time>2015-07-12T06:07:12Z</time>
      </trkpt>
      <trkpt lat="44.12666" lon="3.23778">
        <ele>796.11</ele>
        <time>2015-07-12T06:07:46Z</time>
      </trkpt>
      <trkpt lat="44.12665" lon="3.23778">
        <ele>797.07</ele>
        <time>2015-07-12T06:08:14Z</time>
      </trkpt>
      <trkpt lat="44.1266" lon="3.23778">
        <ele>796.11</ele>
        <time>2015-07-12T06:08:25Z</time>
      </trkpt>
      <trkpt lat="44.1266" lon="3.23778">
        <ele>796.59</ele>
        <time>2015-07-12T06:09:08Z</time>
      </trkpt>
      <trkpt lat="44.1266" lon="3.23778">
        <ele>797.07</ele>
        <time>2015-07-12T06:09:56Z</time>
      </trkpt>
      <trkpt lat="44.12658" lon="3.23778">
        <ele>797.07</ele>
        <time>2015-07-12T06:10:09Z</time>
      </trkpt>
      <trkpt lat="44.12658" lon="3.23778">
        <ele>797.07</ele>
        <time>2015-07-12T06:10:26Z</time>
      </trkpt>
      <trkpt lat="44.12659" lon="3.23777">
        <ele>796.59</ele>
        <time>2015-07-12T06:11:06Z</time>
      </trkpt>
      <trkpt lat="44.12658" lon="3.23778">
        <ele>796.59</ele>
        <time>2015-07-12T06:11:41Z</time>
      </trkpt>
      <trkpt lat="44.12658" lon="3.23779">
        <ele>797.55</ele>
        <time>2015-07-12T06:11:57Z</time>
      </trkpt>
      <trkpt lat="44.12659" lon="3.23781">
        <ele>797.55</ele>
        <time>2015-07-12T06:11:59Z</time>
      </trkpt>
      <trkpt lat="44.12662" lon="3.23778">
        <ele>797.07</ele>
        <time>2015-07-12T06:12:11Z</time>
      </trkpt>
      <trkpt lat="44.12661" lon="3.23778">
        <ele>797.07</ele>
        <time>2015-07-12T06:12:49Z</time>
      </trkpt>
      <trkpt lat="44.12661" lon="3.23778">
        <ele>797.07</ele>
        <time>2015-07-12T06:13:22Z</time>
      </trkpt>
      <trkpt lat="44.12661" lon="3.23779">
        <ele>797.55</ele>
        <time>2015-07-12T06:13:47Z</time>
      </trkpt>
      <trkpt lat="44.12662" lon="3.23779">
        <ele>797.07</ele>
        <time>2015-07-12T06:13:51Z</time>
      </trkpt>
      <trkpt lat="44.12672" lon="3.23771">
        <ele>797.55</ele>
        <time>2015-07-12T06:13:59Z</time>
      </trkpt>
      <trkpt lat="44.12705" lon="3.23755">
        <ele>797.55</ele>
        <time>2015-07-12T06:14:15Z</time>
      </trkpt>
      <trkpt lat="44.12739" lon="3.23729">
        <ele>797.07</ele>
        <time>2015-07-12T06:14:33Z</time>
      </trkpt>
      <trkpt lat="44.12761" lon="3.23716">
        <ele>799.47</ele>
        <time>2015-07-12T06:14:45Z</time>
      </trkpt>
      <trkpt lat="44.12793" lon="3.23691">
        <ele>801.4</ele>
        <time>2015-07-12T06:15:05Z</time>
      </trkpt>
      <trkpt lat="44.12802" lon="3.23668">
        <ele>804.28</ele>
        <time>2015-07-12T06:15:13Z</time>
      </trkpt>
      <trkpt lat="44.12805" lon="3.23654">
        <ele>806.68</ele>
        <time>2015-07-12T06:15:19Z</time>
      </trkpt>
      <trkpt lat="44.12813" lon="3.2364">
        <ele>808.13</ele>
        <time>2015-07-12T06:15:31Z</time>
      </trkpt>
      <trkpt lat="44.12823" lon="3.23629">
        <ele>809.09</ele>
        <time>2015-07-12T06:15:45Z</time>
      </trkpt>
      <trkpt lat="44.12825" lon="3.23625">
        <ele>809.57</ele>
        <time>2015-07-12T06:15:48Z</time>
      </trkpt>
      <trkpt lat="44.12835" lon="3.23599">
        <ele>810.53</ele>
        <time>2015-07-12T06:16:05Z</time>
      </trkpt>
      <trkpt lat="44.12851" lon="3.23566">
        <ele>811.01</ele>
        <time>2015-07-12T06:16:23Z</time>
      </trkpt>
      <trkpt lat="44.12865" lon="3.23542">
        <ele>812.93</ele>
        <time>2015-07-12T06:16:37Z</time>
      </trkpt>
      <trkpt lat="44.1288" lon="3.23529">
        <ele>812.93</ele>
        <time>2015-07-12T06:16:49Z</time>
      </trkpt>
      <trkpt lat="44.12898" lon="3.23516">
        <ele>813.89</ele>
        <time>2015-07-12T06:17:04Z</time>
      </trkpt>
      <trkpt lat="44.12919" lon="3.23508">
        <ele>814.85</ele>
        <time>2015-07-12T06:17:17Z</time>
      </trkpt>
      <trkpt lat="44.12931" lon="3.23493">
        <ele>815.34</ele>
        <time>2015-07-12T06:17:27Z</time>
      </trkpt>
      <trkpt lat="44.12939" lon="3.23484">
        <ele>816.3</ele>
        <time>2015-07-12T06:17:33Z</time>
      </trkpt>
      <trkpt lat="44.12943" lon="3.23482">
        <ele>817.26</ele>
        <time>2015-07-12T06:17:36Z</time>
      </trkpt>
      <trkpt lat="44.12947" lon="3.23478">
        <ele>817.74</ele>
        <time>2015-07-12T06:17:40Z</time>
      </trkpt>
      <trkpt lat="44.12959" lon="3.23464">
        <ele>818.22</ele>
        <time>2015-07-12T06:17:55Z</time>
      </trkpt>
      <trkpt lat="44.12973" lon="3.23448">
        <ele>819.66</ele>
        <time>2015-07-12T06:18:12Z</time>
      </trkpt>
      <trkpt lat="44.12979" lon="3.23439">
        <ele>819.66</ele>
        <time>2015-07-12T06:18:20Z</time>
      </trkpt>
      <trkpt lat="44.12983" lon="3.23433">
        <ele>819.66</ele>
        <time>2015-07-12T06:18:25Z</time>
      </trkpt>
      <trkpt lat="44.12984" lon="3.23429">
        <ele>820.62</ele>
        <time>2015-07-12T06:18:27Z</time>
      </trkpt>
      <trkpt lat="44.12991" lon="3.23418">
        <ele>821.1</ele>
        <time>2015-07-12T06:18:35Z</time>
      </trkpt>
      <trkpt lat="44.12998" lon="3.23408">
        <ele>820.62</ele>
        <time>2015-07-12T06:18:47Z</time>
      </trkpt>
      <trkpt lat="44.12999" lon="3.23403">
        <ele>820.62</ele>
        <time>2015-07-12T06:19:01Z</time>
      </trkpt>
      <trkpt lat="44.12999" lon="3.23403">
        <ele>820.62</ele>
        <time>2015-07-12T06:19:30Z</time>
      </trkpt>
      <trkpt lat="44.13004" lon="3.23401">
        <ele>820.62</ele>
        <time>2015-07-12T06:19:37Z</time>
      </trkpt>
      <trkpt lat="44.1301" lon="3.23404">
        <ele>821.1</ele>
        <time>2015-07-12T06:19:44Z</time>
      </trkpt>
      <trkpt lat="44.13015" lon="3.23402">
        <ele>821.58</ele>
        <time>2015-07-12T06:19:54Z</time>
      </trkpt>
      <trkpt lat="44.13025" lon="3.23398">
        <ele>821.1</ele>
        <time>2015-07-12T06:20:02Z</time>
      </trkpt>
      <trkpt lat="44.13032" lon="3.23394">
        <ele>822.55</ele>
        <time>2015-07-12T06:20:10Z</time>
      </trkpt>
      <trkpt lat="44.13038" lon="3.23396">
        <ele>822.55</ele>
        <time>2015-07-12T06:20:23Z</time>
      </trkpt>
      <trkpt lat="44.13044" lon="3.23399">
        <ele>822.55</ele>
        <time>2015-07-12T06:20:35Z</time>
      </trkpt>
      <trkpt lat="44.1305" lon="3.23395">
        <ele>822.55</ele>
        <time>2015-07-12T06:20:40Z</time>
      </trkpt>
      <trkpt lat="44.13056" lon="3.23394">
        <ele>822.06</ele>
        <time>2015-07-12T06:20:45Z</time>
      </trkpt>
      <trkpt lat="44.13079" lon="3.23385">
        <ele>823.51</ele>
        <time>2015-07-12T06:21:01Z</time>
      </trkpt>
      <trkpt lat="44.13085" lon="3.23381">
        <ele>823.51</ele>
        <time>2015-07-12T06:21:06Z</time>
      </trkpt>
      <trkpt lat="44.13091" lon="3.23367">
        <ele>824.47</ele>
        <time>2015-07-12T06:21:14Z</time>
      </trkpt>
      <trkpt lat="44.13111" lon="3.23342">
        <ele>825.43</ele>
        <time>2015-07-12T06:21:31Z</time>
      </trkpt>
      <trkpt lat="44.13128" lon="3.23322">
        <ele>826.87</ele>
        <time>2015-07-12T06:21:45Z</time>
      </trkpt>
      <trkpt lat="44.13149" lon="3.23296">
        <ele>828.31</ele>
        <time>2015-07-12T06:22:02Z</time>
      </trkpt>
      <trkpt lat="44.13154" lon="3.23288">
        <ele>829.27</ele>
        <time>2015-07-12T06:22:07Z</time>
      </trkpt>
      <trkpt lat="44.1316" lon="3.23285">
        <ele>828.79</ele>
        <time>2015-07-12T06:22:11Z</time>
      </trkpt>
      <trkpt lat="44.13163" lon="3.23255">
        <ele>830.24</ele>
        <time>2015-07-12T06:22:26Z</time>
      </trkpt>
      <trkpt lat="44.13172" lon="3.23226">
        <ele>832.64</ele>
        <time>2015-07-12T06:22:41Z</time>
      </trkpt>
      <trkpt lat="44.13181" lon="3.23204">
        <ele>835.04</ele>
        <time>2015-07-12T06:22:52Z</time>
      </trkpt>
      <trkpt lat="44.13196" lon="3.23184">
        <ele>838.41</ele>
        <time>2015-07-12T06:23:04Z</time>
      </trkpt>
      <trkpt lat="44.13199" lon="3.23173">
        <ele>839.37</ele>
        <time>2015-07-12T06:23:09Z</time>
      </trkpt>
      <trkpt lat="44.13208" lon="3.23155">
        <ele>840.33</ele>
        <time>2015-07-12T06:23:26Z</time>
      </trkpt>
      <trkpt lat="44.13215" lon="3.2314">
        <ele>841.29</ele>
        <time>2015-07-12T06:23:38Z</time>
      </trkpt>
      <trkpt lat="44.13219" lon="3.23134">
        <ele>841.29</ele>
        <time>2015-07-12T06:23:52Z</time>
      </trkpt>
      <trkpt lat="44.13219" lon="3.23134">
        <ele>841.77</ele>
        <time>2015-07-12T06:24:16Z</time>
      </trkpt>
      <trkpt lat="44.1322" lon="3.23131">
        <ele>841.29</ele>
        <time>2015-07-12T06:24:23Z</time>
      </trkpt>
      <trkpt lat="44.13231" lon="3.2311">
        <ele>841.77</ele>
        <time>2015-07-12T06:24:34Z</time>
      </trkpt>
      <trkpt lat="44.13237" lon="3.23104">
        <ele>843.21</ele>
        <time>2015-07-12T06:24:39Z</time>
      </trkpt>
      <trkpt lat="44.13241" lon="3.23081">
        <ele>844.18</ele>
        <time>2015-07-12T06:24:54Z</time>
      </trkpt>
      <trkpt lat="44.13242" lon="3.23065">
        <ele>844.66</ele>
        <time>2015-07-12T06:25:04Z</time>
      </trkpt>
      <trkpt lat="44.13253" lon="3.23035">
        <ele>844.18</ele>
        <time>2015-07-12T06:25:21Z</time>
      </trkpt>
      <trkpt lat="44.13276" lon="3.2303">
        <ele>846.58</ele>
        <time>2015-07-12T06:25:34Z</time>
      </trkpt>
      <trkpt lat="44.13278" lon="3.23029">
        <ele>847.06</ele>
        <time>2015-07-12T06:25:35Z</time>
      </trkpt>
      <trkpt lat="44.13285" lon="3.2302">
        <ele>848.02</ele>
        <time>2015-07-12T06:25:41Z</time>
      </trkpt>
      <trkpt lat="44.13296" lon="3.22993">
        <ele>848.5</ele>
        <time>2015-07-12T06:25:55Z</time>
      </trkpt>
      <trkpt lat="44.13316" lon="3.2297">
        <ele>849.46</ele>
        <time>2015-07-12T06:26:09Z</time>
      </trkpt>
      <trkpt lat="44.13331" lon="3.22947">
        <ele>851.38</ele>
        <time>2015-07-12T06:26:23Z</time>
      </trkpt>
      <trkpt lat="44.13349" lon="3.22927">
        <ele>852.83</ele>
        <time>2015-07-12T06:26:38Z</time>
      </trkpt>
      <trkpt lat="44.13366" lon="3.22904">
        <ele>853.31</ele>
        <time>2015-07-12T06:26:53Z</time>
      </trkpt>
      <trkpt lat="44.13387" lon="3.22883">
        <ele>854.27</ele>
        <time>2015-07-12T06:27:09Z</time>
      </trkpt>
      <trkpt lat="44.13392" lon="3.22879">
        <ele>853.79</ele>
        <time>2015-07-12T06:27:13Z</time>
      </trkpt>
      <trkpt lat="44.13398" lon="3.22875">
        <ele>853.79</ele>
        <time>2015-07-12T06:27:25Z</time>
      </trkpt>
      <trkpt lat="44.13401" lon="3.22871">
        <ele>854.27</ele>
        <time>2015-07-12T06:27:27Z</time>
      </trkpt>
      <trkpt lat="44.13406" lon="3.22855">
        <ele>854.75</ele>
        <time>2015-07-12T06:27:34Z</time>
      </trkpt>
      <trkpt lat="44.13414" lon="3.22852">
        <ele>854.75</ele>
        <time>2015-07-12T06:27:39Z</time>
      </trkpt>
      <trkpt lat="44.1342" lon="3.22849">
        <ele>855.23</ele>
        <time>2015-07-12T06:27:43Z</time>
      </trkpt>
      <trkpt lat="44.13428" lon="3.22839">
        <ele>855.71</ele>
        <time>2015-07-12T06:27:50Z</time>
      </trkpt>
      <trkpt lat="44.13446" lon="3.22807">
        <ele>857.15</ele>
        <time>2015-07-12T06:28:09Z</time>
      </trkpt>
      <trkpt lat="44.1347" lon="3.2279">
        <ele>858.11</ele>
        <time>2015-07-12T06:28:25Z</time>
      </trkpt>
      <trkpt lat="44.13487" lon="3.22779">
        <ele>857.63</ele>
        <time>2015-07-12T06:28:37Z</time>
      </trkpt>
      <trkpt lat="44.13488" lon="3.22779">
        <ele>857.63</ele>
        <time>2015-07-12T06:28:38Z</time>
      </trkpt>
      <trkpt lat="44.13497" lon="3.22776">
        <ele>857.15</ele>
        <time>2015-07-12T06:28:45Z</time>
      </trkpt>
      <trkpt lat="44.13506" lon="3.22776">
        <ele>854.75</ele>
        <time>2015-07-12T06:28:54Z</time>
      </trkpt>
      <trkpt lat="44.13507" lon="3.22775">
        <ele>854.75</ele>
        <time>2015-07-12T06:29:26Z</time>
      </trkpt>
      <trkpt lat="44.13508" lon="3.22775">
        <ele>854.75</ele>
        <time>2015-07-12T06:29:47Z</time>
      </trkpt>
      <trkpt lat="44.13507" lon="3.22776">
        <ele>854.75</ele>
        <time>2015-07-12T06:29:54Z</time>
      </trkpt>
      <trkpt lat="44.13516" lon="3.22771">
        <ele>853.31</ele>
        <time>2015-07-12T06:30:02Z</time>
      </trkpt>
      <trkpt lat="44.13522" lon="3.22777">
        <ele>851.38</ele>
        <time>2015-07-12T06:30:13Z</time>
      </trkpt>
      <trkpt lat="44.13521" lon="3.22777">
        <ele>851.38</ele>
        <time>2015-07-12T06:30:21Z</time>
      </trkpt>
      <trkpt lat="44.13521" lon="3.22793">
        <ele>849.46</ele>
        <time>2015-07-12T06:30:31Z</time>
      </trkpt>
      <trkpt lat="44.13527" lon="3.228">
        <ele>847.54</ele>
        <time>2015-07-12T06:30:35Z</time>
      </trkpt>
      <trkpt lat="44.13529" lon="3.22801">
        <ele>847.54</ele>
        <time>2015-07-12T06:30:51Z</time>
      </trkpt>
      <trkpt lat="44.13531" lon="3.22811">
        <ele>848.02</ele>
        <time>2015-07-12T06:30:58Z</time>
      </trkpt>
      <trkpt lat="44.13528" lon="3.22821">
        <ele>848.5</ele>
        <time>2015-07-12T06:31:05Z</time>
      </trkpt>
      <trkpt lat="44.13533" lon="3.22828">
        <ele>848.02</ele>
        <time>2015-07-12T06:31:09Z</time>
      </trkpt>
      <trkpt lat="44.13536" lon="3.2283">
        <ele>848.98</ele>
        <time>2015-07-12T06:31:11Z</time>
      </trkpt>
      <trkpt lat="44.13547" lon="3.22835">
        <ele>848.5</ele>
        <time>2015-07-12T06:31:26Z</time>
      </trkpt>
      <trkpt lat="44.1355" lon="3.22837">
        <ele>848.5</ele>
        <time>2015-07-12T06:31:36Z</time>
      </trkpt>
      <trkpt lat="44.13559" lon="3.22858">
        <ele>849.94</ele>
        <time>2015-07-12T06:31:47Z</time>
      </trkpt>
      <trkpt lat="44.13563" lon="3.22874">
        <ele>850.42</ele>
        <time>2015-07-12T06:31:55Z</time>
      </trkpt>
      <trkpt lat="44.13563" lon="3.22895">
        <ele>849.94</ele>
        <time>2015-07-12T06:32:04Z</time>
      </trkpt>
      <trkpt lat="44.13564" lon="3.22903">
        <ele>848.98</ele>
        <time>2015-07-12T06:32:08Z</time>
      </trkpt>
      <trkpt lat="44.13559" lon="3.22918">
        <ele>846.58</ele>
        <time>2015-07-12T06:32:16Z</time>
      </trkpt>
      <trkpt lat="44.13559" lon="3.2292">
        <ele>846.1</ele>
        <time>2015-07-12T06:32:22Z</time>
      </trkpt>
      <trkpt lat="44.13555" lon="3.2293">
        <ele>845.14</ele>
        <time>2015-07-12T06:32:27Z</time>
      </trkpt>
      <trkpt lat="44.13542" lon="3.22946">
        <ele>842.73</ele>
        <time>2015-07-12T06:32:37Z</time>
      </trkpt>
      <trkpt lat="44.13543" lon="3.22947">
        <ele>842.73</ele>
        <time>2015-07-12T06:33:03Z</time>
      </trkpt>
      <trkpt lat="44.13546" lon="3.22977">
        <ele>841.77</ele>
        <time>2015-07-12T06:33:14Z</time>
      </trkpt>
      <trkpt lat="44.13547" lon="3.23">
        <ele>842.25</ele>
        <time>2015-07-12T06:33:23Z</time>
      </trkpt>
      <trkpt lat="44.13552" lon="3.23008">
        <ele>842.73</ele>
        <time>2015-07-12T06:33:35Z</time>
      </trkpt>
      <trkpt lat="44.13565" lon="3.23016">
        <ele>841.77</ele>
        <time>2015-07-12T06:33:46Z</time>
      </trkpt>
      <trkpt lat="44.13578" lon="3.23006">
        <ele>842.25</ele>
        <time>2015-07-12T06:33:58Z</time>
      </trkpt>
      <trkpt lat="44.13583" lon="3.23002">
        <ele>841.29</ele>
        <time>2015-07-12T06:34:05Z</time>
      </trkpt>
      <trkpt lat="44.13585" lon="3.22995">
        <ele>839.37</ele>
        <time>2015-07-12T06:34:20Z</time>
      </trkpt>
      <trkpt lat="44.13586" lon="3.22992">
        <ele>839.37</ele>
        <time>2015-07-12T06:34:23Z</time>
      </trkpt>
      <trkpt lat="44.13591" lon="3.22981">
        <ele>838.41</ele>
        <time>2015-07-12T06:34:30Z</time>
      </trkpt>
      <trkpt lat="44.13596" lon="3.22967">
        <ele>836.96</ele>
        <time>2015-07-12T06:34:42Z</time>
      </trkpt>
      <trkpt lat="44.13597" lon="3.2296">
        <ele>836</ele>
        <time>2015-07-12T06:34:58Z</time>
      </trkpt>
      <trkpt lat="44.13597" lon="3.2296">
        <ele>836</ele>
        <time>2015-07-12T06:34:59Z</time>
      </trkpt>
      <trkpt lat="44.13602" lon="3.22951">
        <ele>833.6</ele>
        <time>2015-07-12T06:35:07Z</time>
      </trkpt>
      <trkpt lat="44.13605" lon="3.22948">
        <ele>833.6</ele>
        <time>2015-07-12T06:35:19Z</time>
      </trkpt>
      <trkpt lat="44.13609" lon="3.22945">
        <ele>833.6</ele>
        <time>2015-07-12T06:35:33Z</time>
      </trkpt>
      <trkpt lat="44.13622" lon="3.22937">
        <ele>833.12</ele>
        <time>2015-07-12T06:35:40Z</time>
      </trkpt>
      <trkpt lat="44.13658" lon="3.2294">
        <ele>832.16</ele>
        <time>2015-07-12T06:35:54Z</time>
      </trkpt>
      <trkpt lat="44.13681" lon="3.22953">
        <ele>833.12</ele>
        <time>2015-07-12T06:36:06Z</time>
      </trkpt>
      <trkpt lat="44.13683" lon="3.22954">
        <ele>833.12</ele>
        <time>2015-07-12T06:36:07Z</time>
      </trkpt>
      <trkpt lat="44.13703" lon="3.22972">
        <ele>834.08</ele>
        <time>2015-07-12T06:36:20Z</time>
      </trkpt>
      <trkpt lat="44.13716" lon="3.22988">
        <ele>833.12</ele>
        <time>2015-07-12T06:36:30Z</time>
      </trkpt>
      <trkpt lat="44.13734" lon="3.23008">
        <ele>833.6</ele>
        <time>2015-07-12T06:36:42Z</time>
      </trkpt>
      <trkpt lat="44.13763" lon="3.23015">
        <ele>836.48</ele>
        <time>2015-07-12T06:36:58Z</time>
      </trkpt>
      <trkpt lat="44.13776" lon="3.23017">
        <ele>838.41</ele>
        <time>2015-07-12T06:37:05Z</time>
      </trkpt>
      <trkpt lat="44.1379" lon="3.23005">
        <ele>839.85</ele>
        <time>2015-07-12T06:37:15Z</time>
      </trkpt>
      <trkpt lat="44.1381" lon="3.23007">
        <ele>841.77</ele>
        <time>2015-07-12T06:37:28Z</time>
      </trkpt>
      <trkpt lat="44.13819" lon="3.23003">
        <ele>842.73</ele>
        <time>2015-07-12T06:37:40Z</time>
      </trkpt>
      <trkpt lat="44.13822" lon="3.22995">
        <ele>842.73</ele>
        <time>2015-07-12T06:37:51Z</time>
      </trkpt>
      <trkpt lat="44.13828" lon="3.22987">
        <ele>841.77</ele>
        <time>2015-07-12T06:37:58Z</time>
      </trkpt>
      <trkpt lat="44.13848" lon="3.22974">
        <ele>841.77</ele>
        <time>2015-07-12T06:38:13Z</time>
      </trkpt>
      <trkpt lat="44.13858" lon="3.22972">
        <ele>841.77</ele>
        <time>2015-07-12T06:38:20Z</time>
      </trkpt>
      <trkpt lat="44.13863" lon="3.22971">
        <ele>841.77</ele>
        <time>2015-07-12T06:38:24Z</time>
      </trkpt>
      <trkpt lat="44.13865" lon="3.22967">
        <ele>841.29</ele>
        <time>2015-07-12T06:38:36Z</time>
      </trkpt>
      <trkpt lat="44.13866" lon="3.22967">
        <ele>841.29</ele>
        <time>2015-07-12T06:38:46Z</time>
      </trkpt>
      <trkpt lat="44.13866" lon="3.22969">
        <ele>842.25</ele>
        <time>2015-07-12T06:38:51Z</time>
      </trkpt>
      <trkpt lat="44.13838" lon="3.2298">
        <ele>842.25</ele>
        <time>2015-07-12T06:39:02Z</time>
      </trkpt>
      <trkpt lat="44.13833" lon="3.22981">
        <ele>842.73</ele>
        <time>2015-07-12T06:39:11Z</time>
      </trkpt>
      <trkpt lat="44.1384" lon="3.2298">
        <ele>841.77</ele>
        <time>2015-07-12T06:39:18Z</time>
      </trkpt>
      <trkpt lat="44.13842" lon="3.22978">
        <ele>842.25</ele>
        <time>2015-07-12T06:39:20Z</time>
      </trkpt>
      <trkpt lat="44.13861" lon="3.22972">
        <ele>841.29</ele>
        <time>2015-07-12T06:39:32Z</time>
      </trkpt>
      <trkpt lat="44.13878" lon="3.22936">
        <ele>841.77</ele>
        <time>2015-07-12T06:39:48Z</time>
      </trkpt>
      <trkpt lat="44.13896" lon="3.22903">
        <ele>841.77</ele>
        <time>2015-07-12T06:40:00Z</time>
      </trkpt>
      <trkpt lat="44.13908" lon="3.229">
        <ele>841.29</ele>
        <time>2015-07-12T06:40:05Z</time>
      </trkpt>
      <trkpt lat="44.13916" lon="3.22883">
        <ele>842.25</ele>
        <time>2015-07-12T06:40:12Z</time>
      </trkpt>
      <trkpt lat="44.13917" lon="3.22882">
        <ele>841.77</ele>
        <time>2015-07-12T06:40:13Z</time>
      </trkpt>
      <trkpt lat="44.13918" lon="3.22878">
        <ele>841.29</ele>
        <time>2015-07-12T06:40:26Z</time>
      </trkpt>
      <trkpt lat="44.13917" lon="3.22877">
        <ele>841.29</ele>
        <time>2015-07-12T06:41:10Z</time>
      </trkpt>
      <trkpt lat="44.13918" lon="3.22877">
        <ele>841.77</ele>
        <time>2015-07-12T06:41:25Z</time>
      </trkpt>
      <trkpt lat="44.13923" lon="3.22864">
        <ele>841.77</ele>
        <time>2015-07-12T06:41:39Z</time>
      </trkpt>
      <trkpt lat="44.13924" lon="3.22865">
        <ele>840.81</ele>
        <time>2015-07-12T06:41:58Z</time>
      </trkpt>
      <trkpt lat="44.13923" lon="3.22865">
        <ele>840.81</ele>
        <time>2015-07-12T06:42:31Z</time>
      </trkpt>
      <trkpt lat="44.13923" lon="3.22865">
        <ele>841.77</ele>
        <time>2015-07-12T06:43:05Z</time>
      </trkpt>
      <trkpt lat="44.13924" lon="3.22865">
        <ele>841.77</ele>
        <time>2015-07-12T06:43:33Z</time>
      </trkpt>
      <trkpt lat="44.13924" lon="3.22865">
        <ele>841.29</ele>
        <time>2015-07-12T06:44:06Z</time>
      </trkpt>
      <trkpt lat="44.13924" lon="3.22865">
        <ele>841.77</ele>
        <time>2015-07-12T06:44:26Z</time>
      </trkpt>
      <trkpt lat="44.13925" lon="3.22866">
        <ele>842.25</ele>
        <time>2015-07-12T06:45:01Z</time>
      </trkpt>
      <trkpt lat="44.13925" lon="3.22868">
        <ele>841.77</ele>
        <time>2015-07-12T06:45:39Z</time>
      </trkpt>
      <trkpt lat="44.13924" lon="3.22866">
        <ele>841.77</ele>
        <time>2015-07-12T06:46:14Z</time>
      </trkpt>
      <trkpt lat="44.13924" lon="3.22866">
        <ele>842.25</ele>
        <time>2015-07-12T06:46:42Z</time>
      </trkpt>
      <trkpt lat="44.13924" lon="3.22867">
        <ele>842.25</ele>
        <time>2015-07-12T06:47:16Z</time>
      </trkpt>
      <trkpt lat="44.13924" lon="3.22867">
        <ele>842.25</ele>
        <time>2015-07-12T06:47:54Z</time>
      </trkpt>
      <trkpt lat="44.13923" lon="3.22868">
        <ele>842.25</ele>
        <time>2015-07-12T06:48:28Z</time>
      </trkpt>
      <trkpt lat="44.13924" lon="3.22868">
        <ele>842.25</ele>
        <time>2015-07-12T06:49:05Z</time>
      </trkpt>
      <trkpt lat="44.13924" lon="3.22867">
        <ele>842.25</ele>
        <time>2015-07-12T06:49:39Z</time>
      </trkpt>
      <trkpt lat="44.13923" lon="3.22868">
        <ele>842.25</ele>
        <time>2015-07-12T06:50:14Z</time>
      </trkpt>
      <trkpt lat="44.13924" lon="3.22868">
        <ele>842.73</ele>
        <time>2015-07-12T06:50:46Z</time>
      </trkpt>
      <trkpt lat="44.13924" lon="3.22868">
        <ele>842.73</ele>
        <time>2015-07-12T06:51:22Z</time>
      </trkpt>
      <trkpt lat="44.13924" lon="3.22867">
        <ele>842.73</ele>
        <time>2015-07-12T06:52:10Z</time>
      </trkpt>
      <trkpt lat="44.13923" lon="3.22868">
        <ele>843.21</ele>
        <time>2015-07-12T06:52:45Z</time>
      </trkpt>
      <trkpt lat="44.13923" lon="3.22868">
        <ele>842.73</ele>
        <time>2015-07-12T06:53:17Z</time>
      </trkpt>
      <trkpt lat="44.13924" lon="3.22868">
        <ele>842.25</ele>
        <time>2015-07-12T06:53:52Z</time>
      </trkpt>
      <trkpt lat="44.13923" lon="3.22868">
        <ele>843.21</ele>
        <time>2015-07-12T06:54:30Z</time>
      </trkpt>
      <trkpt lat="44.13924" lon="3.22869">
        <ele>842.73</ele>
        <time>2015-07-12T06:55:11Z</time>
      </trkpt>
      <trkpt lat="44.13924" lon="3.22868">
        <ele>842.73</ele>
        <time>2015-07-12T06:55:48Z</time>
      </trkpt>
      <trkpt lat="44.13924" lon="3.22869">
        <ele>843.21</ele>
        <time>2015-07-12T06:56:20Z</time>
      </trkpt>
      <trkpt lat="44.13923" lon="3.22868">
        <ele>842.73</ele>
        <time>2015-07-12T06:57:00Z</time>
      </trkpt>
      <trkpt lat="44.13923" lon="3.22867">
        <ele>842.25</ele>
        <time>2015-07-12T06:57:39Z</time>
      </trkpt>
      <trkpt lat="44.13922" lon="3.22868">
        <ele>842.73</ele>
        <time>2015-07-12T06:58:12Z</time>
      </trkpt>
      <trkpt lat="44.13922" lon="3.22868">
        <ele>843.21</ele>
        <time>2015-07-12T06:58:51Z</time>
      </trkpt>
      <trkpt lat="44.13921" lon="3.22867">
        <ele>842.73</ele>
        <time>2015-07-12T06:59:27Z</time>
      </trkpt>
      <trkpt lat="44.13921" lon="3.22867">
        <ele>843.69</ele>
        <time>2015-07-12T07:00:04Z</time>
      </trkpt>
      <trkpt lat="44.13921" lon="3.22869">
        <ele>842.73</ele>
        <time>2015-07-12T07:00:41Z</time>
      </trkpt>
      <trkpt lat="44.13921" lon="3.22868">
        <ele>842.73</ele>
        <time>2015-07-12T07:01:23Z</time>
      </trkpt>
      <trkpt lat="44.1392" lon="3.22867">
        <ele>843.69</ele>
        <time>2015-07-12T07:01:59Z</time>
      </trkpt>
      <trkpt lat="44.13921" lon="3.22867">
        <ele>843.21</ele>
        <time>2015-07-12T07:02:36Z</time>
      </trkpt>
      <trkpt lat="44.13922" lon="3.22868">
        <ele>843.21</ele>
        <time>2015-07-12T07:03:13Z</time>
      </trkpt>
      <trkpt lat="44.13921" lon="3.22868">
        <ele>843.21</ele>
        <time>2015-07-12T07:03:55Z</time>
      </trkpt>
      <trkpt lat="44.13921" lon="3.22867">
        <ele>842.73</ele>
        <time>2015-07-12T07:04:29Z</time>
      </trkpt>
      <trkpt lat="44.13921" lon="3.22868">
        <ele>843.21</ele>
        <time>2015-07-12T07:05:05Z</time>
      </trkpt>
      <trkpt lat="44.13922" lon="3.22869">
        <ele>843.21</ele>
        <time>2015-07-12T07:05:40Z</time>
      </trkpt>
      <trkpt lat="44.13922" lon="3.22867">
        <ele>844.18</ele>
        <time>2015-07-12T07:06:15Z</time>
      </trkpt>
      <trkpt lat="44.13921" lon="3.22867">
        <ele>843.69</ele>
        <time>2015-07-12T07:06:50Z</time>
      </trkpt>
      <trkpt lat="44.13922" lon="3.22867">
        <ele>843.69</ele>
        <time>2015-07-12T07:07:28Z</time>
      </trkpt>
      <trkpt lat="44.13922" lon="3.22868">
        <ele>843.69</ele>
        <time>2015-07-12T07:08:05Z</time>
      </trkpt>
      <trkpt lat="44.13923" lon="3.22869">
        <ele>844.18</ele>
        <time>2015-07-12T07:08:43Z</time>
      </trkpt>
      <trkpt lat="44.13922" lon="3.22868">
        <ele>843.69</ele>
        <time>2015-07-12T07:09:18Z</time>
      </trkpt>
      <trkpt lat="44.13921" lon="3.22869">
        <ele>844.18</ele>
        <time>2015-07-12T07:09:50Z</time>
      </trkpt>
      <trkpt lat="44.13921" lon="3.2287">
        <ele>843.69</ele>
        <time>2015-07-12T07:10:26Z</time>
      </trkpt>
      <trkpt lat="44.13921" lon="3.2287">
        <ele>843.69</ele>
        <time>2015-07-12T07:10:56Z</time>
      </trkpt>
      <trkpt lat="44.13921" lon="3.2287">
        <ele>843.69</ele>
        <time>2015-07-12T07:11:31Z</time>
      </trkpt>
      <trkpt lat="44.13921" lon="3.22869">
        <ele>844.18</ele>
        <time>2015-07-12T07:12:08Z</time>
      </trkpt>
      <trkpt lat="44.13921" lon="3.22869">
        <ele>844.18</ele>
        <time>2015-07-12T07:12:36Z</time>
      </trkpt>
      <trkpt lat="44.13921" lon="3.22869">
        <ele>843.69</ele>
        <time>2015-07-12T07:13:09Z</time>
      </trkpt>
      <trkpt lat="44.13921" lon="3.22869">
        <ele>844.18</ele>
        <time>2015-07-12T07:13:41Z</time>
      </trkpt>
      <trkpt lat="44.13921" lon="3.22868">
        <ele>843.69</ele>
        <time>2015-07-12T07:14:11Z</time>
      </trkpt>
      <trkpt lat="44.13921" lon="3.22868">
        <ele>844.18</ele>
        <time>2015-07-12T07:14:50Z</time>
      </trkpt>
      <trkpt lat="44.13921" lon="3.22868">
        <ele>844.18</ele>
        <time>2015-07-12T07:15:16Z</time>
      </trkpt>
      <trkpt lat="44.13919" lon="3.22869">
        <ele>844.66</ele>
        <time>2015-07-12T07:15:26Z</time>
      </trkpt>
      <trkpt lat="44.1392" lon="3.22869">
        <ele>844.66</ele>
        <time>2015-07-12T07:15:31Z</time>
      </trkpt>
      <trkpt lat="44.13918" lon="3.22877">
        <ele>844.66</ele>
        <time>2015-07-12T07:15:36Z</time>
      </trkpt>
      <trkpt lat="44.13917" lon="3.2288">
        <ele>844.66</ele>
        <time>2015-07-12T07:15:38Z</time>
      </trkpt>
      <trkpt lat="44.13913" lon="3.22885">
        <ele>844.66</ele>
        <time>2015-07-12T07:15:44Z</time>
      </trkpt>
      <trkpt lat="44.13911" lon="3.22891">
        <ele>844.18</ele>
        <time>2015-07-12T07:15:48Z</time>
      </trkpt>
      <trkpt lat="44.13911" lon="3.22899">
        <ele>843.69</ele>
        <time>2015-07-12T07:15:53Z</time>
      </trkpt>
      <trkpt lat="44.13913" lon="3.229">
        <ele>843.69</ele>
        <time>2015-07-12T07:15:55Z</time>
      </trkpt>
      <trkpt lat="44.13919" lon="3.22925">
        <ele>841.77</ele>
        <time>2015-07-12T07:16:08Z</time>
      </trkpt>
      <trkpt lat="44.13939" lon="3.22971">
        <ele>840.33</ele>
        <time>2015-07-12T07:16:23Z</time>
      </trkpt>
      <trkpt lat="44.13966" lon="3.22993">
        <ele>838.41</ele>
        <time>2015-07-12T07:16:35Z</time>
      </trkpt>
      <trkpt lat="44.1398" lon="3.22997">
        <ele>837.93</ele>
        <time>2015-07-12T07:16:40Z</time>
      </trkpt>
      <trkpt lat="44.13985" lon="3.22994">
        <ele>837.93</ele>
        <time>2015-07-12T07:16:49Z</time>
      </trkpt>
      <trkpt lat="44.13985" lon="3.22994">
        <ele>837.93</ele>
        <time>2015-07-12T07:17:37Z</time>
      </trkpt>
      <trkpt lat="44.13985" lon="3.22995">
        <ele>837.93</ele>
        <time>2015-07-12T07:18:19Z</time>
      </trkpt>
      <trkpt lat="44.13985" lon="3.22995">
        <ele>837.93</ele>
        <time>2015-07-12T07:19:06Z</time>
      </trkpt>
      <trkpt lat="44.13985" lon="3.22995">
        <ele>838.41</ele>
        <time>2015-07-12T07:19:25Z</time>
      </trkpt>
      <trkpt lat="44.13989" lon="3.22995">
        <ele>838.41</ele>
        <time>2015-07-12T07:19:29Z</time>
      </trkpt>
      <trkpt lat="44.13986" lon="3.23007">
        <ele>837.45</ele>
        <time>2015-07-12T07:19:38Z</time>
      </trkpt>
      <trkpt lat="44.13984" lon="3.2301">
        <ele>836.96</ele>
        <time>2015-07-12T07:19:41Z</time>
      </trkpt>
      <trkpt lat="44.13982" lon="3.23023">
        <ele>836.48</ele>
        <time>2015-07-12T07:19:47Z</time>
      </trkpt>
      <trkpt lat="44.13981" lon="3.23026">
        <ele>836.96</ele>
        <time>2015-07-12T07:19:49Z</time>
      </trkpt>
      <trkpt lat="44.13988" lon="3.23059">
        <ele>837.45</ele>
        <time>2015-07-12T07:20:02Z</time>
      </trkpt>
      <trkpt lat="44.13997" lon="3.23102">
        <ele>838.89</ele>
        <time>2015-07-12T07:20:19Z</time>
      </trkpt>
      <trkpt lat="44.14004" lon="3.23134">
        <ele>840.81</ele>
        <time>2015-07-12T07:20:35Z</time>
      </trkpt>
      <trkpt lat="44.13994" lon="3.23169">
        <ele>841.77</ele>
        <time>2015-07-12T07:20:51Z</time>
      </trkpt>
      <trkpt lat="44.13969" lon="3.23205">
        <ele>839.85</ele>
        <time>2015-07-12T07:21:03Z</time>
      </trkpt>
      <trkpt lat="44.13942" lon="3.23246">
        <ele>840.81</ele>
        <time>2015-07-12T07:21:16Z</time>
      </trkpt>
      <trkpt lat="44.13931" lon="3.23297">
        <ele>841.29</ele>
        <time>2015-07-12T07:21:31Z</time>
      </trkpt>
      <trkpt lat="44.13921" lon="3.23338">
        <ele>841.77</ele>
        <time>2015-07-12T07:21:43Z</time>
      </trkpt>
      <trkpt lat="44.13918" lon="3.23346">
        <ele>841.29</ele>
        <time>2015-07-12T07:21:45Z</time>
      </trkpt>
      <trkpt lat="44.13918" lon="3.23353">
        <ele>840.33</ele>
        <time>2015-07-12T07:21:47Z</time>
      </trkpt>
      <trkpt lat="44.13926" lon="3.23362">
        <ele>839.85</ele>
        <time>2015-07-12T07:21:51Z</time>
      </trkpt>
      <trkpt lat="44.13934" lon="3.23366">
        <ele>840.33</ele>
        <time>2015-07-12T07:21:54Z</time>
      </trkpt>
      <trkpt lat="44.13936" lon="3.2341">
        <ele>841.77</ele>
        <time>2015-07-12T07:22:08Z</time>
      </trkpt>
      <trkpt lat="44.13939" lon="3.23455">
        <ele>843.21</ele>
        <time>2015-07-12T07:22:24Z</time>
      </trkpt>
      <trkpt lat="44.13962" lon="3.23461">
        <ele>844.66</ele>
        <time>2015-07-12T07:22:38Z</time>
      </trkpt>
      <trkpt lat="44.13986" lon="3.23459">
        <ele>847.54</ele>
        <time>2015-07-12T07:22:54Z</time>
      </trkpt>
      <trkpt lat="44.13999" lon="3.23458">
        <ele>848.02</ele>
        <time>2015-07-12T07:23:03Z</time>
      </trkpt>
      <trkpt lat="44.14042" lon="3.23462">
        <ele>846.58</ele>
        <time>2015-07-12T07:23:21Z</time>
      </trkpt>
      <trkpt lat="44.14047" lon="3.23463">
        <ele>845.62</ele>
        <time>2015-07-12T07:23:22Z</time>
      </trkpt>
      <trkpt lat="44.14065" lon="3.23469">
        <ele>843.69</ele>
        <time>2015-07-12T07:23:25Z</time>
      </trkpt>
      <trkpt lat="44.14078" lon="3.23471">
        <ele>843.21</ele>
        <time>2015-07-12T07:23:27Z</time>
      </trkpt>
      <trkpt lat="44.14098" lon="3.23473">
        <ele>841.77</ele>
        <time>2015-07-12T07:23:30Z</time>
      </trkpt>
      <trkpt lat="44.14143" lon="3.23496">
        <ele>839.37</ele>
        <time>2015-07-12T07:23:41Z</time>
      </trkpt>
      <trkpt lat="44.14162" lon="3.2351">
        <ele>837.93</ele>
        <time>2015-07-12T07:23:47Z</time>
      </trkpt>
      <trkpt lat="44.14177" lon="3.23514">
        <ele>836.48</ele>
        <time>2015-07-12T07:23:51Z</time>
      </trkpt>
      <trkpt lat="44.1419" lon="3.2351">
        <ele>835.04</ele>
        <time>2015-07-12T07:23:54Z</time>
      </trkpt>
      <trkpt lat="44.14233" lon="3.23498">
        <ele>834.08</ele>
        <time>2015-07-12T07:24:07Z</time>
      </trkpt>
      <trkpt lat="44.14234" lon="3.23499">
        <ele>833.12</ele>
        <time>2015-07-12T07:24:28Z</time>
      </trkpt>
      <trkpt lat="44.14232" lon="3.23499">
        <ele>833.6</ele>
        <time>2015-07-12T07:25:03Z</time>
      </trkpt>
      <trkpt lat="44.14232" lon="3.235">
        <ele>833.6</ele>
        <time>2015-07-12T07:25:42Z</time>
      </trkpt>
      <trkpt lat="44.14232" lon="3.23499">
        <ele>833.6</ele>
        <time>2015-07-12T07:25:51Z</time>
      </trkpt>
      <trkpt lat="44.14242" lon="3.23499">
        <ele>833.12</ele>
        <time>2015-07-12T07:26:01Z</time>
      </trkpt>
      <trkpt lat="44.14266" lon="3.23503">
        <ele>830.72</ele>
        <time>2015-07-12T07:26:17Z</time>
      </trkpt>
      <trkpt lat="44.14295" lon="3.23516">
        <ele>828.31</ele>
        <time>2015-07-12T07:26:33Z</time>
      </trkpt>
      <trkpt lat="44.14311" lon="3.23525">
        <ele>826.87</ele>
        <time>2015-07-12T07:26:38Z</time>
      </trkpt>
      <trkpt lat="44.14391" lon="3.23536">
        <ele>825.43</ele>
        <time>2015-07-12T07:26:53Z</time>
      </trkpt>
      <trkpt lat="44.14394" lon="3.23536">
        <ele>825.43</ele>
        <time>2015-07-12T07:26:54Z</time>
      </trkpt>
      <trkpt lat="44.14412" lon="3.23542">
        <ele>826.39</ele>
        <time>2015-07-12T07:27:04Z</time>
      </trkpt>
      <trkpt lat="44.14423" lon="3.23547">
        <ele>828.31</ele>
        <time>2015-07-12T07:27:11Z</time>
      </trkpt>
      <trkpt lat="44.14455" lon="3.23551">
        <ele>830.24</ele>
        <time>2015-07-12T07:27:30Z</time>
      </trkpt>
      <trkpt lat="44.14486" lon="3.23553">
        <ele>831.68</ele>
        <time>2015-07-12T07:27:49Z</time>
      </trkpt>
      <trkpt lat="44.14515" lon="3.23566">
        <ele>833.12</ele>
        <time>2015-07-12T07:28:06Z</time>
      </trkpt>
      <trkpt lat="44.14542" lon="3.23574">
        <ele>835.52</ele>
        <time>2015-07-12T07:28:24Z</time>
      </trkpt>
      <trkpt lat="44.14559" lon="3.23576">
        <ele>838.41</ele>
        <time>2015-07-12T07:28:36Z</time>
      </trkpt>
      <trkpt lat="44.14564" lon="3.23577">
        <ele>838.41</ele>
        <time>2015-07-12T07:28:40Z</time>
      </trkpt>
      <trkpt lat="44.14588" lon="3.23581">
        <ele>842.25</ele>
        <time>2015-07-12T07:28:57Z</time>
      </trkpt>
      <trkpt lat="44.14607" lon="3.23587">
        <ele>843.69</ele>
        <time>2015-07-12T07:29:11Z</time>
      </trkpt>
      <trkpt lat="44.14629" lon="3.23609">
        <ele>845.14</ele>
        <time>2015-07-12T07:29:29Z</time>
      </trkpt>
      <trkpt lat="44.14648" lon="3.2365">
        <ele>845.62</ele>
        <time>2015-07-12T07:29:46Z</time>
      </trkpt>
      <trkpt lat="44.14641" lon="3.23678">
        <ele>847.06</ele>
        <time>2015-07-12T07:29:58Z</time>
      </trkpt>
      <trkpt lat="44.14631" lon="3.23687">
        <ele>847.54</ele>
        <time>2015-07-12T07:30:05Z</time>
      </trkpt>
      <trkpt lat="44.14624" lon="3.23694">
        <ele>847.54</ele>
        <time>2015-07-12T07:30:11Z</time>
      </trkpt>
      <trkpt lat="44.14602" lon="3.23727">
        <ele>849.46</ele>
        <time>2015-07-12T07:30:29Z</time>
      </trkpt>
      <trkpt lat="44.14599" lon="3.23735">
        <ele>849.94</ele>
        <time>2015-07-12T07:30:33Z</time>
      </trkpt>
      <trkpt lat="44.1458" lon="3.23773">
        <ele>850.9</ele>
        <time>2015-07-12T07:30:49Z</time>
      </trkpt>
      <trkpt lat="44.14556" lon="3.23831">
        <ele>849.94</ele>
        <time>2015-07-12T07:31:06Z</time>
      </trkpt>
      <trkpt lat="44.14534" lon="3.23887">
        <ele>847.06</ele>
        <time>2015-07-12T07:31:14Z</time>
      </trkpt>
      <trkpt lat="44.14527" lon="3.23926">
        <ele>845.14</ele>
        <time>2015-07-12T07:31:18Z</time>
      </trkpt>
      <trkpt lat="44.14524" lon="3.23947">
        <ele>843.69</ele>
        <time>2015-07-12T07:31:20Z</time>
      </trkpt>
      <trkpt lat="44.14502" lon="3.24105">
        <ele>843.21</ele>
        <time>2015-07-12T07:31:37Z</time>
      </trkpt>
      <trkpt lat="44.14501" lon="3.24228">
        <ele>841.29</ele>
        <time>2015-07-12T07:31:54Z</time>
      </trkpt>
      <trkpt lat="44.14516" lon="3.24249">
        <ele>840.33</ele>
        <time>2015-07-12T07:32:01Z</time>
      </trkpt>
      <trkpt lat="44.14537" lon="3.24266">
        <ele>837.93</ele>
        <time>2015-07-12T07:32:08Z</time>
      </trkpt>
      <trkpt lat="44.14554" lon="3.24281">
        <ele>836</ele>
        <time>2015-07-12T07:32:12Z</time>
      </trkpt>
      <trkpt lat="44.14581" lon="3.24308">
        <ele>832.16</ele>
        <time>2015-07-12T07:32:17Z</time>
      </trkpt>
      <trkpt lat="44.14614" lon="3.24324">
        <ele>828.79</ele>
        <time>2015-07-12T07:32:21Z</time>
      </trkpt>
      <trkpt lat="44.14711" lon="3.24351">
        <ele>828.31</ele>
        <time>2015-07-12T07:32:33Z</time>
      </trkpt>
      <trkpt lat="44.14721" lon="3.24353">
        <ele>829.76</ele>
        <time>2015-07-12T07:32:35Z</time>
      </trkpt>
      <trkpt lat="44.14747" lon="3.24359">
        <ele>830.72</ele>
        <time>2015-07-12T07:32:41Z</time>
      </trkpt>
      <trkpt lat="44.14756" lon="3.24361">
        <ele>831.2</ele>
        <time>2015-07-12T07:32:43Z</time>
      </trkpt>
      <trkpt lat="44.14773" lon="3.24368">
        <ele>830.24</ele>
        <time>2015-07-12T07:32:47Z</time>
      </trkpt>
      <trkpt lat="44.14782" lon="3.24374">
        <ele>829.27</ele>
        <time>2015-07-12T07:32:49Z</time>
      </trkpt>
      <trkpt lat="44.14842" lon="3.24459">
        <ele>830.24</ele>
        <time>2015-07-12T07:33:06Z</time>
      </trkpt>
      <trkpt lat="44.14872" lon="3.24532">
        <ele>831.68</ele>
        <time>2015-07-12T07:33:21Z</time>
      </trkpt>
      <trkpt lat="44.14898" lon="3.246">
        <ele>832.16</ele>
        <time>2015-07-12T07:33:36Z</time>
      </trkpt>
      <trkpt lat="44.14909" lon="3.24638">
        <ele>833.12</ele>
        <time>2015-07-12T07:33:48Z</time>
      </trkpt>
      <trkpt lat="44.1491" lon="3.24656">
        <ele>833.12</ele>
        <time>2015-07-12T07:33:55Z</time>
      </trkpt>
      <trkpt lat="44.14907" lon="3.24665">
        <ele>834.56</ele>
        <time>2015-07-12T07:33:59Z</time>
      </trkpt>
      <trkpt lat="44.14899" lon="3.24696">
        <ele>836.48</ele>
        <time>2015-07-12T07:34:14Z</time>
      </trkpt>
      <trkpt lat="44.14895" lon="3.24711">
        <ele>837.93</ele>
        <time>2015-07-12T07:34:21Z</time>
      </trkpt>
      <trkpt lat="44.14886" lon="3.24742">
        <ele>840.33</ele>
        <time>2015-07-12T07:34:37Z</time>
      </trkpt>
      <trkpt lat="44.14878" lon="3.24769">
        <ele>842.25</ele>
        <time>2015-07-12T07:34:52Z</time>
      </trkpt>
      <trkpt lat="44.14875" lon="3.24776">
        <ele>842.73</ele>
        <time>2015-07-12T07:34:56Z</time>
      </trkpt>
      <trkpt lat="44.14873" lon="3.24779">
        <ele>842.73</ele>
        <time>2015-07-12T07:34:58Z</time>
      </trkpt>
      <trkpt lat="44.14859" lon="3.24804">
        <ele>845.62</ele>
        <time>2015-07-12T07:35:14Z</time>
      </trkpt>
      <trkpt lat="44.14845" lon="3.24828">
        <ele>847.06</ele>
        <time>2015-07-12T07:35:29Z</time>
      </trkpt>
      <trkpt lat="44.14844" lon="3.24829">
        <ele>847.06</ele>
        <time>2015-07-12T07:35:38Z</time>
      </trkpt>
      <trkpt lat="44.14843" lon="3.2483">
        <ele>847.06</ele>
        <time>2015-07-12T07:36:13Z</time>
      </trkpt>
      <trkpt lat="44.14839" lon="3.24837">
        <ele>848.02</ele>
        <time>2015-07-12T07:36:25Z</time>
      </trkpt>
      <trkpt lat="44.14829" lon="3.24862">
        <ele>849.94</ele>
        <time>2015-07-12T07:36:40Z</time>
      </trkpt>
      <trkpt lat="44.14825" lon="3.24872">
        <ele>850.42</ele>
        <time>2015-07-12T07:36:48Z</time>
      </trkpt>
      <trkpt lat="44.14818" lon="3.24886">
        <ele>852.35</ele>
        <time>2015-07-12T07:37:02Z</time>
      </trkpt>
      <trkpt lat="44.14811" lon="3.24896">
        <ele>852.35</ele>
        <time>2015-07-12T07:37:11Z</time>
      </trkpt>
      <trkpt lat="44.14803" lon="3.24913">
        <ele>853.31</ele>
        <time>2015-07-12T07:37:25Z</time>
      </trkpt>
      <trkpt lat="44.14795" lon="3.24925">
        <ele>854.27</ele>
        <time>2015-07-12T07:37:36Z</time>
      </trkpt>
      <trkpt lat="44.14785" lon="3.24942">
        <ele>855.23</ele>
        <time>2015-07-12T07:37:50Z</time>
      </trkpt>
      <trkpt lat="44.14782" lon="3.24955">
        <ele>856.19</ele>
        <time>2015-07-12T07:38:04Z</time>
      </trkpt>
      <trkpt lat="44.14782" lon="3.24955">
        <ele>856.19</ele>
        <time>2015-07-12T07:38:28Z</time>
      </trkpt>
      <trkpt lat="44.14781" lon="3.24966">
        <ele>857.15</ele>
        <time>2015-07-12T07:38:34Z</time>
      </trkpt>
      <trkpt lat="44.14797" lon="3.24986">
        <ele>858.59</ele>
        <time>2015-07-12T07:38:49Z</time>
      </trkpt>
      <trkpt lat="44.14809" lon="3.24986">
        <ele>860.04</ele>
        <time>2015-07-12T07:38:58Z</time>
      </trkpt>
      <trkpt lat="44.14815" lon="3.24988">
        <ele>860.04</ele>
        <time>2015-07-12T07:39:03Z</time>
      </trkpt>
      <trkpt lat="44.14828" lon="3.24989">
        <ele>861</ele>
        <time>2015-07-12T07:39:15Z</time>
      </trkpt>
      <trkpt lat="44.14845" lon="3.24988">
        <ele>861.48</ele>
        <time>2015-07-12T07:39:29Z</time>
      </trkpt>
      <trkpt lat="44.14867" lon="3.24989">
        <ele>863.4</ele>
        <time>2015-07-12T07:39:46Z</time>
      </trkpt>
      <trkpt lat="44.14878" lon="3.24988">
        <ele>864.36</ele>
        <time>2015-07-12T07:39:54Z</time>
      </trkpt>
      <trkpt lat="44.14888" lon="3.24987">
        <ele>865.32</ele>
        <time>2015-07-12T07:40:02Z</time>
      </trkpt>
      <trkpt lat="44.14906" lon="3.24989">
        <ele>866.77</ele>
        <time>2015-07-12T07:40:16Z</time>
      </trkpt>
      <trkpt lat="44.14915" lon="3.24989">
        <ele>867.73</ele>
        <time>2015-07-12T07:40:22Z</time>
      </trkpt>
      <trkpt lat="44.14917" lon="3.24989">
        <ele>868.21</ele>
        <time>2015-07-12T07:40:24Z</time>
      </trkpt>
      <trkpt lat="44.14924" lon="3.2499">
        <ele>868.21</ele>
        <time>2015-07-12T07:40:29Z</time>
      </trkpt>
      <trkpt lat="44.14932" lon="3.24994">
        <ele>869.65</ele>
        <time>2015-07-12T07:40:34Z</time>
      </trkpt>
      <trkpt lat="44.14943" lon="3.24997">
        <ele>871.09</ele>
        <time>2015-07-12T07:40:47Z</time>
      </trkpt>
      <trkpt lat="44.14943" lon="3.24995">
        <ele>871.09</ele>
        <time>2015-07-12T07:41:06Z</time>
      </trkpt>
      <trkpt lat="44.14943" lon="3.24996">
        <ele>870.61</ele>
        <time>2015-07-12T07:41:39Z</time>
      </trkpt>
      <trkpt lat="44.14942" lon="3.24996">
        <ele>870.61</ele>
        <time>2015-07-12T07:42:00Z</time>
      </trkpt>
      <trkpt lat="44.14942" lon="3.24996">
        <ele>870.61</ele>
        <time>2015-07-12T07:42:23Z</time>
      </trkpt>
      <trkpt lat="44.14944" lon="3.24998">
        <ele>870.61</ele>
        <time>2015-07-12T07:42:34Z</time>
      </trkpt>
      <trkpt lat="44.14959" lon="3.25008">
        <ele>873.01</ele>
        <time>2015-07-12T07:42:46Z</time>
      </trkpt>
      <trkpt lat="44.1498" lon="3.25021">
        <ele>875.9</ele>
        <time>2015-07-12T07:43:01Z</time>
      </trkpt>
      <trkpt lat="44.14985" lon="3.25024">
        <ele>876.86</ele>
        <time>2015-07-12T07:43:05Z</time>
      </trkpt>
      <trkpt lat="44.14993" lon="3.25031">
        <ele>877.34</ele>
        <time>2015-07-12T07:43:12Z</time>
      </trkpt>
      <trkpt lat="44.15008" lon="3.25045">
        <ele>877.82</ele>
        <time>2015-07-12T07:43:28Z</time>
      </trkpt>
      <trkpt lat="44.15014" lon="3.25057">
        <ele>877.34</ele>
        <time>2015-07-12T07:43:42Z</time>
      </trkpt>
      <trkpt lat="44.15021" lon="3.25078">
        <ele>877.82</ele>
        <time>2015-07-12T07:44:01Z</time>
      </trkpt>
      <trkpt lat="44.15029" lon="3.25098">
        <ele>877.82</ele>
        <time>2015-07-12T07:44:16Z</time>
      </trkpt>
      <trkpt lat="44.15033" lon="3.25107">
        <ele>878.3</ele>
        <time>2015-07-12T07:44:23Z</time>
      </trkpt>
      <trkpt lat="44.15036" lon="3.25132">
        <ele>878.3</ele>
        <time>2015-07-12T07:44:35Z</time>
      </trkpt>
      <trkpt lat="44.15042" lon="3.25182">
        <ele>875.9</ele>
        <time>2015-07-12T07:44:45Z</time>
      </trkpt>
      <trkpt lat="44.15055" lon="3.25234">
        <ele>874.94</ele>
        <time>2015-07-12T07:44:56Z</time>
      </trkpt>
      <trkpt lat="44.15066" lon="3.25288">
        <ele>873.5</ele>
        <time>2015-07-12T07:45:04Z</time>
      </trkpt>
      <trkpt lat="44.15068" lon="3.25303">
        <ele>872.53</ele>
        <time>2015-07-12T07:45:06Z</time>
      </trkpt>
      <trkpt lat="44.15079" lon="3.2536">
        <ele>875.42</ele>
        <time>2015-07-12T07:45:17Z</time>
      </trkpt>
      <trkpt lat="44.15104" lon="3.25422">
        <ele>875.42</ele>
        <time>2015-07-12T07:45:32Z</time>
      </trkpt>
      <trkpt lat="44.15113" lon="3.25454">
        <ele>874.94</ele>
        <time>2015-07-12T07:45:37Z</time>
      </trkpt>
      <trkpt lat="44.15149" lon="3.25509">
        <ele>873.98</ele>
        <time>2015-07-12T07:45:47Z</time>
      </trkpt>
      <trkpt lat="44.15158" lon="3.25525">
        <ele>873.98</ele>
        <time>2015-07-12T07:45:50Z</time>
      </trkpt>
      <trkpt lat="44.1518" lon="3.25583">
        <ele>873.01</ele>
        <time>2015-07-12T07:46:00Z</time>
      </trkpt>
      <trkpt lat="44.15183" lon="3.25625">
        <ele>870.61</ele>
        <time>2015-07-12T07:46:06Z</time>
      </trkpt>
      <trkpt lat="44.15174" lon="3.25666">
        <ele>869.65</ele>
        <time>2015-07-12T07:46:11Z</time>
      </trkpt>
      <trkpt lat="44.15179" lon="3.25701">
        <ele>871.09</ele>
        <time>2015-07-12T07:46:20Z</time>
      </trkpt>
      <trkpt lat="44.1518" lon="3.25706">
        <ele>871.09</ele>
        <time>2015-07-12T07:46:23Z</time>
      </trkpt>
      <trkpt lat="44.15199" lon="3.25718">
        <ele>872.05</ele>
        <time>2015-07-12T07:46:34Z</time>
      </trkpt>
      <trkpt lat="44.15223" lon="3.25724">
        <ele>873.5</ele>
        <time>2015-07-12T07:46:48Z</time>
      </trkpt>
      <trkpt lat="44.15252" lon="3.2573">
        <ele>875.42</ele>
        <time>2015-07-12T07:47:06Z</time>
      </trkpt>
      <trkpt lat="44.15254" lon="3.25732">
        <ele>875.42</ele>
        <time>2015-07-12T07:47:08Z</time>
      </trkpt>
      <trkpt lat="44.15265" lon="3.25736">
        <ele>876.38</ele>
        <time>2015-07-12T07:47:16Z</time>
      </trkpt>
      <trkpt lat="44.15281" lon="3.25745">
        <ele>877.82</ele>
        <time>2015-07-12T07:47:29Z</time>
      </trkpt>
      <trkpt lat="44.15284" lon="3.25743">
        <ele>878.78</ele>
        <time>2015-07-12T07:47:38Z</time>
      </trkpt>
      <trkpt lat="44.15284" lon="3.25741">
        <ele>878.3</ele>
        <time>2015-07-12T07:47:40Z</time>
      </trkpt>
      <trkpt lat="44.15283" lon="3.25755">
        <ele>877.82</ele>
        <time>2015-07-12T07:47:48Z</time>
      </trkpt>
      <trkpt lat="44.15278" lon="3.25774">
        <ele>877.82</ele>
        <time>2015-07-12T07:47:58Z</time>
      </trkpt>
      <trkpt lat="44.15278" lon="3.25774">
        <ele>878.78</ele>
        <time>2015-07-12T07:48:12Z</time>
      </trkpt>
      <trkpt lat="44.15278" lon="3.25775">
        <ele>878.3</ele>
        <time>2015-07-12T07:48:56Z</time>
      </trkpt>
      <trkpt lat="44.15278" lon="3.25775">
        <ele>878.3</ele>
        <time>2015-07-12T07:49:34Z</time>
      </trkpt>
      <trkpt lat="44.15277" lon="3.25775">
        <ele>878.3</ele>
        <time>2015-07-12T07:50:09Z</time>
      </trkpt>
      <trkpt lat="44.15276" lon="3.25778">
        <ele>878.3</ele>
        <time>2015-07-12T07:50:13Z</time>
      </trkpt>
      <trkpt lat="44.15282" lon="3.25782">
        <ele>877.34</ele>
        <time>2015-07-12T07:50:17Z</time>
      </trkpt>
      <trkpt lat="44.15312" lon="3.25779">
        <ele>878.3</ele>
        <time>2015-07-12T07:50:30Z</time>
      </trkpt>
      <trkpt lat="44.15312" lon="3.25779">
        <ele>877.82</ele>
        <time>2015-07-12T07:50:55Z</time>
      </trkpt>
      <trkpt lat="44.15312" lon="3.2578">
        <ele>878.3</ele>
        <time>2015-07-12T07:51:30Z</time>
      </trkpt>
      <trkpt lat="44.15311" lon="3.2578">
        <ele>878.3</ele>
        <time>2015-07-12T07:51:40Z</time>
      </trkpt>
      <trkpt lat="44.15311" lon="3.25782">
        <ele>878.3</ele>
        <time>2015-07-12T07:51:46Z</time>
      </trkpt>
      <trkpt lat="44.15294" lon="3.25782">
        <ele>878.3</ele>
        <time>2015-07-12T07:51:57Z</time>
      </trkpt>
      <trkpt lat="44.15286" lon="3.25771">
        <ele>877.82</ele>
        <time>2015-07-12T07:52:07Z</time>
      </trkpt>
      <trkpt lat="44.15293" lon="3.25738">
        <ele>878.78</ele>
        <time>2015-07-12T07:52:24Z</time>
      </trkpt>
      <trkpt lat="44.15305" lon="3.25725">
        <ele>879.74</ele>
        <time>2015-07-12T07:52:34Z</time>
      </trkpt>
      <trkpt lat="44.15332" lon="3.25718">
        <ele>881.19</ele>
        <time>2015-07-12T07:52:52Z</time>
      </trkpt>
      <trkpt lat="44.1534" lon="3.25711">
        <ele>881.67</ele>
        <time>2015-07-12T07:52:58Z</time>
      </trkpt>
      <trkpt lat="44.15343" lon="3.25706">
        <ele>882.63</ele>
        <time>2015-07-12T07:53:02Z</time>
      </trkpt>
      <trkpt lat="44.15358" lon="3.2568">
        <ele>884.07</ele>
        <time>2015-07-12T07:53:19Z</time>
      </trkpt>
      <trkpt lat="44.15375" lon="3.2566">
        <ele>885.99</ele>
        <time>2015-07-12T07:53:35Z</time>
      </trkpt>
      <trkpt lat="44.15379" lon="3.25655">
        <ele>886.95</ele>
        <time>2015-07-12T07:53:39Z</time>
      </trkpt>
      <trkpt lat="44.1539" lon="3.25644">
        <ele>887.91</ele>
        <time>2015-07-12T07:53:50Z</time>
      </trkpt>
      <trkpt lat="44.15404" lon="3.25627">
        <ele>888.88</ele>
        <time>2015-07-12T07:54:04Z</time>
      </trkpt>
      <trkpt lat="44.1541" lon="3.2562">
        <ele>889.84</ele>
        <time>2015-07-12T07:54:17Z</time>
      </trkpt>
      <trkpt lat="44.15412" lon="3.25619">
        <ele>890.32</ele>
        <time>2015-07-12T07:54:20Z</time>
      </trkpt>
      <trkpt lat="44.15414" lon="3.25617">
        <ele>889.84</ele>
        <time>2015-07-12T07:54:22Z</time>
      </trkpt>
      <trkpt lat="44.15419" lon="3.25612">
        <ele>890.8</ele>
        <time>2015-07-12T07:54:26Z</time>
      </trkpt>
      <trkpt lat="44.15442" lon="3.25582">
        <ele>892.24</ele>
        <time>2015-07-12T07:54:45Z</time>
      </trkpt>
      <trkpt lat="44.15464" lon="3.25557">
        <ele>893.2</ele>
        <time>2015-07-12T07:55:01Z</time>
      </trkpt>
      <trkpt lat="44.15484" lon="3.25537">
        <ele>894.64</ele>
        <time>2015-07-12T07:55:16Z</time>
      </trkpt>
      <trkpt lat="44.15506" lon="3.25518">
        <ele>896.09</ele>
        <time>2015-07-12T07:55:32Z</time>
      </trkpt>
      <trkpt lat="44.1553" lon="3.255">
        <ele>897.05</ele>
        <time>2015-07-12T07:55:48Z</time>
      </trkpt>
      <trkpt lat="44.15553" lon="3.25484">
        <ele>897.05</ele>
        <time>2015-07-12T07:56:02Z</time>
      </trkpt>
      <trkpt lat="44.15577" lon="3.25461">
        <ele>897.05</ele>
        <time>2015-07-12T07:56:15Z</time>
      </trkpt>
      <trkpt lat="44.1561" lon="3.25418">
        <ele>896.09</ele>
        <time>2015-07-12T07:56:29Z</time>
      </trkpt>
      <trkpt lat="44.15639" lon="3.25384">
        <ele>895.12</ele>
        <time>2015-07-12T07:56:38Z</time>
      </trkpt>
      <trkpt lat="44.15653" lon="3.25368">
        <ele>895.12</ele>
        <time>2015-07-12T07:56:42Z</time>
      </trkpt>
      <trkpt lat="44.15694" lon="3.25317">
        <ele>893.68</ele>
        <time>2015-07-12T07:56:53Z</time>
      </trkpt>
      <trkpt lat="44.1571" lon="3.253">
        <ele>894.16</ele>
        <time>2015-07-12T07:56:57Z</time>
      </trkpt>
      <trkpt lat="44.15754" lon="3.25279">
        <ele>897.53</ele>
        <time>2015-07-12T07:57:09Z</time>
      </trkpt>
      <trkpt lat="44.15782" lon="3.25271">
        <ele>899.93</ele>
        <time>2015-07-12T07:57:23Z</time>
      </trkpt>
      <trkpt lat="44.15801" lon="3.25257">
        <ele>902.33</ele>
        <time>2015-07-12T07:57:38Z</time>
      </trkpt>
      <trkpt lat="44.15816" lon="3.25247">
        <ele>905.7</ele>
        <time>2015-07-12T07:57:51Z</time>
      </trkpt>
      <trkpt lat="44.15836" lon="3.25236">
        <ele>908.58</ele>
        <time>2015-07-12T07:58:06Z</time>
      </trkpt>
      <trkpt lat="44.15839" lon="3.25235">
        <ele>909.54</ele>
        <time>2015-07-12T07:58:08Z</time>
      </trkpt>
      <trkpt lat="44.15845" lon="3.25233">
        <ele>910.03</ele>
        <time>2015-07-12T07:58:12Z</time>
      </trkpt>
      <trkpt lat="44.15849" lon="3.25232">
        <ele>910.99</ele>
        <time>2015-07-12T07:58:16Z</time>
      </trkpt>
      <trkpt lat="44.15869" lon="3.25235">
        <ele>913.87</ele>
        <time>2015-07-12T07:58:31Z</time>
      </trkpt>
      <trkpt lat="44.15887" lon="3.2523">
        <ele>916.27</ele>
        <time>2015-07-12T07:58:45Z</time>
      </trkpt>
      <trkpt lat="44.159" lon="3.25224">
        <ele>917.24</ele>
        <time>2015-07-12T07:58:55Z</time>
      </trkpt>
      <trkpt lat="44.1592" lon="3.25217">
        <ele>919.16</ele>
        <time>2015-07-12T07:59:11Z</time>
      </trkpt>
      <trkpt lat="44.15936" lon="3.25212">
        <ele>920.6</ele>
        <time>2015-07-12T07:59:27Z</time>
      </trkpt>
      <trkpt lat="44.15949" lon="3.25209">
        <ele>921.08</ele>
        <time>2015-07-12T07:59:39Z</time>
      </trkpt>
      <trkpt lat="44.15971" lon="3.25203">
        <ele>920.6</ele>
        <time>2015-07-12T07:59:53Z</time>
      </trkpt>
      <trkpt lat="44.15996" lon="3.25178">
        <ele>920.12</ele>
        <time>2015-07-12T08:00:05Z</time>
      </trkpt>
      <trkpt lat="44.1602" lon="3.25166">
        <ele>921.56</ele>
        <time>2015-07-12T08:00:18Z</time>
      </trkpt>
      <trkpt lat="44.1604" lon="3.25169">
        <ele>922.52</ele>
        <time>2015-07-12T08:00:31Z</time>
      </trkpt>
      <trkpt lat="44.16064" lon="3.25167">
        <ele>923.48</ele>
        <time>2015-07-12T08:00:46Z</time>
      </trkpt>
      <trkpt lat="44.16085" lon="3.25164">
        <ele>923.96</ele>
        <time>2015-07-12T08:01:01Z</time>
      </trkpt>
      <trkpt lat="44.16113" lon="3.25152">
        <ele>924.45</ele>
        <time>2015-07-12T08:01:17Z</time>
      </trkpt>
      <trkpt lat="44.16147" lon="3.25136">
        <ele>924.45</ele>
        <time>2015-07-12T08:01:32Z</time>
      </trkpt>
      <trkpt lat="44.16174" lon="3.25122">
        <ele>922.52</ele>
        <time>2015-07-12T08:01:43Z</time>
      </trkpt>
      <trkpt lat="44.1622" lon="3.25102">
        <ele>921.56</ele>
        <time>2015-07-12T08:01:57Z</time>
      </trkpt>
      <trkpt lat="44.16257" lon="3.25077">
        <ele>921.56</ele>
        <time>2015-07-12T08:02:12Z</time>
      </trkpt>
      <trkpt lat="44.16258" lon="3.25076">
        <ele>921.56</ele>
        <time>2015-07-12T08:02:30Z</time>
      </trkpt>
      <trkpt lat="44.16257" lon="3.25076">
        <ele>921.56</ele>
        <time>2015-07-12T08:03:14Z</time>
      </trkpt>
      <trkpt lat="44.16257" lon="3.25076">
        <ele>921.56</ele>
        <time>2015-07-12T08:04:00Z</time>
      </trkpt>
      <trkpt lat="44.16257" lon="3.25076">
        <ele>921.08</ele>
        <time>2015-07-12T08:04:08Z</time>
      </trkpt>
      <trkpt lat="44.16258" lon="3.25076">
        <ele>922.04</ele>
        <time>2015-07-12T08:04:19Z</time>
      </trkpt>
      <trkpt lat="44.16258" lon="3.25076">
        <ele>921.56</ele>
        <time>2015-07-12T08:04:40Z</time>
      </trkpt>
      <trkpt lat="44.16259" lon="3.25075">
        <ele>921.56</ele>
        <time>2015-07-12T08:05:16Z</time>
      </trkpt>
      <trkpt lat="44.16259" lon="3.25076">
        <ele>922.04</ele>
        <time>2015-07-12T08:05:28Z</time>
      </trkpt>
      <trkpt lat="44.16283" lon="3.25048">
        <ele>920.12</ele>
        <time>2015-07-12T08:05:41Z</time>
      </trkpt>
      <trkpt lat="44.16323" lon="3.25032">
        <ele>919.16</ele>
        <time>2015-07-12T08:05:55Z</time>
      </trkpt>
      <trkpt lat="44.16357" lon="3.25033">
        <ele>920.6</ele>
        <time>2015-07-12T08:06:07Z</time>
      </trkpt>
      <trkpt lat="44.16384" lon="3.25032">
        <ele>921.56</ele>
        <time>2015-07-12T08:06:20Z</time>
      </trkpt>
      <trkpt lat="44.16405" lon="3.2503">
        <ele>919.64</ele>
        <time>2015-07-12T08:06:28Z</time>
      </trkpt>
      <trkpt lat="44.1643" lon="3.25023">
        <ele>918.68</ele>
        <time>2015-07-12T08:06:35Z</time>
      </trkpt>
      <trkpt lat="44.16442" lon="3.25021">
        <ele>917.72</ele>
        <time>2015-07-12T08:06:40Z</time>
      </trkpt>
      <trkpt lat="44.16447" lon="3.25019">
        <ele>918.2</ele>
        <time>2015-07-12T08:06:53Z</time>
      </trkpt>
      <trkpt lat="44.16461" lon="3.2502">
        <ele>918.2</ele>
        <time>2015-07-12T08:07:00Z</time>
      </trkpt>
      <trkpt lat="44.1647" lon="3.25024">
        <ele>918.2</ele>
        <time>2015-07-12T08:07:04Z</time>
      </trkpt>
      <trkpt lat="44.16497" lon="3.2502">
        <ele>918.2</ele>
        <time>2015-07-12T08:07:17Z</time>
      </trkpt>
      <trkpt lat="44.1653" lon="3.25012">
        <ele>915.31</ele>
        <time>2015-07-12T08:07:27Z</time>
      </trkpt>
      <trkpt lat="44.16548" lon="3.25008">
        <ele>912.43</ele>
        <time>2015-07-12T08:07:37Z</time>
      </trkpt>
      <trkpt lat="44.16549" lon="3.25006">
        <ele>912.43</ele>
        <time>2015-07-12T08:07:40Z</time>
      </trkpt>
      <trkpt lat="44.16562" lon="3.25005">
        <ele>910.03</ele>
        <time>2015-07-12T08:07:44Z</time>
      </trkpt>
      <trkpt lat="44.16568" lon="3.25003">
        <ele>910.03</ele>
        <time>2015-07-12T08:07:47Z</time>
      </trkpt>
      <trkpt lat="44.16572" lon="3.25001">
        <ele>909.54</ele>
        <time>2015-07-12T08:07:49Z</time>
      </trkpt>
      <trkpt lat="44.16583" lon="3.24999">
        <ele>908.1</ele>
        <time>2015-07-12T08:07:52Z</time>
      </trkpt>
      <trkpt lat="44.16611" lon="3.24989">
        <ele>906.18</ele>
        <time>2015-07-12T08:08:02Z</time>
      </trkpt>
      <trkpt lat="44.1663" lon="3.24984">
        <ele>904.74</ele>
        <time>2015-07-12T08:08:10Z</time>
      </trkpt>
      <trkpt lat="44.16648" lon="3.24981">
        <ele>902.82</ele>
        <time>2015-07-12T08:08:18Z</time>
      </trkpt>
      <trkpt lat="44.1667" lon="3.24982">
        <ele>899.45</ele>
        <time>2015-07-12T08:08:28Z</time>
      </trkpt>
      <trkpt lat="44.16685" lon="3.24989">
        <ele>895.12</ele>
        <time>2015-07-12T08:08:33Z</time>
      </trkpt>
      <trkpt lat="44.16693" lon="3.24996">
        <ele>893.2</ele>
        <time>2015-07-12T08:08:35Z</time>
      </trkpt>
      <trkpt lat="44.167" lon="3.25008">
        <ele>890.32</ele>
        <time>2015-07-12T08:08:37Z</time>
      </trkpt>
      <trkpt lat="44.16702" lon="3.2501">
        <ele>889.84</ele>
        <time>2015-07-12T08:08:38Z</time>
      </trkpt>
      <trkpt lat="44.16714" lon="3.25">
        <ele>889.36</ele>
        <time>2015-07-12T08:08:45Z</time>
      </trkpt>
      <trkpt lat="44.1672" lon="3.24993">
        <ele>889.36</ele>
        <time>2015-07-12T08:09:10Z</time>
      </trkpt>
      <trkpt lat="44.1672" lon="3.24993">
        <ele>888.88</ele>
        <time>2015-07-12T08:09:15Z</time>
      </trkpt>
      <trkpt lat="44.16726" lon="3.24987">
        <ele>887.43</ele>
        <time>2015-07-12T08:09:19Z</time>
      </trkpt>
      <trkpt lat="44.16742" lon="3.24975">
        <ele>884.55</ele>
        <time>2015-07-12T08:09:30Z</time>
      </trkpt>
      <trkpt lat="44.16761" lon="3.24964">
        <ele>882.63</ele>
        <time>2015-07-12T08:09:39Z</time>
      </trkpt>
      <trkpt lat="44.16763" lon="3.24965">
        <ele>882.63</ele>
        <time>2015-07-12T08:09:40Z</time>
      </trkpt>
      <trkpt lat="44.1677" lon="3.24975">
        <ele>881.67</ele>
        <time>2015-07-12T08:09:45Z</time>
      </trkpt>
      <trkpt lat="44.16773" lon="3.24983">
        <ele>881.67</ele>
        <time>2015-07-12T08:09:47Z</time>
      </trkpt>
      <trkpt lat="44.16777" lon="3.24992">
        <ele>881.67</ele>
        <time>2015-07-12T08:09:51Z</time>
      </trkpt>
      <trkpt lat="44.1678" lon="3.24998">
        <ele>880.22</ele>
        <time>2015-07-12T08:09:54Z</time>
      </trkpt>
      <trkpt lat="44.16781" lon="3.24999">
        <ele>880.22</ele>
        <time>2015-07-12T08:09:55Z</time>
      </trkpt>
      <trkpt lat="44.16787" lon="3.25008">
        <ele>877.82</ele>
        <time>2015-07-12T08:09:59Z</time>
      </trkpt>
      <trkpt lat="44.16792" lon="3.25015">
        <ele>879.74</ele>
        <time>2015-07-12T08:10:03Z</time>
      </trkpt>
      <trkpt lat="44.16794" lon="3.25018">
        <ele>880.22</ele>
        <time>2015-07-12T08:10:10Z</time>
      </trkpt>
      <trkpt lat="44.16802" lon="3.25019">
        <ele>880.71</ele>
        <time>2015-07-12T08:10:21Z</time>
      </trkpt>
      <trkpt lat="44.16808" lon="3.25019">
        <ele>881.19</ele>
        <time>2015-07-12T08:10:35Z</time>
      </trkpt>
      <trkpt lat="44.1681" lon="3.2502">
        <ele>880.71</ele>
        <time>2015-07-12T08:10:39Z</time>
      </trkpt>
      <trkpt lat="44.16814" lon="3.25026">
        <ele>881.67</ele>
        <time>2015-07-12T08:10:45Z</time>
      </trkpt>
      <trkpt lat="44.16816" lon="3.25028">
        <ele>881.67</ele>
        <time>2015-07-12T08:10:47Z</time>
      </trkpt>
      <trkpt lat="44.1682" lon="3.2503">
        <ele>881.67</ele>
        <time>2015-07-12T08:10:49Z</time>
      </trkpt>
      <trkpt lat="44.16824" lon="3.25031">
        <ele>881.67</ele>
        <time>2015-07-12T08:10:53Z</time>
      </trkpt>
      <trkpt lat="44.16832" lon="3.25028">
        <ele>881.67</ele>
        <time>2015-07-12T08:11:07Z</time>
      </trkpt>
      <trkpt lat="44.16832" lon="3.25028">
        <ele>881.67</ele>
        <time>2015-07-12T08:11:20Z</time>
      </trkpt>
      <trkpt lat="44.16841" lon="3.24993">
        <ele>878.3</ele>
        <time>2015-07-12T08:11:32Z</time>
      </trkpt>
      <trkpt lat="44.16842" lon="3.24989">
        <ele>878.3</ele>
        <time>2015-07-12T08:11:33Z</time>
      </trkpt>
      <trkpt lat="44.16862" lon="3.24982">
        <ele>879.74</ele>
        <time>2015-07-12T08:11:42Z</time>
      </trkpt>
      <trkpt lat="44.16873" lon="3.24994">
        <ele>880.71</ele>
        <time>2015-07-12T08:11:54Z</time>
      </trkpt>
      <trkpt lat="44.16871" lon="3.24993">
        <ele>880.71</ele>
        <time>2015-07-12T08:12:31Z</time>
      </trkpt>
      <trkpt lat="44.16872" lon="3.24996">
        <ele>880.71</ele>
        <time>2015-07-12T08:13:12Z</time>
      </trkpt>
      <trkpt lat="44.16871" lon="3.24996">
        <ele>880.22</ele>
        <time>2015-07-12T08:13:50Z</time>
      </trkpt>
      <trkpt lat="44.16871" lon="3.24995">
        <ele>880.22</ele>
        <time>2015-07-12T08:14:26Z</time>
      </trkpt>
      <trkpt lat="44.16872" lon="3.24996">
        <ele>880.22</ele>
        <time>2015-07-12T08:15:05Z</time>
      </trkpt>
      <trkpt lat="44.16873" lon="3.24995">
        <ele>879.74</ele>
        <time>2015-07-12T08:15:44Z</time>
      </trkpt>
      <trkpt lat="44.16872" lon="3.24995">
        <ele>879.74</ele>
        <time>2015-07-12T08:16:18Z</time>
      </trkpt>
      <trkpt lat="44.16873" lon="3.24994">
        <ele>880.71</ele>
        <time>2015-07-12T08:16:57Z</time>
      </trkpt>
      <trkpt lat="44.16874" lon="3.24993">
        <ele>879.74</ele>
        <time>2015-07-12T08:17:37Z</time>
      </trkpt>
      <trkpt lat="44.16874" lon="3.24995">
        <ele>879.74</ele>
        <time>2015-07-12T08:18:17Z</time>
      </trkpt>
      <trkpt lat="44.16873" lon="3.24995">
        <ele>879.26</ele>
        <time>2015-07-12T08:18:58Z</time>
      </trkpt>
      <trkpt lat="44.16873" lon="3.24993">
        <ele>879.74</ele>
        <time>2015-07-12T08:19:35Z</time>
      </trkpt>
      <trkpt lat="44.16873" lon="3.24993">
        <ele>879.74</ele>
        <time>2015-07-12T08:20:06Z</time>
      </trkpt>
      <trkpt lat="44.16871" lon="3.24993">
        <ele>880.22</ele>
        <time>2015-07-12T08:20:42Z</time>
      </trkpt>
      <trkpt lat="44.16872" lon="3.24995">
        <ele>879.74</ele>
        <time>2015-07-12T08:21:18Z</time>
      </trkpt>
      <trkpt lat="44.16873" lon="3.24994">
        <ele>879.74</ele>
        <time>2015-07-12T08:21:54Z</time>
      </trkpt>
      <trkpt lat="44.16874" lon="3.24995">
        <ele>879.74</ele>
        <time>2015-07-12T08:22:31Z</time>
      </trkpt>
      <trkpt lat="44.16873" lon="3.24997">
        <ele>879.74</ele>
        <time>2015-07-12T08:23:13Z</time>
      </trkpt>
      <trkpt lat="44.16873" lon="3.24995">
        <ele>879.74</ele>
        <time>2015-07-12T08:23:53Z</time>
      </trkpt>
      <trkpt lat="44.16873" lon="3.24993">
        <ele>879.74</ele>
        <time>2015-07-12T08:24:35Z</time>
      </trkpt>
      <trkpt lat="44.16872" lon="3.24993">
        <ele>879.74</ele>
        <time>2015-07-12T08:25:12Z</time>
      </trkpt>
      <trkpt lat="44.16873" lon="3.24993">
        <ele>879.74</ele>
        <time>2015-07-12T08:25:52Z</time>
      </trkpt>
      <trkpt lat="44.16873" lon="3.24991">
        <ele>880.22</ele>
        <time>2015-07-12T08:26:28Z</time>
      </trkpt>
      <trkpt lat="44.16874" lon="3.24991">
        <ele>879.26</ele>
        <time>2015-07-12T08:27:10Z</time>
      </trkpt>
      <trkpt lat="44.16875" lon="3.2499">
        <ele>879.26</ele>
        <time>2015-07-12T08:27:51Z</time>
      </trkpt>
      <trkpt lat="44.16876" lon="3.2499">
        <ele>879.26</ele>
        <time>2015-07-12T08:28:31Z</time>
      </trkpt>
      <trkpt lat="44.16875" lon="3.24991">
        <ele>879.74</ele>
        <time>2015-07-12T08:29:05Z</time>
      </trkpt>
      <trkpt lat="44.16875" lon="3.2499">
        <ele>880.22</ele>
        <time>2015-07-12T08:29:38Z</time>
      </trkpt>
      <trkpt lat="44.16874" lon="3.2499">
        <ele>879.74</ele>
        <time>2015-07-12T08:30:16Z</time>
      </trkpt>
      <trkpt lat="44.16873" lon="3.24991">
        <ele>879.74</ele>
        <time>2015-07-12T08:30:56Z</time>
      </trkpt>
      <trkpt lat="44.16874" lon="3.24992">
        <ele>879.26</ele>
        <time>2015-07-12T08:31:31Z</time>
      </trkpt>
      <trkpt lat="44.16874" lon="3.24992">
        <ele>880.22</ele>
        <time>2015-07-12T08:32:07Z</time>
      </trkpt>
      <trkpt lat="44.16874" lon="3.2499">
        <ele>879.74</ele>
        <time>2015-07-12T08:32:44Z</time>
      </trkpt>
      <trkpt lat="44.16874" lon="3.24989">
        <ele>879.74</ele>
        <time>2015-07-12T08:33:21Z</time>
      </trkpt>
      <trkpt lat="44.16875" lon="3.2499">
        <ele>879.74</ele>
        <time>2015-07-12T08:33:59Z</time>
      </trkpt>
      <trkpt lat="44.16873" lon="3.24989">
        <ele>879.74</ele>
        <time>2015-07-12T08:34:32Z</time>
      </trkpt>
      <trkpt lat="44.16871" lon="3.24991">
        <ele>881.19</ele>
        <time>2015-07-12T08:34:41Z</time>
      </trkpt>
      <trkpt lat="44.16859" lon="3.24971">
        <ele>877.82</ele>
        <time>2015-07-12T08:34:48Z</time>
      </trkpt>
      <trkpt lat="44.16853" lon="3.24953">
        <ele>876.86</ele>
        <time>2015-07-12T08:34:53Z</time>
      </trkpt>
      <trkpt lat="44.16848" lon="3.24943">
        <ele>876.38</ele>
        <time>2015-07-12T08:34:57Z</time>
      </trkpt>
      <trkpt lat="44.16852" lon="3.24934">
        <ele>876.38</ele>
        <time>2015-07-12T08:35:01Z</time>
      </trkpt>
      <trkpt lat="44.16878" lon="3.24892">
        <ele>873.01</ele>
        <time>2015-07-12T08:35:15Z</time>
      </trkpt>
      <trkpt lat="44.16909" lon="3.24845">
        <ele>870.13</ele>
        <time>2015-07-12T08:35:28Z</time>
      </trkpt>
      <trkpt lat="44.16919" lon="3.24831">
        <ele>868.69</ele>
        <time>2015-07-12T08:35:31Z</time>
      </trkpt>
      <trkpt lat="44.16942" lon="3.24791">
        <ele>866.29</ele>
        <time>2015-07-12T08:35:37Z</time>
      </trkpt>
      <trkpt lat="44.16959" lon="3.24759">
        <ele>864.36</ele>
        <time>2015-07-12T08:35:41Z</time>
      </trkpt>
      <trkpt lat="44.16964" lon="3.24751">
        <ele>863.4</ele>
        <time>2015-07-12T08:35:42Z</time>
      </trkpt>
      <trkpt lat="44.17005" lon="3.2471">
        <ele>860.04</ele>
        <time>2015-07-12T08:35:48Z</time>
      </trkpt>
      <trkpt lat="44.17032" lon="3.24679">
        <ele>858.11</ele>
        <time>2015-07-12T08:35:52Z</time>
      </trkpt>
      <trkpt lat="44.17083" lon="3.24649">
        <ele>854.27</ele>
        <time>2015-07-12T08:35:58Z</time>
      </trkpt>
      <trkpt lat="44.17126" lon="3.24623">
        <ele>851.38</ele>
        <time>2015-07-12T08:36:03Z</time>
      </trkpt>
      <trkpt lat="44.17143" lon="3.24612">
        <ele>849.46</ele>
        <time>2015-07-12T08:36:05Z</time>
      </trkpt>
      <trkpt lat="44.17175" lon="3.24602">
        <ele>849.94</ele>
        <time>2015-07-12T08:36:09Z</time>
      </trkpt>
      <trkpt lat="44.17192" lon="3.2456">
        <ele>850.9</ele>
        <time>2015-07-12T08:36:16Z</time>
      </trkpt>
      <trkpt lat="44.17185" lon="3.24547">
        <ele>850.9</ele>
        <time>2015-07-12T08:36:19Z</time>
      </trkpt>
      <trkpt lat="44.1717" lon="3.24521">
        <ele>853.31</ele>
        <time>2015-07-12T08:36:30Z</time>
      </trkpt>
      <trkpt lat="44.17171" lon="3.24518">
        <ele>853.79</ele>
        <time>2015-07-12T08:36:33Z</time>
      </trkpt>
      <trkpt lat="44.17175" lon="3.24511">
        <ele>854.27</ele>
        <time>2015-07-12T08:36:37Z</time>
      </trkpt>
      <trkpt lat="44.17182" lon="3.24501">
        <ele>855.23</ele>
        <time>2015-07-12T08:36:44Z</time>
      </trkpt>
      <trkpt lat="44.17194" lon="3.2448">
        <ele>854.75</ele>
        <time>2015-07-12T08:36:55Z</time>
      </trkpt>
      <trkpt lat="44.17202" lon="3.24478">
        <ele>855.71</ele>
        <time>2015-07-12T08:37:01Z</time>
      </trkpt>
      <trkpt lat="44.17209" lon="3.24475">
        <ele>855.71</ele>
        <time>2015-07-12T08:37:16Z</time>
      </trkpt>
      <trkpt lat="44.17209" lon="3.24476">
        <ele>856.19</ele>
        <time>2015-07-12T08:37:35Z</time>
      </trkpt>
      <trkpt lat="44.17212" lon="3.24476">
        <ele>856.19</ele>
        <time>2015-07-12T08:37:38Z</time>
      </trkpt>
      <trkpt lat="44.17218" lon="3.24491">
        <ele>854.75</ele>
        <time>2015-07-12T08:37:46Z</time>
      </trkpt>
      <trkpt lat="44.1722" lon="3.24494">
        <ele>854.27</ele>
        <time>2015-07-12T08:37:48Z</time>
      </trkpt>
      <trkpt lat="44.17231" lon="3.24532">
        <ele>854.27</ele>
        <time>2015-07-12T08:38:02Z</time>
      </trkpt>
      <trkpt lat="44.17253" lon="3.24551">
        <ele>855.23</ele>
        <time>2015-07-12T08:38:13Z</time>
      </trkpt>
      <trkpt lat="44.1726" lon="3.24568">
        <ele>855.71</ele>
        <time>2015-07-12T08:38:21Z</time>
      </trkpt>
      <trkpt lat="44.1726" lon="3.24582">
        <ele>856.67</ele>
        <time>2015-07-12T08:38:27Z</time>
      </trkpt>
      <trkpt lat="44.17259" lon="3.24602">
        <ele>859.08</ele>
        <time>2015-07-12T08:38:39Z</time>
      </trkpt>
      <trkpt lat="44.17252" lon="3.24629">
        <ele>860.52</ele>
        <time>2015-07-12T08:38:52Z</time>
      </trkpt>
      <trkpt lat="44.17252" lon="3.24641">
        <ele>861</ele>
        <time>2015-07-12T08:38:58Z</time>
      </trkpt>
      <trkpt lat="44.17257" lon="3.24659">
        <ele>861</ele>
        <time>2015-07-12T08:39:14Z</time>
      </trkpt>
      <trkpt lat="44.17259" lon="3.24674">
        <ele>861.96</ele>
        <time>2015-07-12T08:39:28Z</time>
      </trkpt>
      <trkpt lat="44.1727" lon="3.24684">
        <ele>862.44</ele>
        <time>2015-07-12T08:39:41Z</time>
      </trkpt>
      <trkpt lat="44.17277" lon="3.24694">
        <ele>862.92</ele>
        <time>2015-07-12T08:39:53Z</time>
      </trkpt>
      <trkpt lat="44.1728" lon="3.24696">
        <ele>862.92</ele>
        <time>2015-07-12T08:39:56Z</time>
      </trkpt>
      <trkpt lat="44.17283" lon="3.24699">
        <ele>862.92</ele>
        <time>2015-07-12T08:40:00Z</time>
      </trkpt>
      <trkpt lat="44.1729" lon="3.247">
        <ele>862.44</ele>
        <time>2015-07-12T08:40:08Z</time>
      </trkpt>
      <trkpt lat="44.17294" lon="3.2471">
        <ele>863.4</ele>
        <time>2015-07-12T08:40:16Z</time>
      </trkpt>
      <trkpt lat="44.17299" lon="3.24713">
        <ele>863.88</ele>
        <time>2015-07-12T08:40:19Z</time>
      </trkpt>
      <trkpt lat="44.17313" lon="3.24717">
        <ele>863.88</ele>
        <time>2015-07-12T08:40:26Z</time>
      </trkpt>
      <trkpt lat="44.17321" lon="3.24719">
        <ele>864.36</ele>
        <time>2015-07-12T08:40:30Z</time>
      </trkpt>
      <trkpt lat="44.17332" lon="3.24727">
        <ele>864.84</ele>
        <time>2015-07-12T08:40:37Z</time>
      </trkpt>
      <trkpt lat="44.1735" lon="3.24737">
        <ele>866.29</ele>
        <time>2015-07-12T08:40:48Z</time>
      </trkpt>
      <trkpt lat="44.17365" lon="3.24735">
        <ele>868.21</ele>
        <time>2015-07-12T08:41:01Z</time>
      </trkpt>
      <trkpt lat="44.17371" lon="3.24737">
        <ele>868.21</ele>
        <time>2015-07-12T08:41:12Z</time>
      </trkpt>
      <trkpt lat="44.17381" lon="3.24742">
        <ele>869.17</ele>
        <time>2015-07-12T08:41:24Z</time>
      </trkpt>
      <trkpt lat="44.17382" lon="3.24745">
        <ele>869.65</ele>
        <time>2015-07-12T08:41:39Z</time>
      </trkpt>
      <trkpt lat="44.17386" lon="3.2475">
        <ele>869.65</ele>
        <time>2015-07-12T08:41:59Z</time>
      </trkpt>
      <trkpt lat="44.17398" lon="3.24752">
        <ele>870.61</ele>
        <time>2015-07-12T08:42:12Z</time>
      </trkpt>
      <trkpt lat="44.174" lon="3.24753">
        <ele>871.09</ele>
        <time>2015-07-12T08:42:17Z</time>
      </trkpt>
      <trkpt lat="44.17409" lon="3.24756">
        <ele>872.05</ele>
        <time>2015-07-12T08:42:28Z</time>
      </trkpt>
      <trkpt lat="44.17416" lon="3.24759">
        <ele>872.05</ele>
        <time>2015-07-12T08:42:38Z</time>
      </trkpt>
      <trkpt lat="44.17417" lon="3.24759">
        <ele>873.01</ele>
        <time>2015-07-12T08:42:48Z</time>
      </trkpt>
      <trkpt lat="44.17416" lon="3.24761">
        <ele>873.5</ele>
        <time>2015-07-12T08:42:52Z</time>
      </trkpt>
      <trkpt lat="44.17425" lon="3.2476">
        <ele>873.5</ele>
        <time>2015-07-12T08:43:00Z</time>
      </trkpt>
      <trkpt lat="44.1743" lon="3.24758">
        <ele>873.98</ele>
        <time>2015-07-12T08:43:19Z</time>
      </trkpt>
      <trkpt lat="44.1743" lon="3.24758">
        <ele>873.98</ele>
        <time>2015-07-12T08:43:20Z</time>
      </trkpt>
      <trkpt lat="44.17435" lon="3.24757">
        <ele>873.5</ele>
        <time>2015-07-12T08:43:25Z</time>
      </trkpt>
      <trkpt lat="44.1744" lon="3.24755">
        <ele>874.94</ele>
        <time>2015-07-12T08:43:29Z</time>
      </trkpt>
      <trkpt lat="44.17451" lon="3.2475">
        <ele>874.94</ele>
        <time>2015-07-12T08:43:43Z</time>
      </trkpt>
      <trkpt lat="44.17463" lon="3.2474">
        <ele>874.46</ele>
        <time>2015-07-12T08:43:57Z</time>
      </trkpt>
      <trkpt lat="44.17466" lon="3.24736">
        <ele>874.46</ele>
        <time>2015-07-12T08:44:01Z</time>
      </trkpt>
      <trkpt lat="44.17472" lon="3.24729">
        <ele>874.94</ele>
        <time>2015-07-12T08:44:11Z</time>
      </trkpt>
      <trkpt lat="44.17478" lon="3.24722">
        <ele>874.94</ele>
        <time>2015-07-12T08:44:18Z</time>
      </trkpt>
      <trkpt lat="44.17487" lon="3.24715">
        <ele>874.46</ele>
        <time>2015-07-12T08:44:24Z</time>
      </trkpt>
      <trkpt lat="44.17505" lon="3.24703">
        <ele>874.94</ele>
        <time>2015-07-12T08:44:34Z</time>
      </trkpt>
      <trkpt lat="44.17511" lon="3.24706">
        <ele>876.38</ele>
        <time>2015-07-12T08:44:37Z</time>
      </trkpt>
      <trkpt lat="44.17521" lon="3.24708">
        <ele>876.38</ele>
        <time>2015-07-12T08:44:43Z</time>
      </trkpt>
      <trkpt lat="44.17529" lon="3.24712">
        <ele>876.86</ele>
        <time>2015-07-12T08:44:48Z</time>
      </trkpt>
      <trkpt lat="44.17548" lon="3.2472">
        <ele>875.9</ele>
        <time>2015-07-12T08:44:57Z</time>
      </trkpt>
      <trkpt lat="44.17557" lon="3.24724">
        <ele>875.9</ele>
        <time>2015-07-12T08:45:00Z</time>
      </trkpt>
      <trkpt lat="44.1758" lon="3.24733">
        <ele>876.38</ele>
        <time>2015-07-12T08:45:11Z</time>
      </trkpt>
      <trkpt lat="44.17604" lon="3.24753">
        <ele>876.86</ele>
        <time>2015-07-12T08:45:23Z</time>
      </trkpt>
      <trkpt lat="44.17627" lon="3.24775">
        <ele>877.82</ele>
        <time>2015-07-12T08:45:36Z</time>
      </trkpt>
      <trkpt lat="44.17628" lon="3.24777">
        <ele>877.82</ele>
        <time>2015-07-12T08:45:37Z</time>
      </trkpt>
      <trkpt lat="44.17628" lon="3.24815">
        <ele>877.82</ele>
        <time>2015-07-12T08:45:49Z</time>
      </trkpt>
      <trkpt lat="44.17631" lon="3.24829">
        <ele>877.82</ele>
        <time>2015-07-12T08:45:53Z</time>
      </trkpt>
      <trkpt lat="44.17636" lon="3.24845">
        <ele>878.3</ele>
        <time>2015-07-12T08:45:58Z</time>
      </trkpt>
      <trkpt lat="44.17656" lon="3.24859">
        <ele>879.74</ele>
        <time>2015-07-12T08:46:10Z</time>
      </trkpt>
      <trkpt lat="44.17657" lon="3.2486">
        <ele>879.74</ele>
        <time>2015-07-12T08:46:11Z</time>
      </trkpt>
      <trkpt lat="44.17661" lon="3.24865">
        <ele>880.22</ele>
        <time>2015-07-12T08:46:15Z</time>
      </trkpt>
      <trkpt lat="44.17676" lon="3.24879">
        <ele>881.19</ele>
        <time>2015-07-12T08:46:27Z</time>
      </trkpt>
      <trkpt lat="44.17689" lon="3.24883">
        <ele>882.15</ele>
        <time>2015-07-12T08:46:34Z</time>
      </trkpt>
      <trkpt lat="44.17699" lon="3.2488">
        <ele>882.63</ele>
        <time>2015-07-12T08:46:40Z</time>
      </trkpt>
      <trkpt lat="44.17714" lon="3.24877">
        <ele>884.07</ele>
        <time>2015-07-12T08:46:49Z</time>
      </trkpt>
      <trkpt lat="44.17735" lon="3.24874">
        <ele>884.55</ele>
        <time>2015-07-12T08:47:00Z</time>
      </trkpt>
      <trkpt lat="44.17756" lon="3.24872">
        <ele>885.99</ele>
        <time>2015-07-12T08:47:07Z</time>
      </trkpt>
      <trkpt lat="44.17768" lon="3.24869">
        <ele>886.47</ele>
        <time>2015-07-12T08:47:13Z</time>
      </trkpt>
      <trkpt lat="44.17793" lon="3.24866">
        <ele>887.91</ele>
        <time>2015-07-12T08:47:27Z</time>
      </trkpt>
      <trkpt lat="44.1781" lon="3.24867">
        <ele>889.84</ele>
        <time>2015-07-12T08:47:38Z</time>
      </trkpt>
      <trkpt lat="44.17827" lon="3.24869">
        <ele>890.8</ele>
        <time>2015-07-12T08:47:48Z</time>
      </trkpt>
      <trkpt lat="44.17841" lon="3.24878">
        <ele>892.24</ele>
        <time>2015-07-12T08:48:01Z</time>
      </trkpt>
      <trkpt lat="44.17858" lon="3.24876">
        <ele>894.16</ele>
        <time>2015-07-12T08:48:14Z</time>
      </trkpt>
      <trkpt lat="44.17886" lon="3.24866">
        <ele>895.61</ele>
        <time>2015-07-12T08:48:26Z</time>
      </trkpt>
      <trkpt lat="44.17901" lon="3.2487">
        <ele>896.57</ele>
        <time>2015-07-12T08:48:38Z</time>
      </trkpt>
      <trkpt lat="44.17911" lon="3.24878">
        <ele>897.53</ele>
        <time>2015-07-12T08:48:47Z</time>
      </trkpt>
      <trkpt lat="44.17917" lon="3.24886">
        <ele>898.49</ele>
        <time>2015-07-12T08:48:52Z</time>
      </trkpt>
      <trkpt lat="44.17938" lon="3.24903">
        <ele>899.93</ele>
        <time>2015-07-12T08:49:06Z</time>
      </trkpt>
      <trkpt lat="44.17943" lon="3.24908">
        <ele>900.41</ele>
        <time>2015-07-12T08:49:10Z</time>
      </trkpt>
      <trkpt lat="44.17944" lon="3.24914">
        <ele>900.89</ele>
        <time>2015-07-12T08:49:14Z</time>
      </trkpt>
      <trkpt lat="44.17948" lon="3.24915">
        <ele>900.89</ele>
        <time>2015-07-12T08:49:17Z</time>
      </trkpt>
      <trkpt lat="44.17949" lon="3.24917">
        <ele>900.89</ele>
        <time>2015-07-12T08:49:22Z</time>
      </trkpt>
      <trkpt lat="44.17952" lon="3.24945">
        <ele>901.37</ele>
        <time>2015-07-12T08:49:35Z</time>
      </trkpt>
      <trkpt lat="44.17945" lon="3.24978">
        <ele>900.41</ele>
        <time>2015-07-12T08:49:47Z</time>
      </trkpt>
      <trkpt lat="44.17939" lon="3.25015">
        <ele>900.89</ele>
        <time>2015-07-12T08:49:58Z</time>
      </trkpt>
      <trkpt lat="44.17938" lon="3.25038">
        <ele>901.37</ele>
        <time>2015-07-12T08:50:05Z</time>
      </trkpt>
      <trkpt lat="44.17934" lon="3.25083">
        <ele>902.33</ele>
        <time>2015-07-12T08:50:18Z</time>
      </trkpt>
      <trkpt lat="44.17929" lon="3.25133">
        <ele>902.33</ele>
        <time>2015-07-12T08:50:32Z</time>
      </trkpt>
      <trkpt lat="44.17926" lon="3.2518">
        <ele>903.3</ele>
        <time>2015-07-12T08:50:46Z</time>
      </trkpt>
      <trkpt lat="44.17915" lon="3.25237">
        <ele>902.82</ele>
        <time>2015-07-12T08:51:01Z</time>
      </trkpt>
      <trkpt lat="44.17914" lon="3.25308">
        <ele>902.82</ele>
        <time>2015-07-12T08:51:16Z</time>
      </trkpt>
      <trkpt lat="44.17913" lon="3.25332">
        <ele>902.33</ele>
        <time>2015-07-12T08:51:20Z</time>
      </trkpt>
      <trkpt lat="44.17913" lon="3.25351">
        <ele>901.37</ele>
        <time>2015-07-12T08:51:23Z</time>
      </trkpt>
      <trkpt lat="44.17925" lon="3.2541">
        <ele>902.33</ele>
        <time>2015-07-12T08:51:35Z</time>
      </trkpt>
      <trkpt lat="44.17939" lon="3.25457">
        <ele>904.26</ele>
        <time>2015-07-12T08:51:48Z</time>
      </trkpt>
      <trkpt lat="44.17959" lon="3.25491">
        <ele>905.22</ele>
        <time>2015-07-12T08:52:02Z</time>
      </trkpt>
      <trkpt lat="44.17974" lon="3.25508">
        <ele>907.14</ele>
        <time>2015-07-12T08:52:13Z</time>
      </trkpt>
      <trkpt lat="44.17987" lon="3.25526">
        <ele>907.62</ele>
        <time>2015-07-12T08:52:23Z</time>
      </trkpt>
      <trkpt lat="44.1799" lon="3.25531">
        <ele>908.1</ele>
        <time>2015-07-12T08:52:26Z</time>
      </trkpt>
      <trkpt lat="44.17997" lon="3.25543">
        <ele>908.58</ele>
        <time>2015-07-12T08:52:32Z</time>
      </trkpt>
      <trkpt lat="44.18013" lon="3.25567">
        <ele>909.06</ele>
        <time>2015-07-12T08:52:47Z</time>
      </trkpt>
      <trkpt lat="44.18014" lon="3.25568">
        <ele>909.06</ele>
        <time>2015-07-12T08:52:48Z</time>
      </trkpt>
      <trkpt lat="44.18016" lon="3.25579">
        <ele>908.1</ele>
        <time>2015-07-12T08:52:54Z</time>
      </trkpt>
      <trkpt lat="44.18025" lon="3.25608">
        <ele>906.66</ele>
        <time>2015-07-12T08:53:02Z</time>
      </trkpt>
      <trkpt lat="44.18028" lon="3.2563">
        <ele>906.18</ele>
        <time>2015-07-12T08:53:06Z</time>
      </trkpt>
      <trkpt lat="44.18037" lon="3.25669">
        <ele>905.7</ele>
        <time>2015-07-12T08:53:14Z</time>
      </trkpt>
      <trkpt lat="44.18057" lon="3.257">
        <ele>904.74</ele>
        <time>2015-07-12T08:53:20Z</time>
      </trkpt>
      <trkpt lat="44.1807" lon="3.25742">
        <ele>905.7</ele>
        <time>2015-07-12T08:53:27Z</time>
      </trkpt>
      <trkpt lat="44.18062" lon="3.25769">
        <ele>905.22</ele>
        <time>2015-07-12T08:53:33Z</time>
      </trkpt>
      <trkpt lat="44.18056" lon="3.25775">
        <ele>905.22</ele>
        <time>2015-07-12T08:53:35Z</time>
      </trkpt>
      <trkpt lat="44.18044" lon="3.25784">
        <ele>905.22</ele>
        <time>2015-07-12T08:53:38Z</time>
      </trkpt>
      <trkpt lat="44.18036" lon="3.25792">
        <ele>905.22</ele>
        <time>2015-07-12T08:53:40Z</time>
      </trkpt>
      <trkpt lat="44.18027" lon="3.25818">
        <ele>905.7</ele>
        <time>2015-07-12T08:53:44Z</time>
      </trkpt>
      <trkpt lat="44.18025" lon="3.25856">
        <ele>906.18</ele>
        <time>2015-07-12T08:53:50Z</time>
      </trkpt>
      <trkpt lat="44.18023" lon="3.2588">
        <ele>906.66</ele>
        <time>2015-07-12T08:53:54Z</time>
      </trkpt>
      <trkpt lat="44.18015" lon="3.25908">
        <ele>906.66</ele>
        <time>2015-07-12T08:53:59Z</time>
      </trkpt>
      <trkpt lat="44.18008" lon="3.25917">
        <ele>906.66</ele>
        <time>2015-07-12T08:54:01Z</time>
      </trkpt>
      <trkpt lat="44.17988" lon="3.25941">
        <ele>906.18</ele>
        <time>2015-07-12T08:54:07Z</time>
      </trkpt>
      <trkpt lat="44.17981" lon="3.25962">
        <ele>905.7</ele>
        <time>2015-07-12T08:54:11Z</time>
      </trkpt>
      <trkpt lat="44.17984" lon="3.26011">
        <ele>907.62</ele>
        <time>2015-07-12T08:54:22Z</time>
      </trkpt>
      <trkpt lat="44.18005" lon="3.26057">
        <ele>909.06</ele>
        <time>2015-07-12T08:54:33Z</time>
      </trkpt>
      <trkpt lat="44.18024" lon="3.26096">
        <ele>909.54</ele>
        <time>2015-07-12T08:54:45Z</time>
      </trkpt>
      <trkpt lat="44.18038" lon="3.26132">
        <ele>911.47</ele>
        <time>2015-07-12T08:54:56Z</time>
      </trkpt>
      <trkpt lat="44.18051" lon="3.26165">
        <ele>910.99</ele>
        <time>2015-07-12T08:55:05Z</time>
      </trkpt>
      <trkpt lat="44.18066" lon="3.26171">
        <ele>911.47</ele>
        <time>2015-07-12T08:55:12Z</time>
      </trkpt>
      <trkpt lat="44.18108" lon="3.2617">
        <ele>912.43</ele>
        <time>2015-07-12T08:55:25Z</time>
      </trkpt>
      <trkpt lat="44.18147" lon="3.26171">
        <ele>912.91</ele>
        <time>2015-07-12T08:55:36Z</time>
      </trkpt>
      <trkpt lat="44.18191" lon="3.2618">
        <ele>911.95</ele>
        <time>2015-07-12T08:55:46Z</time>
      </trkpt>
      <trkpt lat="44.18199" lon="3.26188">
        <ele>911.95</ele>
        <time>2015-07-12T08:55:49Z</time>
      </trkpt>
      <trkpt lat="44.18203" lon="3.26209">
        <ele>912.43</ele>
        <time>2015-07-12T08:55:55Z</time>
      </trkpt>
      <trkpt lat="44.18203" lon="3.26235">
        <ele>911.95</ele>
        <time>2015-07-12T08:56:00Z</time>
      </trkpt>
      <trkpt lat="44.18202" lon="3.26247">
        <ele>912.43</ele>
        <time>2015-07-12T08:56:02Z</time>
      </trkpt>
      <trkpt lat="44.18207" lon="3.26312">
        <ele>912.91</ele>
        <time>2015-07-12T08:56:14Z</time>
      </trkpt>
      <trkpt lat="44.18217" lon="3.2634">
        <ele>914.83</ele>
        <time>2015-07-12T08:56:24Z</time>
      </trkpt>
      <trkpt lat="44.18227" lon="3.26367">
        <ele>915.31</ele>
        <time>2015-07-12T08:56:33Z</time>
      </trkpt>
      <trkpt lat="44.18234" lon="3.26383">
        <ele>916.27</ele>
        <time>2015-07-12T08:56:39Z</time>
      </trkpt>
      <trkpt lat="44.18234" lon="3.26389">
        <ele>916.27</ele>
        <time>2015-07-12T08:56:41Z</time>
      </trkpt>
      <trkpt lat="44.18236" lon="3.26398">
        <ele>916.27</ele>
        <time>2015-07-12T08:56:45Z</time>
      </trkpt>
      <trkpt lat="44.18239" lon="3.26415">
        <ele>916.27</ele>
        <time>2015-07-12T08:56:51Z</time>
      </trkpt>
      <trkpt lat="44.18253" lon="3.2646">
        <ele>914.35</ele>
        <time>2015-07-12T08:57:02Z</time>
      </trkpt>
      <trkpt lat="44.18263" lon="3.26473">
        <ele>913.39</ele>
        <time>2015-07-12T08:57:06Z</time>
      </trkpt>
      <trkpt lat="44.18294" lon="3.26518">
        <ele>911.47</ele>
        <time>2015-07-12T08:57:18Z</time>
      </trkpt>
      <trkpt lat="44.18304" lon="3.26563">
        <ele>910.03</ele>
        <time>2015-07-12T08:57:28Z</time>
      </trkpt>
      <trkpt lat="44.18311" lon="3.26607">
        <ele>910.51</ele>
        <time>2015-07-12T08:57:38Z</time>
      </trkpt>
      <trkpt lat="44.18313" lon="3.26624">
        <ele>910.99</ele>
        <time>2015-07-12T08:57:42Z</time>
      </trkpt>
      <trkpt lat="44.18309" lon="3.2665">
        <ele>910.03</ele>
        <time>2015-07-12T08:57:47Z</time>
      </trkpt>
      <trkpt lat="44.18306" lon="3.26675">
        <ele>909.06</ele>
        <time>2015-07-12T08:57:51Z</time>
      </trkpt>
      <trkpt lat="44.18312" lon="3.26721">
        <ele>909.06</ele>
        <time>2015-07-12T08:57:58Z</time>
      </trkpt>
      <trkpt lat="44.18319" lon="3.26744">
        <ele>908.58</ele>
        <time>2015-07-12T08:58:02Z</time>
      </trkpt>
      <trkpt lat="44.18325" lon="3.26769">
        <ele>908.1</ele>
        <time>2015-07-12T08:58:06Z</time>
      </trkpt>
      <trkpt lat="44.18339" lon="3.2683">
        <ele>906.66</ele>
        <time>2015-07-12T08:58:18Z</time>
      </trkpt>
      <trkpt lat="44.1834" lon="3.26835">
        <ele>906.18</ele>
        <time>2015-07-12T08:58:19Z</time>
      </trkpt>
      <trkpt lat="44.18348" lon="3.26851">
        <ele>905.7</ele>
        <time>2015-07-12T08:58:22Z</time>
      </trkpt>
      <trkpt lat="44.18353" lon="3.26862">
        <ele>905.7</ele>
        <time>2015-07-12T08:58:24Z</time>
      </trkpt>
      <trkpt lat="44.18361" lon="3.2687">
        <ele>904.26</ele>
        <time>2015-07-12T08:58:26Z</time>
      </trkpt>
      <trkpt lat="44.18377" lon="3.26883">
        <ele>903.3</ele>
        <time>2015-07-12T08:58:30Z</time>
      </trkpt>
      <trkpt lat="44.18402" lon="3.26895">
        <ele>901.85</ele>
        <time>2015-07-12T08:58:36Z</time>
      </trkpt>
      <trkpt lat="44.18432" lon="3.26914">
        <ele>900.41</ele>
        <time>2015-07-12T08:58:44Z</time>
      </trkpt>
      <trkpt lat="44.1845" lon="3.2692">
        <ele>898.97</ele>
        <time>2015-07-12T08:58:48Z</time>
      </trkpt>
      <trkpt lat="44.1847" lon="3.26931">
        <ele>897.05</ele>
        <time>2015-07-12T08:58:52Z</time>
      </trkpt>
      <trkpt lat="44.18485" lon="3.26958">
        <ele>896.09</ele>
        <time>2015-07-12T08:58:58Z</time>
      </trkpt>
      <trkpt lat="44.18486" lon="3.26969">
        <ele>896.09</ele>
        <time>2015-07-12T08:59:00Z</time>
      </trkpt>
      <trkpt lat="44.18489" lon="3.26981">
        <ele>895.12</ele>
        <time>2015-07-12T08:59:02Z</time>
      </trkpt>
      <trkpt lat="44.18491" lon="3.27031">
        <ele>892.24</ele>
        <time>2015-07-12T08:59:09Z</time>
      </trkpt>
      <trkpt lat="44.18483" lon="3.27101">
        <ele>889.36</ele>
        <time>2015-07-12T08:59:17Z</time>
      </trkpt>
      <trkpt lat="44.18472" lon="3.27227">
        <ele>886.95</ele>
        <time>2015-07-12T08:59:32Z</time>
      </trkpt>
      <trkpt lat="44.18468" lon="3.27271">
        <ele>885.99</ele>
        <time>2015-07-12T08:59:38Z</time>
      </trkpt>
      <trkpt lat="44.18463" lon="3.27329">
        <ele>886.47</ele>
        <time>2015-07-12T08:59:50Z</time>
      </trkpt>
      <trkpt lat="44.18475" lon="3.27351">
        <ele>887.43</ele>
        <time>2015-07-12T08:59:56Z</time>
      </trkpt>
      <trkpt lat="44.18484" lon="3.27374">
        <ele>886.95</ele>
        <time>2015-07-12T09:00:00Z</time>
      </trkpt>
      <trkpt lat="44.18498" lon="3.27399">
        <ele>887.91</ele>
        <time>2015-07-12T09:00:05Z</time>
      </trkpt>
      <trkpt lat="44.18504" lon="3.27429">
        <ele>888.88</ele>
        <time>2015-07-12T09:00:10Z</time>
      </trkpt>
      <trkpt lat="44.18519" lon="3.27454">
        <ele>888.4</ele>
        <time>2015-07-12T09:00:14Z</time>
      </trkpt>
      <trkpt lat="44.18535" lon="3.27502">
        <ele>887.91</ele>
        <time>2015-07-12T09:00:22Z</time>
      </trkpt>
      <trkpt lat="44.18533" lon="3.27524">
        <ele>887.43</ele>
        <time>2015-07-12T09:00:25Z</time>
      </trkpt>
      <trkpt lat="44.18531" lon="3.27564">
        <ele>887.43</ele>
        <time>2015-07-12T09:00:30Z</time>
      </trkpt>
      <trkpt lat="44.18523" lon="3.27597">
        <ele>886.47</ele>
        <time>2015-07-12T09:00:35Z</time>
      </trkpt>
      <trkpt lat="44.18504" lon="3.27663">
        <ele>883.11</ele>
        <time>2015-07-12T09:00:44Z</time>
      </trkpt>
      <trkpt lat="44.185" lon="3.27679">
        <ele>882.63</ele>
        <time>2015-07-12T09:00:46Z</time>
      </trkpt>
      <trkpt lat="44.18494" lon="3.2771">
        <ele>881.67</ele>
        <time>2015-07-12T09:00:50Z</time>
      </trkpt>
      <trkpt lat="44.18506" lon="3.27749">
        <ele>880.22</ele>
        <time>2015-07-12T09:01:00Z</time>
      </trkpt>
      <trkpt lat="44.18527" lon="3.27768">
        <ele>879.26</ele>
        <time>2015-07-12T09:01:06Z</time>
      </trkpt>
      <trkpt lat="44.18548" lon="3.27781">
        <ele>880.22</ele>
        <time>2015-07-12T09:01:11Z</time>
      </trkpt>
      <trkpt lat="44.18563" lon="3.27797">
        <ele>880.71</ele>
        <time>2015-07-12T09:01:15Z</time>
      </trkpt>
      <trkpt lat="44.18582" lon="3.2784">
        <ele>882.15</ele>
        <time>2015-07-12T09:01:23Z</time>
      </trkpt>
      <trkpt lat="44.1859" lon="3.27863">
        <ele>882.15</ele>
        <time>2015-07-12T09:01:27Z</time>
      </trkpt>
      <trkpt lat="44.18614" lon="3.27891">
        <ele>881.67</ele>
        <time>2015-07-12T09:01:34Z</time>
      </trkpt>
      <trkpt lat="44.18622" lon="3.27898">
        <ele>881.67</ele>
        <time>2015-07-12T09:01:36Z</time>
      </trkpt>
      <trkpt lat="44.18633" lon="3.2791">
        <ele>881.19</ele>
        <time>2015-07-12T09:01:39Z</time>
      </trkpt>
      <trkpt lat="44.1865" lon="3.27918">
        <ele>879.74</ele>
        <time>2015-07-12T09:01:43Z</time>
      </trkpt>
      <trkpt lat="44.18669" lon="3.27923">
        <ele>880.22</ele>
        <time>2015-07-12T09:01:47Z</time>
      </trkpt>
      <trkpt lat="44.18683" lon="3.27931">
        <ele>879.26</ele>
        <time>2015-07-12T09:01:50Z</time>
      </trkpt>
      <trkpt lat="44.18725" lon="3.27941">
        <ele>878.78</ele>
        <time>2015-07-12T09:02:00Z</time>
      </trkpt>
      <trkpt lat="44.1874" lon="3.2795">
        <ele>878.3</ele>
        <time>2015-07-12T09:02:04Z</time>
      </trkpt>
      <trkpt lat="44.18756" lon="3.27957">
        <ele>878.3</ele>
        <time>2015-07-12T09:02:08Z</time>
      </trkpt>
      <trkpt lat="44.18765" lon="3.27957">
        <ele>878.3</ele>
        <time>2015-07-12T09:02:10Z</time>
      </trkpt>
      <trkpt lat="44.18783" lon="3.2796">
        <ele>877.82</ele>
        <time>2015-07-12T09:02:14Z</time>
      </trkpt>
      <trkpt lat="44.18792" lon="3.27962">
        <ele>876.38</ele>
        <time>2015-07-12T09:02:16Z</time>
      </trkpt>
      <trkpt lat="44.18801" lon="3.27964">
        <ele>875.9</ele>
        <time>2015-07-12T09:02:18Z</time>
      </trkpt>
      <trkpt lat="44.18831" lon="3.27989">
        <ele>875.9</ele>
        <time>2015-07-12T09:02:27Z</time>
      </trkpt>
      <trkpt lat="44.18862" lon="3.2799">
        <ele>874.94</ele>
        <time>2015-07-12T09:02:37Z</time>
      </trkpt>
      <trkpt lat="44.18897" lon="3.27994">
        <ele>872.05</ele>
        <time>2015-07-12T09:02:48Z</time>
      </trkpt>
      <trkpt lat="44.18913" lon="3.27995">
        <ele>870.61</ele>
        <time>2015-07-12T09:02:53Z</time>
      </trkpt>
      <trkpt lat="44.18939" lon="3.27985">
        <ele>869.17</ele>
        <time>2015-07-12T09:03:03Z</time>
      </trkpt>
      <trkpt lat="44.18951" lon="3.27982">
        <ele>868.21</ele>
        <time>2015-07-12T09:03:09Z</time>
      </trkpt>
      <trkpt lat="44.1898" lon="3.27981">
        <ele>865.8</ele>
        <time>2015-07-12T09:03:20Z</time>
      </trkpt>
      <trkpt lat="44.19019" lon="3.27984">
        <ele>863.4</ele>
        <time>2015-07-12T09:03:32Z</time>
      </trkpt>
      <trkpt lat="44.1905" lon="3.27977">
        <ele>861</ele>
        <time>2015-07-12T09:03:41Z</time>
      </trkpt>
      <trkpt lat="44.1906" lon="3.27981">
        <ele>861</ele>
        <time>2015-07-12T09:03:47Z</time>
      </trkpt>
      <trkpt lat="44.19078" lon="3.27985">
        <ele>860.52</ele>
        <time>2015-07-12T09:04:00Z</time>
      </trkpt>
      <trkpt lat="44.19081" lon="3.27988">
        <ele>860.52</ele>
        <time>2015-07-12T09:04:03Z</time>
      </trkpt>
      <trkpt lat="44.19115" lon="3.27984">
        <ele>859.08</ele>
        <time>2015-07-12T09:04:17Z</time>
      </trkpt>
      <trkpt lat="44.1912" lon="3.27983">
        <ele>859.56</ele>
        <time>2015-07-12T09:04:27Z</time>
      </trkpt>
      <trkpt lat="44.19121" lon="3.27982">
        <ele>859.08</ele>
        <time>2015-07-12T09:04:42Z</time>
      </trkpt>
      <trkpt lat="44.1912" lon="3.27981">
        <ele>860.04</ele>
        <time>2015-07-12T09:05:25Z</time>
      </trkpt>
      <trkpt lat="44.1912" lon="3.27981">
        <ele>859.56</ele>
        <time>2015-07-12T09:06:05Z</time>
      </trkpt>
      <trkpt lat="44.1912" lon="3.27981">
        <ele>859.08</ele>
        <time>2015-07-12T09:06:40Z</time>
      </trkpt>
      <trkpt lat="44.19121" lon="3.27981">
        <ele>859.08</ele>
        <time>2015-07-12T09:07:09Z</time>
      </trkpt>
      <trkpt lat="44.19121" lon="3.27981">
        <ele>859.56</ele>
        <time>2015-07-12T09:07:18Z</time>
      </trkpt>
      <trkpt lat="44.19133" lon="3.27985">
        <ele>859.08</ele>
        <time>2015-07-12T09:07:25Z</time>
      </trkpt>
      <trkpt lat="44.19136" lon="3.27987">
        <ele>859.56</ele>
        <time>2015-07-12T09:07:27Z</time>
      </trkpt>
      <trkpt lat="44.19157" lon="3.28">
        <ele>858.59</ele>
        <time>2015-07-12T09:07:40Z</time>
      </trkpt>
      <trkpt lat="44.19161" lon="3.28003">
        <ele>858.11</ele>
        <time>2015-07-12T09:07:44Z</time>
      </trkpt>
      <trkpt lat="44.19186" lon="3.27997">
        <ele>856.67</ele>
        <time>2015-07-12T09:07:57Z</time>
      </trkpt>
      <trkpt lat="44.19189" lon="3.27997">
        <ele>856.19</ele>
        <time>2015-07-12T09:07:58Z</time>
      </trkpt>
      <trkpt lat="44.19212" lon="3.27992">
        <ele>856.67</ele>
        <time>2015-07-12T09:08:08Z</time>
      </trkpt>
      <trkpt lat="44.1926" lon="3.27993">
        <ele>856.19</ele>
        <time>2015-07-12T09:08:25Z</time>
      </trkpt>
      <trkpt lat="44.19297" lon="3.28017">
        <ele>852.83</ele>
        <time>2015-07-12T09:08:37Z</time>
      </trkpt>
      <trkpt lat="44.19324" lon="3.28049">
        <ele>851.87</ele>
        <time>2015-07-12T09:08:49Z</time>
      </trkpt>
      <trkpt lat="44.19347" lon="3.2809">
        <ele>850.9</ele>
        <time>2015-07-12T09:09:02Z</time>
      </trkpt>
      <trkpt lat="44.19363" lon="3.28151">
        <ele>849.46</ele>
        <time>2015-07-12T09:09:16Z</time>
      </trkpt>
      <trkpt lat="44.19388" lon="3.28216">
        <ele>851.38</ele>
        <time>2015-07-12T09:09:30Z</time>
      </trkpt>
      <trkpt lat="44.19398" lon="3.28256">
        <ele>853.79</ele>
        <time>2015-07-12T09:09:41Z</time>
      </trkpt>
      <trkpt lat="44.19397" lon="3.28261">
        <ele>853.79</ele>
        <time>2015-07-12T09:09:44Z</time>
      </trkpt>
      <trkpt lat="44.194" lon="3.28267">
        <ele>854.27</ele>
        <time>2015-07-12T09:09:49Z</time>
      </trkpt>
      <trkpt lat="44.1942" lon="3.28262">
        <ele>853.31</ele>
        <time>2015-07-12T09:10:00Z</time>
      </trkpt>
      <trkpt lat="44.19419" lon="3.28261">
        <ele>853.79</ele>
        <time>2015-07-12T09:10:27Z</time>
      </trkpt>
      <trkpt lat="44.1942" lon="3.28261">
        <ele>853.79</ele>
        <time>2015-07-12T09:10:48Z</time>
      </trkpt>
      <trkpt lat="44.1942" lon="3.28261">
        <ele>853.79</ele>
        <time>2015-07-12T09:11:21Z</time>
      </trkpt>
      <trkpt lat="44.1942" lon="3.28261">
        <ele>853.79</ele>
        <time>2015-07-12T09:11:30Z</time>
      </trkpt>
      <trkpt lat="44.19409" lon="3.2826">
        <ele>853.79</ele>
        <time>2015-07-12T09:11:37Z</time>
      </trkpt>
      <trkpt lat="44.19395" lon="3.28264">
        <ele>854.75</ele>
        <time>2015-07-12T09:11:45Z</time>
      </trkpt>
      <trkpt lat="44.19391" lon="3.28272">
        <ele>854.75</ele>
        <time>2015-07-12T09:11:50Z</time>
      </trkpt>
      <trkpt lat="44.19371" lon="3.28295">
        <ele>854.75</ele>
        <time>2015-07-12T09:12:04Z</time>
      </trkpt>
      <trkpt lat="44.19355" lon="3.28336">
        <ele>855.23</ele>
        <time>2015-07-12T09:12:18Z</time>
      </trkpt>
      <trkpt lat="44.19343" lon="3.28394">
        <ele>855.71</ele>
        <time>2015-07-12T09:12:34Z</time>
      </trkpt>
      <trkpt lat="44.19331" lon="3.28442">
        <ele>854.27</ele>
        <time>2015-07-12T09:12:46Z</time>
      </trkpt>
      <trkpt lat="44.19321" lon="3.28464">
        <ele>852.35</ele>
        <time>2015-07-12T09:12:50Z</time>
      </trkpt>
      <trkpt lat="44.19311" lon="3.28495">
        <ele>850.42</ele>
        <time>2015-07-12T09:12:54Z</time>
      </trkpt>
      <trkpt lat="44.19296" lon="3.28577">
        <ele>850.42</ele>
        <time>2015-07-12T09:13:03Z</time>
      </trkpt>
      <trkpt lat="44.19283" lon="3.28607">
        <ele>849.46</ele>
        <time>2015-07-12T09:13:07Z</time>
      </trkpt>
      <trkpt lat="44.19229" lon="3.28714">
        <ele>849.46</ele>
        <time>2015-07-12T09:13:22Z</time>
      </trkpt>
      <trkpt lat="44.1922" lon="3.28737">
        <ele>850.9</ele>
        <time>2015-07-12T09:13:25Z</time>
      </trkpt>
      <trkpt lat="44.19215" lon="3.28746">
        <ele>851.87</ele>
        <time>2015-07-12T09:13:27Z</time>
      </trkpt>
      <trkpt lat="44.19214" lon="3.2875">
        <ele>852.35</ele>
        <time>2015-07-12T09:13:36Z</time>
      </trkpt>
      <trkpt lat="44.19215" lon="3.28747">
        <ele>852.35</ele>
        <time>2015-07-12T09:13:37Z</time>
      </trkpt>
      <trkpt lat="44.19213" lon="3.28741">
        <ele>852.35</ele>
        <time>2015-07-12T09:13:43Z</time>
      </trkpt>
      <trkpt lat="44.19206" lon="3.28743">
        <ele>852.35</ele>
        <time>2015-07-12T09:13:50Z</time>
      </trkpt>
      <trkpt lat="44.19197" lon="3.28751">
        <ele>853.31</ele>
        <time>2015-07-12T09:14:02Z</time>
      </trkpt>
      <trkpt lat="44.19196" lon="3.28752">
        <ele>852.83</ele>
        <time>2015-07-12T09:14:03Z</time>
      </trkpt>
      <trkpt lat="44.19187" lon="3.28762">
        <ele>853.79</ele>
        <time>2015-07-12T09:14:16Z</time>
      </trkpt>
      <trkpt lat="44.19178" lon="3.28775">
        <ele>853.79</ele>
        <time>2015-07-12T09:14:30Z</time>
      </trkpt>
      <trkpt lat="44.19175" lon="3.28781">
        <ele>854.27</ele>
        <time>2015-07-12T09:14:35Z</time>
      </trkpt>
      <trkpt lat="44.19168" lon="3.28792">
        <ele>854.75</ele>
        <time>2015-07-12T09:14:42Z</time>
      </trkpt>
      <trkpt lat="44.1916" lon="3.28794">
        <ele>854.75</ele>
        <time>2015-07-12T09:14:47Z</time>
      </trkpt>
      <trkpt lat="44.19157" lon="3.28793">
        <ele>854.75</ele>
        <time>2015-07-12T09:14:49Z</time>
      </trkpt>
      <trkpt lat="44.19149" lon="3.28789">
        <ele>854.27</ele>
        <time>2015-07-12T09:14:54Z</time>
      </trkpt>
      <trkpt lat="44.19126" lon="3.28788">
        <ele>853.79</ele>
        <time>2015-07-12T09:15:07Z</time>
      </trkpt>
      <trkpt lat="44.19094" lon="3.28801">
        <ele>853.31</ele>
        <time>2015-07-12T09:15:20Z</time>
      </trkpt>
      <trkpt lat="44.19056" lon="3.28825">
        <ele>851.87</ele>
        <time>2015-07-12T09:15:31Z</time>
      </trkpt>
      <trkpt lat="44.19052" lon="3.28826">
        <ele>852.35</ele>
        <time>2015-07-12T09:15:32Z</time>
      </trkpt>
      <trkpt lat="44.19036" lon="3.28838">
        <ele>850.9</ele>
        <time>2015-07-12T09:15:36Z</time>
      </trkpt>
      <trkpt lat="44.18995" lon="3.28878">
        <ele>850.42</ele>
        <time>2015-07-12T09:15:48Z</time>
      </trkpt>
      <trkpt lat="44.18973" lon="3.28909">
        <ele>850.9</ele>
        <time>2015-07-12T09:15:56Z</time>
      </trkpt>
      <trkpt lat="44.18951" lon="3.28934">
        <ele>852.35</ele>
        <time>2015-07-12T09:16:04Z</time>
      </trkpt>
      <trkpt lat="44.18926" lon="3.28986">
        <ele>851.87</ele>
        <time>2015-07-12T09:16:17Z</time>
      </trkpt>
      <trkpt lat="44.18886" lon="3.29019">
        <ele>852.35</ele>
        <time>2015-07-12T09:16:31Z</time>
      </trkpt>
      <trkpt lat="44.18883" lon="3.2902">
        <ele>852.35</ele>
        <time>2015-07-12T09:16:32Z</time>
      </trkpt>
      <trkpt lat="44.18844" lon="3.2905">
        <ele>852.35</ele>
        <time>2015-07-12T09:16:45Z</time>
      </trkpt>
      <trkpt lat="44.18793" lon="3.29066">
        <ele>852.83</ele>
        <time>2015-07-12T09:16:59Z</time>
      </trkpt>
      <trkpt lat="44.18752" lon="3.29075">
        <ele>853.79</ele>
        <time>2015-07-12T09:17:11Z</time>
      </trkpt>
      <trkpt lat="44.18724" lon="3.29066">
        <ele>854.27</ele>
        <time>2015-07-12T09:17:21Z</time>
      </trkpt>
      <trkpt lat="44.18717" lon="3.29065">
        <ele>854.75</ele>
        <time>2015-07-12T09:17:24Z</time>
      </trkpt>
      <trkpt lat="44.18683" lon="3.29044">
        <ele>854.27</ele>
        <time>2015-07-12T09:17:36Z</time>
      </trkpt>
      <trkpt lat="44.18674" lon="3.29036">
        <ele>855.23</ele>
        <time>2015-07-12T09:17:40Z</time>
      </trkpt>
      <trkpt lat="44.18659" lon="3.29029">
        <ele>856.19</ele>
        <time>2015-07-12T09:17:47Z</time>
      </trkpt>
      <trkpt lat="44.18634" lon="3.29017">
        <ele>858.11</ele>
        <time>2015-07-12T09:17:58Z</time>
      </trkpt>
      <trkpt lat="44.1861" lon="3.29021">
        <ele>859.08</ele>
        <time>2015-07-12T09:18:08Z</time>
      </trkpt>
      <trkpt lat="44.18599" lon="3.29023">
        <ele>860.04</ele>
        <time>2015-07-12T09:18:18Z</time>
      </trkpt>
      <trkpt lat="44.18593" lon="3.29025">
        <ele>860.04</ele>
        <time>2015-07-12T09:18:33Z</time>
      </trkpt>
      <trkpt lat="44.18571" lon="3.29028">
        <ele>861</ele>
        <time>2015-07-12T09:18:44Z</time>
      </trkpt>
      <trkpt lat="44.18547" lon="3.29032">
        <ele>861.96</ele>
        <time>2015-07-12T09:18:57Z</time>
      </trkpt>
      <trkpt lat="44.18531" lon="3.29031">
        <ele>863.4</ele>
        <time>2015-07-12T09:19:08Z</time>
      </trkpt>
      <trkpt lat="44.18516" lon="3.29028">
        <ele>863.88</ele>
        <time>2015-07-12T09:19:15Z</time>
      </trkpt>
      <trkpt lat="44.18495" lon="3.29032">
        <ele>863.4</ele>
        <time>2015-07-12T09:19:26Z</time>
      </trkpt>
      <trkpt lat="44.18483" lon="3.29031">
        <ele>863.88</ele>
        <time>2015-07-12T09:19:32Z</time>
      </trkpt>
      <trkpt lat="44.18452" lon="3.29054">
        <ele>862.92</ele>
        <time>2015-07-12T09:19:45Z</time>
      </trkpt>
      <trkpt lat="44.18435" lon="3.29059">
        <ele>861.96</ele>
        <time>2015-07-12T09:19:50Z</time>
      </trkpt>
      <trkpt lat="44.18434" lon="3.29069">
        <ele>861.96</ele>
        <time>2015-07-12T09:19:54Z</time>
      </trkpt>
      <trkpt lat="44.18432" lon="3.2908">
        <ele>861.96</ele>
        <time>2015-07-12T09:19:59Z</time>
      </trkpt>
      <trkpt lat="44.1843" lon="3.29092">
        <ele>861</ele>
        <time>2015-07-12T09:20:02Z</time>
      </trkpt>
      <trkpt lat="44.18439" lon="3.29177">
        <ele>860.04</ele>
        <time>2015-07-12T09:20:17Z</time>
      </trkpt>
      <trkpt lat="44.1845" lon="3.29243">
        <ele>861.48</ele>
        <time>2015-07-12T09:20:31Z</time>
      </trkpt>
      <trkpt lat="44.18459" lon="3.29298">
        <ele>863.4</ele>
        <time>2015-07-12T09:20:47Z</time>
      </trkpt>
      <trkpt lat="44.18464" lon="3.29344">
        <ele>865.8</ele>
        <time>2015-07-12T09:21:02Z</time>
      </trkpt>
      <trkpt lat="44.18472" lon="3.29387">
        <ele>868.21</ele>
        <time>2015-07-12T09:21:15Z</time>
      </trkpt>
      <trkpt lat="44.18479" lon="3.29408">
        <ele>869.17</ele>
        <time>2015-07-12T09:21:23Z</time>
      </trkpt>
      <trkpt lat="44.18483" lon="3.29415">
        <ele>870.13</ele>
        <time>2015-07-12T09:21:27Z</time>
      </trkpt>
      <trkpt lat="44.18499" lon="3.29436">
        <ele>871.57</ele>
        <time>2015-07-12T09:21:42Z</time>
      </trkpt>
      <trkpt lat="44.18517" lon="3.29453">
        <ele>872.53</ele>
        <time>2015-07-12T09:21:56Z</time>
      </trkpt>
      <trkpt lat="44.18537" lon="3.29475">
        <ele>874.94</ele>
        <time>2015-07-12T09:22:13Z</time>
      </trkpt>
      <trkpt lat="44.18548" lon="3.29502">
        <ele>875.9</ele>
        <time>2015-07-12T09:22:27Z</time>
      </trkpt>
      <trkpt lat="44.18552" lon="3.29548">
        <ele>877.82</ele>
        <time>2015-07-12T09:22:44Z</time>
      </trkpt>
      <trkpt lat="44.18542" lon="3.296">
        <ele>877.82</ele>
        <time>2015-07-12T09:22:59Z</time>
      </trkpt>
      <trkpt lat="44.18533" lon="3.29662">
        <ele>877.82</ele>
        <time>2015-07-12T09:23:14Z</time>
      </trkpt>
      <trkpt lat="44.18518" lon="3.29744">
        <ele>879.26</ele>
        <time>2015-07-12T09:23:27Z</time>
      </trkpt>
      <trkpt lat="44.18507" lon="3.29811">
        <ele>880.71</ele>
        <time>2015-07-12T09:23:40Z</time>
      </trkpt>
      <trkpt lat="44.18505" lon="3.29824">
        <ele>880.71</ele>
        <time>2015-07-12T09:23:43Z</time>
      </trkpt>
      <trkpt lat="44.18514" lon="3.29839">
        <ele>880.71</ele>
        <time>2015-07-12T09:23:54Z</time>
      </trkpt>
      <trkpt lat="44.18521" lon="3.29845">
        <ele>880.71</ele>
        <time>2015-07-12T09:24:00Z</time>
      </trkpt>
      <trkpt lat="44.18526" lon="3.29842">
        <ele>881.67</ele>
        <time>2015-07-12T09:24:04Z</time>
      </trkpt>
      <trkpt lat="44.18515" lon="3.29834">
        <ele>880.22</ele>
        <time>2015-07-12T09:24:13Z</time>
      </trkpt>
      <trkpt lat="44.18504" lon="3.29822">
        <ele>878.78</ele>
        <time>2015-07-12T09:24:16Z</time>
      </trkpt>
      <trkpt lat="44.18479" lon="3.29772">
        <ele>875.9</ele>
        <time>2015-07-12T09:24:23Z</time>
      </trkpt>
      <trkpt lat="44.18464" lon="3.29744">
        <ele>874.94</ele>
        <time>2015-07-12T09:24:27Z</time>
      </trkpt>
      <trkpt lat="44.18451" lon="3.29725">
        <ele>873.5</ele>
        <time>2015-07-12T09:24:30Z</time>
      </trkpt>
      <trkpt lat="44.18424" lon="3.29705">
        <ele>873.01</ele>
        <time>2015-07-12T09:24:36Z</time>
      </trkpt>
      <trkpt lat="44.18395" lon="3.29688">
        <ele>867.73</ele>
        <time>2015-07-12T09:24:41Z</time>
      </trkpt>
      <trkpt lat="44.18363" lon="3.29665">
        <ele>864.36</ele>
        <time>2015-07-12T09:24:46Z</time>
      </trkpt>
      <trkpt lat="44.18339" lon="3.29641">
        <ele>863.88</ele>
        <time>2015-07-12T09:24:54Z</time>
      </trkpt>
      <trkpt lat="44.18327" lon="3.2963">
        <ele>862.44</ele>
        <time>2015-07-12T09:25:06Z</time>
      </trkpt>
      <trkpt lat="44.18306" lon="3.29597">
        <ele>860.04</ele>
        <time>2015-07-12T09:25:16Z</time>
      </trkpt>
      <trkpt lat="44.183" lon="3.29586">
        <ele>859.56</ele>
        <time>2015-07-12T09:25:18Z</time>
      </trkpt>
      <trkpt lat="44.18285" lon="3.29557">
        <ele>858.11</ele>
        <time>2015-07-12T09:25:23Z</time>
      </trkpt>
      <trkpt lat="44.18251" lon="3.29507">
        <ele>856.67</ele>
        <time>2015-07-12T09:25:32Z</time>
      </trkpt>
      <trkpt lat="44.18244" lon="3.29492">
        <ele>857.15</ele>
        <time>2015-07-12T09:25:36Z</time>
      </trkpt>
      <trkpt lat="44.18239" lon="3.29485">
        <ele>857.15</ele>
        <time>2015-07-12T09:25:47Z</time>
      </trkpt>
      <trkpt lat="44.18226" lon="3.29464">
        <ele>856.19</ele>
        <time>2015-07-12T09:25:59Z</time>
      </trkpt>
      <trkpt lat="44.18207" lon="3.29398">
        <ele>855.71</ele>
        <time>2015-07-12T09:26:15Z</time>
      </trkpt>
      <trkpt lat="44.182" lon="3.29352">
        <ele>856.19</ele>
        <time>2015-07-12T09:26:27Z</time>
      </trkpt>
      <trkpt lat="44.18199" lon="3.2935">
        <ele>856.67</ele>
        <time>2015-07-12T09:26:28Z</time>
      </trkpt>
      <trkpt lat="44.18206" lon="3.2933">
        <ele>857.63</ele>
        <time>2015-07-12T09:26:35Z</time>
      </trkpt>
      <trkpt lat="44.18204" lon="3.29295">
        <ele>858.11</ele>
        <time>2015-07-12T09:26:48Z</time>
      </trkpt>
      <trkpt lat="44.18188" lon="3.29253">
        <ele>859.56</ele>
        <time>2015-07-12T09:27:02Z</time>
      </trkpt>
      <trkpt lat="44.18169" lon="3.29216">
        <ele>861.96</ele>
        <time>2015-07-12T09:27:17Z</time>
      </trkpt>
      <trkpt lat="44.18166" lon="3.29182">
        <ele>863.4</ele>
        <time>2015-07-12T09:27:30Z</time>
      </trkpt>
      <trkpt lat="44.18161" lon="3.29139">
        <ele>865.32</ele>
        <time>2015-07-12T09:27:46Z</time>
      </trkpt>
      <trkpt lat="44.18161" lon="3.29137">
        <ele>865.32</ele>
        <time>2015-07-12T09:27:47Z</time>
      </trkpt>
      <trkpt lat="44.18157" lon="3.29125">
        <ele>865.8</ele>
        <time>2015-07-12T09:27:53Z</time>
      </trkpt>
      <trkpt lat="44.18153" lon="3.29115">
        <ele>866.77</ele>
        <time>2015-07-12T09:27:58Z</time>
      </trkpt>
      <trkpt lat="44.18146" lon="3.29105">
        <ele>868.21</ele>
        <time>2015-07-12T09:28:05Z</time>
      </trkpt>
      <trkpt lat="44.1814" lon="3.29102">
        <ele>868.69</ele>
        <time>2015-07-12T09:28:15Z</time>
      </trkpt>
      <trkpt lat="44.18139" lon="3.29101">
        <ele>869.17</ele>
        <time>2015-07-12T09:28:28Z</time>
      </trkpt>
      <trkpt lat="44.18136" lon="3.29102">
        <ele>869.17</ele>
        <time>2015-07-12T09:28:43Z</time>
      </trkpt>
      <trkpt lat="44.18126" lon="3.29098">
        <ele>869.17</ele>
        <time>2015-07-12T09:29:00Z</time>
      </trkpt>
      <trkpt lat="44.18121" lon="3.29096">
        <ele>869.65</ele>
        <time>2015-07-12T09:29:12Z</time>
      </trkpt>
      <trkpt lat="44.18116" lon="3.29093">
        <ele>869.65</ele>
        <time>2015-07-12T09:29:29Z</time>
      </trkpt>
      <trkpt lat="44.18098" lon="3.29077">
        <ele>870.13</ele>
        <time>2015-07-12T09:29:43Z</time>
      </trkpt>
      <trkpt lat="44.18094" lon="3.29072">
        <ele>870.61</ele>
        <time>2015-07-12T09:29:47Z</time>
      </trkpt>
      <trkpt lat="44.18078" lon="3.29058">
        <ele>871.57</ele>
        <time>2015-07-12T09:30:00Z</time>
      </trkpt>
      <trkpt lat="44.18068" lon="3.29046">
        <ele>872.05</ele>
        <time>2015-07-12T09:30:14Z</time>
      </trkpt>
      <trkpt lat="44.18062" lon="3.29039">
        <ele>871.57</ele>
        <time>2015-07-12T09:30:25Z</time>
      </trkpt>
      <trkpt lat="44.1806" lon="3.29037">
        <ele>872.05</ele>
        <time>2015-07-12T09:30:29Z</time>
      </trkpt>
      <trkpt lat="44.18047" lon="3.29017">
        <ele>870.13</ele>
        <time>2015-07-12T09:30:42Z</time>
      </trkpt>
      <trkpt lat="44.18025" lon="3.28996">
        <ele>868.69</ele>
        <time>2015-07-12T09:30:52Z</time>
      </trkpt>
      <trkpt lat="44.18001" lon="3.28993">
        <ele>868.21</ele>
        <time>2015-07-12T09:31:03Z</time>
      </trkpt>
      <trkpt lat="44.17996" lon="3.28995">
        <ele>867.73</ele>
        <time>2015-07-12T09:31:22Z</time>
      </trkpt>
      <trkpt lat="44.1797" lon="3.2899">
        <ele>866.77</ele>
        <time>2015-07-12T09:31:33Z</time>
      </trkpt>
      <trkpt lat="44.17946" lon="3.28983">
        <ele>867.73</ele>
        <time>2015-07-12T09:31:43Z</time>
      </trkpt>
      <trkpt lat="44.17922" lon="3.2898">
        <ele>868.69</ele>
        <time>2015-07-12T09:31:53Z</time>
      </trkpt>
      <trkpt lat="44.17898" lon="3.28974">
        <ele>870.13</ele>
        <time>2015-07-12T09:32:05Z</time>
      </trkpt>
      <trkpt lat="44.17864" lon="3.28971">
        <ele>869.65</ele>
        <time>2015-07-12T09:32:17Z</time>
      </trkpt>
      <trkpt lat="44.17842" lon="3.2897">
        <ele>869.65</ele>
        <time>2015-07-12T09:32:25Z</time>
      </trkpt>
      <trkpt lat="44.1783" lon="3.28969">
        <ele>870.13</ele>
        <time>2015-07-12T09:32:29Z</time>
      </trkpt>
      <trkpt lat="44.17804" lon="3.28971">
        <ele>871.09</ele>
        <time>2015-07-12T09:32:39Z</time>
      </trkpt>
      <trkpt lat="44.17775" lon="3.28972">
        <ele>873.5</ele>
        <time>2015-07-12T09:32:51Z</time>
      </trkpt>
      <trkpt lat="44.17751" lon="3.28967">
        <ele>873.5</ele>
        <time>2015-07-12T09:33:02Z</time>
      </trkpt>
      <trkpt lat="44.17719" lon="3.28955">
        <ele>873.5</ele>
        <time>2015-07-12T09:33:15Z</time>
      </trkpt>
      <trkpt lat="44.17682" lon="3.28927">
        <ele>873.01</ele>
        <time>2015-07-12T09:33:28Z</time>
      </trkpt>
      <trkpt lat="44.17655" lon="3.28897">
        <ele>872.05</ele>
        <time>2015-07-12T09:33:39Z</time>
      </trkpt>
      <trkpt lat="44.17622" lon="3.28874">
        <ele>870.13</ele>
        <time>2015-07-12T09:33:50Z</time>
      </trkpt>
      <trkpt lat="44.17619" lon="3.28875">
        <ele>871.09</ele>
        <time>2015-07-12T09:34:01Z</time>
      </trkpt>
      <trkpt lat="44.17619" lon="3.28875">
        <ele>871.09</ele>
        <time>2015-07-12T09:34:02Z</time>
      </trkpt>
      <trkpt lat="44.17627" lon="3.28879">
        <ele>870.13</ele>
        <time>2015-07-12T09:34:07Z</time>
      </trkpt>
      <trkpt lat="44.17639" lon="3.28887">
        <ele>870.13</ele>
        <time>2015-07-12T09:34:10Z</time>
      </trkpt>
      <trkpt lat="44.17663" lon="3.28908">
        <ele>872.05</ele>
        <time>2015-07-12T09:34:17Z</time>
      </trkpt>
      <trkpt lat="44.17665" lon="3.28912">
        <ele>872.53</ele>
        <time>2015-07-12T09:34:26Z</time>
      </trkpt>
      <trkpt lat="44.17659" lon="3.28904">
        <ele>872.53</ele>
        <time>2015-07-12T09:34:30Z</time>
      </trkpt>
      <trkpt lat="44.17647" lon="3.28893">
        <ele>871.57</ele>
        <time>2015-07-12T09:34:36Z</time>
      </trkpt>
      <trkpt lat="44.17621" lon="3.28876">
        <ele>870.13</ele>
        <time>2015-07-12T09:34:50Z</time>
      </trkpt>
      <trkpt lat="44.17598" lon="3.28866">
        <ele>870.13</ele>
        <time>2015-07-12T09:35:02Z</time>
      </trkpt>
      <trkpt lat="44.17573" lon="3.28853">
        <ele>869.17</ele>
        <time>2015-07-12T09:35:14Z</time>
      </trkpt>
      <trkpt lat="44.17566" lon="3.28849">
        <ele>869.17</ele>
        <time>2015-07-12T09:35:25Z</time>
      </trkpt>
      <trkpt lat="44.17565" lon="3.28849">
        <ele>868.69</ele>
        <time>2015-07-12T09:35:57Z</time>
      </trkpt>
      <trkpt lat="44.17565" lon="3.28848">
        <ele>868.21</ele>
        <time>2015-07-12T09:36:22Z</time>
      </trkpt>
      <trkpt lat="44.17556" lon="3.28839">
        <ele>867.73</ele>
        <time>2015-07-12T09:36:41Z</time>
      </trkpt>
      <trkpt lat="44.17528" lon="3.28813">
        <ele>865.8</ele>
        <time>2015-07-12T09:36:53Z</time>
      </trkpt>
      <trkpt lat="44.17493" lon="3.28817">
        <ele>864.84</ele>
        <time>2015-07-12T09:37:05Z</time>
      </trkpt>
      <trkpt lat="44.17474" lon="3.28836">
        <ele>864.36</ele>
        <time>2015-07-12T09:37:15Z</time>
      </trkpt>
      <trkpt lat="44.17451" lon="3.28828">
        <ele>861.96</ele>
        <time>2015-07-12T09:37:22Z</time>
      </trkpt>
      <trkpt lat="44.17424" lon="3.28818">
        <ele>861.48</ele>
        <time>2015-07-12T09:37:32Z</time>
      </trkpt>
      <trkpt lat="44.17393" lon="3.28807">
        <ele>860.04</ele>
        <time>2015-07-12T09:37:43Z</time>
      </trkpt>
      <trkpt lat="44.17374" lon="3.28802">
        <ele>861</ele>
        <time>2015-07-12T09:37:52Z</time>
      </trkpt>
      <trkpt lat="44.17361" lon="3.28792">
        <ele>861.48</ele>
        <time>2015-07-12T09:37:59Z</time>
      </trkpt>
      <trkpt lat="44.1735" lon="3.28778">
        <ele>861.96</ele>
        <time>2015-07-12T09:38:06Z</time>
      </trkpt>
      <trkpt lat="44.17324" lon="3.28753">
        <ele>862.44</ele>
        <time>2015-07-12T09:38:17Z</time>
      </trkpt>
      <trkpt lat="44.17311" lon="3.28741">
        <ele>862.44</ele>
        <time>2015-07-12T09:38:23Z</time>
      </trkpt>
      <trkpt lat="44.17298" lon="3.28719">
        <ele>861.48</ele>
        <time>2015-07-12T09:38:31Z</time>
      </trkpt>
      <trkpt lat="44.17274" lon="3.28686">
        <ele>861.48</ele>
        <time>2015-07-12T09:38:41Z</time>
      </trkpt>
      <trkpt lat="44.17253" lon="3.2864">
        <ele>861.96</ele>
        <time>2015-07-12T09:38:53Z</time>
      </trkpt>
      <trkpt lat="44.17244" lon="3.28601">
        <ele>862.44</ele>
        <time>2015-07-12T09:39:03Z</time>
      </trkpt>
      <trkpt lat="44.17235" lon="3.28567">
        <ele>862.92</ele>
        <time>2015-07-12T09:39:11Z</time>
      </trkpt>
      <trkpt lat="44.17234" lon="3.28554">
        <ele>863.4</ele>
        <time>2015-07-12T09:39:16Z</time>
      </trkpt>
      <trkpt lat="44.17234" lon="3.28546">
        <ele>863.88</ele>
        <time>2015-07-12T09:39:20Z</time>
      </trkpt>
      <trkpt lat="44.17232" lon="3.28536">
        <ele>863.88</ele>
        <time>2015-07-12T09:39:23Z</time>
      </trkpt>
      <trkpt lat="44.17228" lon="3.28527">
        <ele>863.88</ele>
        <time>2015-07-12T09:39:28Z</time>
      </trkpt>
      <trkpt lat="44.1722" lon="3.28483">
        <ele>862.44</ele>
        <time>2015-07-12T09:39:41Z</time>
      </trkpt>
      <trkpt lat="44.17213" lon="3.28464">
        <ele>861.96</ele>
        <time>2015-07-12T09:39:46Z</time>
      </trkpt>
      <trkpt lat="44.17208" lon="3.28435">
        <ele>861.48</ele>
        <time>2015-07-12T09:39:54Z</time>
      </trkpt>
      <trkpt lat="44.17206" lon="3.28428">
        <ele>860.52</ele>
        <time>2015-07-12T09:39:56Z</time>
      </trkpt>
      <trkpt lat="44.17205" lon="3.28419">
        <ele>861</ele>
        <time>2015-07-12T09:39:58Z</time>
      </trkpt>
      <trkpt lat="44.17202" lon="3.28373">
        <ele>860.04</ele>
        <time>2015-07-12T09:40:09Z</time>
      </trkpt>
      <trkpt lat="44.17197" lon="3.28327">
        <ele>859.08</ele>
        <time>2015-07-12T09:40:20Z</time>
      </trkpt>
      <trkpt lat="44.17198" lon="3.28318">
        <ele>859.56</ele>
        <time>2015-07-12T09:40:22Z</time>
      </trkpt>
      <trkpt lat="44.17191" lon="3.28293">
        <ele>859.08</ele>
        <time>2015-07-12T09:40:28Z</time>
      </trkpt>
      <trkpt lat="44.1718" lon="3.28251">
        <ele>856.67</ele>
        <time>2015-07-12T09:40:40Z</time>
      </trkpt>
      <trkpt lat="44.17178" lon="3.28247">
        <ele>856.19</ele>
        <time>2015-07-12T09:40:41Z</time>
      </trkpt>
      <trkpt lat="44.17161" lon="3.28218">
        <ele>854.27</ele>
        <time>2015-07-12T09:40:50Z</time>
      </trkpt>
      <trkpt lat="44.17152" lon="3.282">
        <ele>853.31</ele>
        <time>2015-07-12T09:40:54Z</time>
      </trkpt>
      <trkpt lat="44.17147" lon="3.2819">
        <ele>853.79</ele>
        <time>2015-07-12T09:40:56Z</time>
      </trkpt>
      <trkpt lat="44.17115" lon="3.28158">
        <ele>850.9</ele>
        <time>2015-07-12T09:41:07Z</time>
      </trkpt>
      <trkpt lat="44.17075" lon="3.28122">
        <ele>848.98</ele>
        <time>2015-07-12T09:41:21Z</time>
      </trkpt>
      <trkpt lat="44.17074" lon="3.28121">
        <ele>849.46</ele>
        <time>2015-07-12T09:41:22Z</time>
      </trkpt>
      <trkpt lat="44.17058" lon="3.28101">
        <ele>848.98</ele>
        <time>2015-07-12T09:41:33Z</time>
      </trkpt>
      <trkpt lat="44.17047" lon="3.28086">
        <ele>848.98</ele>
        <time>2015-07-12T09:41:39Z</time>
      </trkpt>
      <trkpt lat="44.17036" lon="3.28071">
        <ele>848.02</ele>
        <time>2015-07-12T09:41:45Z</time>
      </trkpt>
      <trkpt lat="44.17023" lon="3.28048">
        <ele>847.06</ele>
        <time>2015-07-12T09:41:54Z</time>
      </trkpt>
      <trkpt lat="44.16987" lon="3.28025">
        <ele>846.58</ele>
        <time>2015-07-12T09:42:06Z</time>
      </trkpt>
      <trkpt lat="44.16965" lon="3.28001">
        <ele>846.1</ele>
        <time>2015-07-12T09:42:16Z</time>
      </trkpt>
      <trkpt lat="44.16938" lon="3.27973">
        <ele>846.58</ele>
        <time>2015-07-12T09:42:28Z</time>
      </trkpt>
      <trkpt lat="44.16924" lon="3.2794">
        <ele>848.02</ele>
        <time>2015-07-12T09:42:39Z</time>
      </trkpt>
      <trkpt lat="44.16903" lon="3.27906">
        <ele>848.02</ele>
        <time>2015-07-12T09:42:51Z</time>
      </trkpt>
      <trkpt lat="44.16876" lon="3.27863">
        <ele>846.1</ele>
        <time>2015-07-12T09:43:06Z</time>
      </trkpt>
      <trkpt lat="44.16848" lon="3.27821">
        <ele>845.14</ele>
        <time>2015-07-12T09:43:21Z</time>
      </trkpt>
      <trkpt lat="44.16822" lon="3.27777">
        <ele>846.1</ele>
        <time>2015-07-12T09:43:35Z</time>
      </trkpt>
      <trkpt lat="44.16808" lon="3.27738">
        <ele>847.06</ele>
        <time>2015-07-12T09:43:47Z</time>
      </trkpt>
      <trkpt lat="44.16797" lon="3.27697">
        <ele>848.5</ele>
        <time>2015-07-12T09:44:02Z</time>
      </trkpt>
      <trkpt lat="44.16787" lon="3.27682">
        <ele>848.02</ele>
        <time>2015-07-12T09:44:10Z</time>
      </trkpt>
      <trkpt lat="44.16781" lon="3.27675">
        <ele>848.02</ele>
        <time>2015-07-12T09:44:14Z</time>
      </trkpt>
      <trkpt lat="44.16775" lon="3.27667">
        <ele>848.5</ele>
        <time>2015-07-12T09:44:18Z</time>
      </trkpt>
      <trkpt lat="44.16771" lon="3.27656">
        <ele>848.02</ele>
        <time>2015-07-12T09:44:23Z</time>
      </trkpt>
      <trkpt lat="44.16751" lon="3.27602">
        <ele>847.54</ele>
        <time>2015-07-12T09:44:37Z</time>
      </trkpt>
      <trkpt lat="44.1675" lon="3.27599">
        <ele>847.06</ele>
        <time>2015-07-12T09:44:38Z</time>
      </trkpt>
      <trkpt lat="44.1674" lon="3.27562">
        <ele>847.06</ele>
        <time>2015-07-12T09:44:48Z</time>
      </trkpt>
      <trkpt lat="44.16711" lon="3.2752">
        <ele>847.54</ele>
        <time>2015-07-12T09:45:03Z</time>
      </trkpt>
      <trkpt lat="44.16682" lon="3.27488">
        <ele>845.14</ele>
        <time>2015-07-12T09:45:15Z</time>
      </trkpt>
      <trkpt lat="44.16679" lon="3.27484">
        <ele>845.62</ele>
        <time>2015-07-12T09:45:16Z</time>
      </trkpt>
      <trkpt lat="44.16655" lon="3.27434">
        <ele>845.62</ele>
        <time>2015-07-12T09:45:29Z</time>
      </trkpt>
      <trkpt lat="44.16649" lon="3.27423">
        <ele>844.66</ele>
        <time>2015-07-12T09:45:33Z</time>
      </trkpt>
      <trkpt lat="44.16626" lon="3.27405">
        <ele>844.18</ele>
        <time>2015-07-12T09:45:42Z</time>
      </trkpt>
      <trkpt lat="44.16594" lon="3.27383">
        <ele>844.18</ele>
        <time>2015-07-12T09:45:56Z</time>
      </trkpt>
      <trkpt lat="44.16584" lon="3.27375">
        <ele>845.62</ele>
        <time>2015-07-12T09:46:00Z</time>
      </trkpt>
      <trkpt lat="44.16568" lon="3.27354">
        <ele>847.06</ele>
        <time>2015-07-12T09:46:11Z</time>
      </trkpt>
      <trkpt lat="44.16551" lon="3.27318">
        <ele>846.58</ele>
        <time>2015-07-12T09:46:23Z</time>
      </trkpt>
      <trkpt lat="44.1653" lon="3.2729">
        <ele>845.14</ele>
        <time>2015-07-12T09:46:34Z</time>
      </trkpt>
      <trkpt lat="44.16507" lon="3.27272">
        <ele>844.66</ele>
        <time>2015-07-12T09:46:45Z</time>
      </trkpt>
      <trkpt lat="44.16482" lon="3.27239">
        <ele>844.66</ele>
        <time>2015-07-12T09:46:58Z</time>
      </trkpt>
      <trkpt lat="44.16471" lon="3.27205">
        <ele>844.18</ele>
        <time>2015-07-12T09:47:08Z</time>
      </trkpt>
      <trkpt lat="44.1647" lon="3.27199">
        <ele>844.66</ele>
        <time>2015-07-12T09:47:10Z</time>
      </trkpt>
      <trkpt lat="44.16468" lon="3.27193">
        <ele>845.14</ele>
        <time>2015-07-12T09:47:13Z</time>
      </trkpt>
      <trkpt lat="44.16467" lon="3.27186">
        <ele>845.62</ele>
        <time>2015-07-12T09:47:17Z</time>
      </trkpt>
      <trkpt lat="44.16462" lon="3.27172">
        <ele>846.1</ele>
        <time>2015-07-12T09:47:25Z</time>
      </trkpt>
      <trkpt lat="44.16457" lon="3.27167">
        <ele>846.1</ele>
        <time>2015-07-12T09:47:29Z</time>
      </trkpt>
      <trkpt lat="44.16453" lon="3.27154">
        <ele>847.06</ele>
        <time>2015-07-12T09:47:42Z</time>
      </trkpt>
      <trkpt lat="44.16454" lon="3.27159">
        <ele>846.58</ele>
        <time>2015-07-12T09:47:52Z</time>
      </trkpt>
      <trkpt lat="44.16452" lon="3.27156">
        <ele>847.06</ele>
        <time>2015-07-12T09:48:02Z</time>
      </trkpt>
      <trkpt lat="44.16451" lon="3.27156">
        <ele>847.06</ele>
        <time>2015-07-12T09:48:17Z</time>
      </trkpt>
      <trkpt lat="44.16438" lon="3.27135">
        <ele>846.58</ele>
        <time>2015-07-12T09:48:27Z</time>
      </trkpt>
      <trkpt lat="44.1643" lon="3.27089">
        <ele>845.14</ele>
        <time>2015-07-12T09:48:40Z</time>
      </trkpt>
      <trkpt lat="44.16415" lon="3.27052">
        <ele>846.58</ele>
        <time>2015-07-12T09:48:53Z</time>
      </trkpt>
      <trkpt lat="44.16414" lon="3.27049">
        <ele>847.06</ele>
        <time>2015-07-12T09:48:55Z</time>
      </trkpt>
      <trkpt lat="44.16393" lon="3.27023">
        <ele>846.58</ele>
        <time>2015-07-12T09:49:06Z</time>
      </trkpt>
      <trkpt lat="44.16389" lon="3.27017">
        <ele>846.58</ele>
        <time>2015-07-12T09:49:08Z</time>
      </trkpt>
      <trkpt lat="44.16379" lon="3.27005">
        <ele>848.02</ele>
        <time>2015-07-12T09:49:14Z</time>
      </trkpt>
      <trkpt lat="44.16377" lon="3.27002">
        <ele>847.54</ele>
        <time>2015-07-12T09:49:16Z</time>
      </trkpt>
      <trkpt lat="44.16371" lon="3.26994">
        <ele>847.54</ele>
        <time>2015-07-12T09:49:20Z</time>
      </trkpt>
      <trkpt lat="44.16341" lon="3.26975">
        <ele>848.5</ele>
        <time>2015-07-12T09:49:31Z</time>
      </trkpt>
      <trkpt lat="44.16309" lon="3.26969">
        <ele>848.02</ele>
        <time>2015-07-12T09:49:41Z</time>
      </trkpt>
      <trkpt lat="44.16278" lon="3.26954">
        <ele>846.1</ele>
        <time>2015-07-12T09:49:53Z</time>
      </trkpt>
      <trkpt lat="44.16243" lon="3.26924">
        <ele>844.66</ele>
        <time>2015-07-12T09:50:04Z</time>
      </trkpt>
      <trkpt lat="44.16216" lon="3.26889">
        <ele>845.14</ele>
        <time>2015-07-12T09:50:16Z</time>
      </trkpt>
      <trkpt lat="44.16189" lon="3.26866">
        <ele>843.69</ele>
        <time>2015-07-12T09:50:27Z</time>
      </trkpt>
      <trkpt lat="44.16161" lon="3.26831">
        <ele>844.66</ele>
        <time>2015-07-12T09:50:39Z</time>
      </trkpt>
      <trkpt lat="44.16132" lon="3.26797">
        <ele>846.1</ele>
        <time>2015-07-12T09:50:53Z</time>
      </trkpt>
      <trkpt lat="44.1611" lon="3.26765">
        <ele>846.1</ele>
        <time>2015-07-12T09:51:02Z</time>
      </trkpt>
      <trkpt lat="44.16075" lon="3.26746">
        <ele>847.06</ele>
        <time>2015-07-12T09:51:14Z</time>
      </trkpt>
      <trkpt lat="44.1605" lon="3.26722">
        <ele>848.02</ele>
        <time>2015-07-12T09:51:25Z</time>
      </trkpt>
      <trkpt lat="44.16037" lon="3.26706">
        <ele>848.98</ele>
        <time>2015-07-12T09:51:33Z</time>
      </trkpt>
      <trkpt lat="44.16014" lon="3.26672">
        <ele>848.98</ele>
        <time>2015-07-12T09:51:45Z</time>
      </trkpt>
      <trkpt lat="44.15994" lon="3.26652">
        <ele>848.5</ele>
        <time>2015-07-12T09:51:56Z</time>
      </trkpt>
      <trkpt lat="44.15976" lon="3.26619">
        <ele>846.58</ele>
        <time>2015-07-12T09:52:03Z</time>
      </trkpt>
      <trkpt lat="44.15965" lon="3.26601">
        <ele>845.62</ele>
        <time>2015-07-12T09:52:07Z</time>
      </trkpt>
      <trkpt lat="44.15951" lon="3.26578">
        <ele>845.14</ele>
        <time>2015-07-12T09:52:12Z</time>
      </trkpt>
      <trkpt lat="44.15917" lon="3.26509">
        <ele>847.06</ele>
        <time>2015-07-12T09:52:25Z</time>
      </trkpt>
      <trkpt lat="44.15889" lon="3.26451">
        <ele>849.94</ele>
        <time>2015-07-12T09:52:39Z</time>
      </trkpt>
      <trkpt lat="44.15877" lon="3.26409">
        <ele>849.94</ele>
        <time>2015-07-12T09:52:51Z</time>
      </trkpt>
      <trkpt lat="44.15865" lon="3.26366">
        <ele>850.42</ele>
        <time>2015-07-12T09:53:04Z</time>
      </trkpt>
      <trkpt lat="44.15851" lon="3.26321">
        <ele>849.46</ele>
        <time>2015-07-12T09:53:18Z</time>
      </trkpt>
      <trkpt lat="44.15839" lon="3.26284">
        <ele>848.5</ele>
        <time>2015-07-12T09:53:30Z</time>
      </trkpt>
      <trkpt lat="44.1583" lon="3.26263">
        <ele>846.1</ele>
        <time>2015-07-12T09:53:34Z</time>
      </trkpt>
      <trkpt lat="44.15805" lon="3.26202">
        <ele>848.5</ele>
        <time>2015-07-12T09:53:46Z</time>
      </trkpt>
      <trkpt lat="44.15794" lon="3.26175">
        <ele>848.98</ele>
        <time>2015-07-12T09:53:52Z</time>
      </trkpt>
      <trkpt lat="44.15767" lon="3.26144">
        <ele>848.5</ele>
        <time>2015-07-12T09:54:00Z</time>
      </trkpt>
      <trkpt lat="44.15716" lon="3.26108">
        <ele>849.46</ele>
        <time>2015-07-12T09:54:15Z</time>
      </trkpt>
      <trkpt lat="44.15679" lon="3.26091">
        <ele>850.9</ele>
        <time>2015-07-12T09:54:28Z</time>
      </trkpt>
      <trkpt lat="44.15648" lon="3.26085">
        <ele>851.87</ele>
        <time>2015-07-12T09:54:42Z</time>
      </trkpt>
      <trkpt lat="44.15611" lon="3.26079">
        <ele>852.35</ele>
        <time>2015-07-12T09:54:57Z</time>
      </trkpt>
      <trkpt lat="44.15564" lon="3.26072">
        <ele>853.31</ele>
        <time>2015-07-12T09:55:14Z</time>
      </trkpt>
      <trkpt lat="44.15551" lon="3.26073">
        <ele>853.79</ele>
        <time>2015-07-12T09:55:17Z</time>
      </trkpt>
      <trkpt lat="44.15539" lon="3.26071">
        <ele>853.31</ele>
        <time>2015-07-12T09:55:19Z</time>
      </trkpt>
      <trkpt lat="44.15527" lon="3.26067">
        <ele>854.27</ele>
        <time>2015-07-12T09:55:21Z</time>
      </trkpt>
      <trkpt lat="44.15514" lon="3.26061">
        <ele>855.23</ele>
        <time>2015-07-12T09:55:23Z</time>
      </trkpt>
      <trkpt lat="44.15456" lon="3.26001">
        <ele>857.63</ele>
        <time>2015-07-12T09:55:33Z</time>
      </trkpt>
      <trkpt lat="44.15445" lon="3.25992">
        <ele>858.59</ele>
        <time>2015-07-12T09:55:35Z</time>
      </trkpt>
      <trkpt lat="44.15428" lon="3.25973">
        <ele>861.96</ele>
        <time>2015-07-12T09:55:39Z</time>
      </trkpt>
      <trkpt lat="44.154" lon="3.25948">
        <ele>864.36</ele>
        <time>2015-07-12T09:55:50Z</time>
      </trkpt>
      <trkpt lat="44.15378" lon="3.25932">
        <ele>866.77</ele>
        <time>2015-07-12T09:56:05Z</time>
      </trkpt>
      <trkpt lat="44.15365" lon="3.25926">
        <ele>867.25</ele>
        <time>2015-07-12T09:56:16Z</time>
      </trkpt>
      <trkpt lat="44.15359" lon="3.25916">
        <ele>866.77</ele>
        <time>2015-07-12T09:56:25Z</time>
      </trkpt>
      <trkpt lat="44.15349" lon="3.25908">
        <ele>867.25</ele>
        <time>2015-07-12T09:56:40Z</time>
      </trkpt>
      <trkpt lat="44.15346" lon="3.25906">
        <ele>866.77</ele>
        <time>2015-07-12T09:56:52Z</time>
      </trkpt>
      <trkpt lat="44.15341" lon="3.25903">
        <ele>865.8</ele>
        <time>2015-07-12T09:56:55Z</time>
      </trkpt>
      <trkpt lat="44.15337" lon="3.25904">
        <ele>864.36</ele>
        <time>2015-07-12T09:57:05Z</time>
      </trkpt>
      <trkpt lat="44.15337" lon="3.25903">
        <ele>864.84</ele>
        <time>2015-07-12T09:57:08Z</time>
      </trkpt>
      <trkpt lat="44.15338" lon="3.25905">
        <ele>865.32</ele>
        <time>2015-07-12T09:57:11Z</time>
      </trkpt>
      <trkpt lat="44.15337" lon="3.25909">
        <ele>865.32</ele>
        <time>2015-07-12T09:57:16Z</time>
      </trkpt>
      <trkpt lat="44.15328" lon="3.2591">
        <ele>865.32</ele>
        <time>2015-07-12T09:57:20Z</time>
      </trkpt>
      <trkpt lat="44.15312" lon="3.25922">
        <ele>865.8</ele>
        <time>2015-07-12T09:57:26Z</time>
      </trkpt>
      <trkpt lat="44.15303" lon="3.25927">
        <ele>866.77</ele>
        <time>2015-07-12T09:57:30Z</time>
      </trkpt>
      <trkpt lat="44.15287" lon="3.25915">
        <ele>868.69</ele>
        <time>2015-07-12T09:57:38Z</time>
      </trkpt>
      <trkpt lat="44.15288" lon="3.25897">
        <ele>870.13</ele>
        <time>2015-07-12T09:57:47Z</time>
      </trkpt>
      <trkpt lat="44.15292" lon="3.25884">
        <ele>870.13</ele>
        <time>2015-07-12T09:57:54Z</time>
      </trkpt>
      <trkpt lat="44.15296" lon="3.25865">
        <ele>872.05</ele>
        <time>2015-07-12T09:58:04Z</time>
      </trkpt>
      <trkpt lat="44.15296" lon="3.25829">
        <ele>873.98</ele>
        <time>2015-07-12T09:58:21Z</time>
      </trkpt>
      <trkpt lat="44.15289" lon="3.25797">
        <ele>874.94</ele>
        <time>2015-07-12T09:58:35Z</time>
      </trkpt>
      <trkpt lat="44.15277" lon="3.25778">
        <ele>874.94</ele>
        <time>2015-07-12T09:58:48Z</time>
      </trkpt>
      <trkpt lat="44.15276" lon="3.25775">
        <ele>874.94</ele>
        <time>2015-07-12T09:58:59Z</time>
      </trkpt>
      <trkpt lat="44.15276" lon="3.25775">
        <ele>875.42</ele>
        <time>2015-07-12T09:59:35Z</time>
      </trkpt>
      <trkpt lat="44.15276" lon="3.25777">
        <ele>876.86</ele>
        <time>2015-07-12T09:59:51Z</time>
      </trkpt>
      <trkpt lat="44.15276" lon="3.25777">
        <ele>873.01</ele>
        <time>2015-07-12T09:59:56Z</time>
      </trkpt>
      <trkpt lat="44.15275" lon="3.25777">
        <ele>876.86</ele>
        <time>2015-07-12T10:00:02Z</time>
      </trkpt>
      <trkpt lat="44.15275" lon="3.25777">
        <ele>876.38</ele>
        <time>2015-07-12T10:00:03Z</time>
      </trkpt>
      <trkpt lat="44.15275" lon="3.25777">
        <ele>875.42</ele>
        <time>2015-07-12T10:00:05Z</time>
      </trkpt>
      <trkpt lat="44.15275" lon="3.25777">
        <ele>872.05</ele>
        <time>2015-07-12T10:00:14Z</time>
      </trkpt>
      <trkpt lat="44.15275" lon="3.25777">
        <ele>875.9</ele>
        <time>2015-07-12T10:00:16Z</time>
      </trkpt>
    </trkseg>
  </trk>
</gpx>